The most NFOs on the net! (again)

PRE DATA

Datetime Release
2019-04-12 00:00:40 Romeo_Elvis-Chocolat-WEB-FR-2019-sceau
2019-04-12 00:00:40 Summer.of.84.2018.COMPLETE.FR.BLURAY-4FR
2019-04-12 00:00:52 The.Grand.Tour.S03E14.720p.WEB.H264-MEMENTO
2019-04-12 00:00:52 X-Art.19.04.11.Sybil.My.Sweet.Baby.XXX.1080p.MP4-KTR
2019-04-12 00:01:29 Discarnate.2018.COMPLETE.FR.BLURAY-4FR
2019-04-12 00:01:41 The.Grand.Tour.S03E14.1080p.WEB.H264-MEMENTO
2019-04-12 00:01:46 Kevin_McKay_and_Alaia_and_Gallo-Come_Together-(GU400Z)-WEB-2019-ENTANGLE
2019-04-12 00:03:00 WTA.Samsung.Open.2019.Round.2.Sorana.Cirstea.Vs.Polona.Hercog.720p.WEB.h264-PYRAMiD
2019-04-12 00:05:01 Spirit.Wild.und.frei.S06E02.GERMAN.DL.1080P.WEB.X264-WAYNE
2019-04-12 00:05:21 We.Die.Young.2019.1080p.BluRay.x264-BRMP
2019-04-12 00:05:49 Spirit.Wild.und.frei.S06E03.GERMAN.DL.1080P.WEB.X264-WAYNE
2019-04-12 00:05:52 X-Art.19.04.11.Sybil.My.Sweet.Baby.XXX.2160p.MP4-KTR
2019-04-12 00:06:34 Spirit.Wild.und.frei.S06E04.GERMAN.DL.1080P.WEB.X264-WAYNE
2019-04-12 00:07:02 The.Biggest.Loser.Slovenija.S03E22.SI.HDTV.x264-RADiOACTiVE
2019-04-12 00:07:03 The.Biggest.Loser.Slovenija.S03E22.SI.720p.HDTV.x264-RADiOACTiVE
2019-04-12 00:07:11 Spirit.Wild.und.frei.S06E05.GERMAN.DL.1080P.WEB.X264-WAYNE
2019-04-12 00:07:44 Spirit.Wild.und.frei.S06E06.GERMAN.DL.1080P.WEB.X264-WAYNE
2019-04-12 00:08:01 Dosseh-Vidaloa_4.5-WEB-FR-2019-OND
2019-04-12 00:08:05 WTA.Samsung.Open.2019.Round.2.Stefanie.Voegele.Vs.Viktorija.Golubic.720p.WEB.h264-PYRAMiD
2019-04-12 00:09:02 Finaste.Familjen.S03E04.SWEDiSH.720p.WEB.X264-AVRATTNING
2019-04-12 00:09:21 Pose.S01E04.1080p.HDTV.H264-ONTHERUN
2019-04-12 00:09:29 Marty_Wilde-Dreamboat-WEB-2012-ENRiCH
2019-04-12 00:09:44 Lindsay_Beaver-Tough_As_Love-2018-404
2019-04-12 00:10:13 Spirit.Wild.und.frei.S06E02.GERMAN.DL.720P.WEB.X264-WAYNE
2019-04-12 00:10:49 Spirit.Wild.und.frei.S06E03.GERMAN.DL.720P.WEB.X264-WAYNE
2019-04-12 00:11:00 Goldtaucher.der.Beringsee.S05E01.Start.in.eine.kurze.Saison.GERMAN.DL.DOKU.1080p.HDTV.x264-MDGP
2019-04-12 00:11:17 Spirit.Wild.und.frei.S06E04.GERMAN.DL.720P.WEB.X264-WAYNE
2019-04-12 00:11:49 Dosseh-Vidalossa_4.5-DiRFiX-WEB-FR-2019-OND
2019-04-12 00:11:49 Spirit.Wild.und.frei.S06E05.GERMAN.DL.720P.WEB.X264-WAYNE
2019-04-12 00:12:21 Spirit.Wild.und.frei.S06E06.GERMAN.DL.720P.WEB.X264-WAYNE
2019-04-12 00:12:27 Hidden_Empire-Caterpillar-SENSO049-WEB-2019-PTC
2019-04-12 00:13:30 VA-Mayday_2019_When_Music_Matters-(LC02182)-WEB-2019-BF
2019-04-12 00:13:58 Lee.and.Dean.S02E01.1080p.HDTV.H264-ONTHERUN
2019-04-12 00:14:04 Bordertown.S02D01.MULTi.COMPLETE.BLURAY-FULLSiZE
2019-04-12 00:14:33 Gal_Metal_World_Tour_Edition_Bonus_Tracks_Vol_1_DLC_NSW-VENOM
2019-04-12 00:16:07 Father.Brown.2013.S02D03.COMPLETE.BLURAY-PFa
2019-04-12 00:16:08 Wisting.S01E01.NORWEGiAN.720p.HDTV.x264-NORPiLT
2019-04-12 00:16:50 Finaste.Familjen.S03E04.REPACK.SWEDiSH.720p.WEB.X264-AVRATTNING
2019-04-12 00:17:11 29.S03E06.DANiSH.720p.HDTV.x264-DiViSiON
2019-04-12 00:17:31 Fear.the.Woods.S01E10.Terror.From.the.Sky.720p.HDTV.x264-CRiMSON
2019-04-12 00:18:01 Fear.the.Woods.S01E10.Terror.From.the.Sky.HDTV.x264-CRiMSON
2019-04-12 00:18:31 Island.Life.S15E04.Space.for.Nine.at.Indian.Lake.Ohio.720p.HDTV.x264-CRiMSON
2019-04-12 00:19:01 Island.Life.S15E04.Space.for.Nine.at.Indian.Lake.Ohio.HDTV.x264-CRiMSON
2019-04-12 00:19:31 Steve.2019.04.03.720p.HDTV.x264-CRiMSON
2019-04-12 00:20:01 Steve.2019.04.03.HDTV.x264-CRiMSON
2019-04-12 00:20:31 Steve.2019.04.05.720p.HDTV.x264-CRiMSON
2019-04-12 00:21:01 Steve.2019.04.05.HDTV.x264-CRiMSON
2019-04-12 00:21:12 Code.Blue.Murder.S01E02.The.Murder.of.John.Jack.Williams.HDTV.x264-UNDERBELLY
2019-04-12 00:21:31 The.Book.of.John.Gray.S01E17.The.Chapter.on.Dealing.With.Hate.720p.HDTV.x264-CRiMSON
2019-04-12 00:22:01 The.Book.of.John.Gray.S01E17.The.Chapter.on.Dealing.With.Hate.HDTV.x264-CRiMSON
2019-04-12 00:22:14 Code.Blue.Murder.S01E02.The.Murder.of.John.Jack.Williams.720p.HDTV.x264-UNDERBELLY
2019-04-12 00:23:17 Code.Blue.Murder.S01E02.The.Murder.of.John.Jack.Williams.1080p.HDTV.H264-UNDERBELLY
2019-04-12 00:24:28 Discarnate.2018.FRENCH.BDRip.x264-PRiDEHD
2019-04-12 00:24:58 Arturo.Benedetti.Michelangeli.Claude.Debussy.Images.I.E.II.Serie.iTALiAN.HR.PDTV.x264-iDiB
2019-04-12 00:24:59 Arturo.Benedetti.Michelangeli.Claude.Debussy.Images.I.E.II.Serie.iTALiAN.PDTV.x264-iDiB
2019-04-12 00:25:33 Gloria.Campaner.Claude.Debussy.Suite.Bergamasque.iTALiAN.720p.HDTV.x264-iDiB
2019-04-12 00:25:34 Gloria.Campaner.Claude.Debussy.Suite.Bergamasque.iTALiAN.HDTV.x264-iDiB
2019-04-12 00:27:25 Spider-Man.A.New.Universe.2018.German.AC3.2160p.WEBRiP.x265-CODY
2019-04-12 00:28:13 Discarnate.2018.FRENCH.720p.BluRay.x264-LOST
2019-04-12 00:28:27 Discarnate.2018.MULTi.1080p.BluRay.x264-LOST
2019-04-12 00:31:30 Spider-Man.A.New.Universe.2018.German.DL.AC3.Dubbed.1080p.BluRay.x264.iNTERNAL-PsO
2019-04-12 00:36:12 Spider-Man.A.New.Universe.2018.German.DL.AC3.Dubbed.720p.BluRay.x264.iNTERNAL-PsO
2019-04-12 00:41:21 Spider-Man.A.New.Universe.2018.German.AC3.Dubbed.BDRip.x264.iNTERNAL-PsO
2019-04-12 00:42:45 The.Grand.Tour.S03E14.WEB.h264-STRiFE
2019-04-12 00:43:01 Victoria.S03E01.720p.BluRay.x264-DEMAND
2019-04-12 00:43:52 Kindred.Spirits.S03E09.The.Villisca.Axe.Murders.1080p.WEB.x264-DHD
2019-04-12 00:44:41 Victoria.S03E02.720p.BluRay.x264-DEMAND
2019-04-12 00:45:16 The.Biggest.Loser.Slovenija.S03E23.SI.HDTV.x264-RADiOACTiVE
2019-04-12 00:45:17 The.Biggest.Loser.Slovenija.S03E23.SI.720p.HDTV.x264-RADiOACTiVE
2019-04-12 00:45:59 We.Die.Young.2019.COMPLETE.BLURAY-BLURRY
2019-04-12 00:46:05 Victoria.S03E03.720p.BluRay.x264-DEMAND
2019-04-12 00:47:47 Bachelor.In.Paradise.AU.S02E03.WEB.H264-FLX
2019-04-12 00:47:47 Victoria.S03E04.720p.BluRay.x264-DEMAND
2019-04-12 00:49:37 Victoria.S03E05.720p.BluRay.x264-DEMAND
2019-04-12 00:51:16 Victoria.S03E06.720p.BluRay.x264-DEMAND
2019-04-12 00:53:23 Seth.Meyers.2019.04.10.Sam.Rockwell.WEB.x264-TBS
2019-04-12 00:55:12 Victoria.S03E07.720p.BluRay.x264-DEMAND
2019-04-12 00:57:01 Victoria.S03E08.720p.BluRay.x264-DEMAND
2019-04-12 00:58:38 NRL.2019.Round.5.Broncos.vs.Tigers.WEB.H264-LASTPLACE
2019-04-12 00:58:43 Victoria.S03E01.BDRip.x264-DEMAND
2019-04-12 00:59:00 Ferry_Corsten_-_Corstens_Countdown-SAT-04-11-2019-TALiON
2019-04-12 00:59:17 Victoria.S03E02.BDRip.x264-DEMAND
2019-04-12 00:59:30 Victoria.S03E03.BDRip.x264-DEMAND
2019-04-12 00:59:59 Victoria.S03E04.BDRip.x264-DEMAND
2019-04-12 01:00:15 Victoria.S03E05.BDRip.x264-DEMAND
2019-04-12 01:00:49 Victoria.S03E06.BDRip.x264-DEMAND
2019-04-12 01:01:19 Victoria.S03E07.BDRip.x264-DEMAND
2019-04-12 01:02:24 Victoria.S03E08.BDRip.x264-DEMAND
2019-04-12 01:02:28 The.Price.Is.Right.S47E136.WEB.x264-W4F
2019-04-12 01:03:03 Victoria.S03E01.1080p.BluRay.x264-ROVERS
2019-04-12 01:03:42 The.Price.Is.Right.S47E136.720p.WEB.x264-W4F
2019-04-12 01:03:46 Lets.Make.A.Deal.2009.S10E138.WEB.x264-W4F
2019-04-12 01:04:05 Victoria.S03E02.1080p.BluRay.x264-ROVERS
2019-04-12 01:04:10 All.Night.Long.1962.1080p.BluRay.x264-GHOULS
2019-04-12 01:04:42 The.Bold.and.the.Beautiful.S32E140.WEB.x264-W4F
2019-04-12 01:05:24 Lets.Make.A.Deal.2009.S10E138.720p.WEB.x264-W4F
2019-04-12 01:05:25 Victoria.S03E03.1080p.BluRay.x264-ROVERS
2019-04-12 01:05:30 The.Price.Is.Right.S47E136.1080p.WEB.x264-W4F
2019-04-12 01:06:14 The.Bold.and.the.Beautiful.S32E140.720p.WEB.x264-W4F
2019-04-12 01:06:20 All.Night.Long.1962.720p.BluRay.x264-GHOULS
2019-04-12 01:06:25 Lets.Make.A.Deal.2009.S10E138.1080p.WEB.x264-W4F
2019-04-12 01:06:37 The.Bold.and.the.Beautiful.S32E140.1080p.WEB.x264-W4F
2019-04-12 01:06:57 Victoria.S03E04.1080p.BluRay.x264-ROVERS
2019-04-12 01:07:48 Victoria.S03E05.1080p.BluRay.x264-ROVERS
2019-04-12 01:08:49 Victoria.S03E06.1080p.BluRay.x264-ROVERS
2019-04-12 01:09:45 Victoria.S03E07.1080p.BluRay.x264-ROVERS
2019-04-12 01:11:04 All.Night.Long.1962.iNTERNAL.BDRip.x264-GHOULS
2019-04-12 01:11:16 Victoria.S03E08.1080p.BluRay.x264-ROVERS
2019-04-12 01:13:31 All.Night.Long.1962.COMPLETE.BLURAY-VEXHD
2019-04-12 01:18:29 Scot.Squad.S05E02.720p.HDTV.X264-CREED
2019-04-12 01:19:31 AUTODESK.INFRAWORKS.MULTI.V2020-ISO
2019-04-12 01:20:59 NRL.2019.Round.5.Broncos.vs.Tigers.720p.WEB.H264-LASTPLACE
2019-04-12 01:21:47 Orchestra.Sinfonica.Nazionale.Della.RAI.Claude.Debussy.Images.Per.Orchestra.iTALiAN.HR.PDTV.x264-iDiB
2019-04-12 01:21:53 Orchestra.Sinfonica.Nazionale.Della.RAI.Claude.Debussy.Images.Per.Orchestra.iTALiAN.PDTV.x264-iDiB
2019-04-12 01:22:17 VA-Sunshine_Live_Vol_67-(B07PVJ4KVD)-WEB-2019-BF
2019-04-12 01:23:03 Gang_Gang_Dance-Kazuashita-CD-FLAC-2018-NBFLAC
2019-04-12 01:26:32 AUTODESK.NAVISWORKS.MANAGE.V2020.MULTI-ISO
2019-04-12 01:32:47 VA-Big_In_Ibiza-The_Grand_Opening_2019-(AUDIBLY184)-WEB-2019-BF
2019-04-12 01:32:54 Australian.Swimming.Championships.2019.Day.4.WEB.H264-LASTPLACE
2019-04-12 01:33:33 AUTODESK.NAVISWORKS.SIMULATE-V2020.MULTI-ISO
2019-04-12 01:34:10 VA-Energy_Trance_2019-(423446_453)-WEB-2019-BF
2019-04-12 01:35:22 VA-House_Nation_Clubbing_-_Miami_2019-(RH2COMP805A)-WEB-2019-BF
2019-04-12 01:39:52 Goblin.Slayer.E01.German.2018.ANiME.DL.1080p.BluRay.x264-3MiNA
2019-04-12 01:40:21 Goblin.Slayer.E01.German.2018.ANiME.DL.720p.BluRay.x264-3MiNA
2019-04-12 01:40:37 AUTODESK.ROBOT.STRUCTURAL.ANALYSIS.PRO.MULTI.V2020-ISO
2019-04-12 01:40:38 Goblin.Slayer.E01.German.2018.ANiME.DL.BDRiP.x264-3MiNA
2019-04-12 01:40:38 Goblin.Slayer.E02.German.2018.ANiME.DL.1080p.BluRay.x264-3MiNA
2019-04-12 01:41:29 Goblin.Slayer.E02.German.2018.ANiME.DL.720p.BluRay.x264-3MiNA
2019-04-12 01:41:29 Goblin.Slayer.E02.German.2018.ANiME.DL.BDRiP.x264-3MiNA
2019-04-12 01:45:04 Goblin.Slayer.E03.German.2018.ANiME.DL.1080p.BluRay.x264-3MiNA
2019-04-12 01:45:06 Goblin.Slayer.E03.German.2018.ANiME.DL.720p.BluRay.x264-3MiNA
2019-04-12 01:45:06 Goblin.Slayer.E03.German.2018.ANiME.DL.BDRiP.x264-3MiNA
2019-04-12 01:45:44 Goblin.Slayer.E04.German.2018.ANiME.DL.1080p.BluRay.x264-3MiNA
2019-04-12 01:45:45 Goblin.Slayer.E04.German.2018.ANiME.DL.720p.BluRay.x264-3MiNA
2019-04-12 01:45:47 Goblin.Slayer.E04.German.2018.ANiME.DL.BDRiP.x264-3MiNA
2019-04-12 01:49:58 Andre_Benz-Trap_Nation_Radio-SAT-04-10-2019-U235
2019-04-12 01:51:00 Eric_Dlux_And_DJ_Five-Faed_University-SAT-04-10-2019-U235
2019-04-12 01:52:02 Party_Favor-No_Favors-SAT-04-10-2019-U235
2019-04-12 01:53:04 Rodg-Armada_Invites_Radio-DAB-04-10-2019-U235
2019-04-12 01:54:05 Tritonal-Tritonia-SAT-04-10-2019-U235
2019-04-12 01:55:07 Valentino_Khan-Hot_Sauce_Radio-SAT-04-11-2019-U235
2019-04-12 01:56:09 Willy_Joy-Back_To_Back_Radio-SAT-04-10-2019-U235
2019-04-12 01:57:10 Zeds_Dead-Deadbeats_Radio-SAT-04-11-2019-U235
2019-04-12 01:58:59 Aly_and_Fila_-_Future_Sound_of_Egypt_593-SAT-04-11-2019-TALiON
2019-04-12 02:01:21 Bast.I.Test.S03E07.SWEDiSH.720p.WEB.H264-EXECUTION
2019-04-12 02:03:34 Marvels.Cloak.And.Dagger.S02E03.WEB.x264-TBS
2019-04-12 02:04:01 Marvels.Cloak.And.Dagger.S02E03.720p.WEB.x264-TBS
2019-04-12 02:08:45 Law.and.Order.SVU.S20E20.HDTV.x264-KILLERS
2019-04-12 02:09:17 Law.and.Order.SVU.S20E20.720p.HDTV.x264-KILLERS
2019-04-12 02:28:16 Days.of.our.Lives.S54E141.WEB.x264-W4F
2019-04-12 02:29:01 Days.of.our.Lives.S54E141.1080p.WEB.x264-W4F
2019-04-12 02:30:12 Days.of.our.Lives.S54E141.720p.WEB.x264-W4F
2019-04-12 02:40:48 The.Kid.Who.Would.Be.King.2019.MULTi.2160p.UHD.BluRay.x265-OohLaLa
2019-04-12 02:45:43 Molotov-Voto_Latino_(En_Vivo_Desde_El_Palacio_De_Los_Deportes)-ES-SINGLE-WEB-2019-FREGON
2019-04-12 02:47:33 The_Brave-Aura-WEB-2019-FREGON
2019-04-12 02:54:56 In_Her_Own_Words-Steady_Glow-WEB-2019-ENRiCH
2019-04-12 02:55:13 Darjeeling-Hokus_Pokus-WEB-2019-ENTiTLED
2019-04-12 02:55:42 King_Crimson-FraKctured_(KC50_Vol_14)-DIGITAL_45-WEB-2019-ENTiTLED
2019-04-12 03:01:30 Helsesista.S01E07.NORWEGiAN.720p.WEB.H264-HENRETTELSE
2019-04-12 03:03:08 The.Orville.S02E12.WEB.x264-TBS
2019-04-12 03:03:11 Thiswae-Ina_Major_Wae-WEB-2019-ESG
2019-04-12 03:03:22 The.Orville.S02E12.720p.WEB.x264-TBS
2019-04-12 03:03:38 The.Orville.S02E12.1080p.WEB.x264-TBS
2019-04-12 03:12:22 Alex_EspoAlex_Ll_Martinenko_Eugene_Mako-ADRO_Heroes-(ADR383)-WEB-2018-NDE
2019-04-12 03:14:07 Amras-You_Are_Not_Alone-(PLECD007)-WEB-2018-NDE
2019-04-12 03:14:49 Vice.Live.2019.04.10.720p.WEBRip.x264-CAFFEiNE
2019-04-12 03:16:04 Asylumdancer-Banshee-(5059033432390)-WEB-2019-NDE
2019-04-12 03:16:11 Ozone.Hole-How.We.Saved.The.Planet.2019.720p.HDTV.x264-DHD
2019-04-12 03:18:40 Chinaski-S_F_X-(KITJEN008)-WEB-2019-NDE
2019-04-12 03:19:10 MEYTAL-The_Witness-WEB-2019-ENTiTLED
2019-04-12 03:20:44 Vice.Live.2019.04.10.WEBRip.x264-CAFFEiNE
2019-04-12 03:20:56 Dear_Guillaume-Spring_Break_With_Dear_Guillaume-(3615938304815)-WEB-2019-NDE
2019-04-12 03:22:36 DegreeZero-Gods_House-(0746321499047)-WEB-2019-NDE
2019-04-12 03:24:12 Forbidden_Society-Prophets_Of_The_Doom_Remixes_Part.2-(FSRECS021)-WEB-2019-NDE
2019-04-12 03:26:11 Frechenhauser-Psychedelic_Adventures-(735119082042)-WEB-2019-NDE
2019-04-12 03:27:43 Naked.Beach.S01E01.1080p.HDTV.h264-PLUTONiUM
2019-04-12 03:29:04 FuturePlays-Minimalers-(5452425775)-WEB-2019-NDE
2019-04-12 03:29:56 Fun_2_U_-_Inolvidable-WEB-1996-iDC
2019-04-12 03:30:26 Kikka_-_Sweet_Dreams-WEB-1993-iDC
2019-04-12 03:30:31 HeroWilson-Freedom-(5059033425064)-WEB-2019-NDE
2019-04-12 03:31:03 Grand.Designs.The.Street.S01E02.HDTV.x264-PLUTONiUM
2019-04-12 03:32:04 Grand.Designs.The.Street.S01E02.720p.HDTV.x264-PLUTONiUM
2019-04-12 03:32:55 Hydro-Lateral_Thinking-(UM022)-WEB-2019-NDE
2019-04-12 03:33:06 Grand.Designs.The.Street.S01E02.1080p.HDTV.h264-PLUTONiUM
2019-04-12 03:34:28 Init_Preset-System_Error-(BLACK029)-WEB-2019-NDE
2019-04-12 03:36:11 Frankie.Boyles.New.World.Order.S03E03.HDTV.x264-PLUTONiUM
2019-04-12 03:36:24 Inusa_Dawuda-Return_Of_The_Black_Pharaoh-(KOM066)-WEB-2019-NDE
2019-04-12 03:36:28 Star.Trek.Discovery.S02E13.720p.WEBRip.x264-TBS
2019-04-12 03:37:13 Frankie.Boyles.New.World.Order.S03E03.720p.HDTV.x264-PLUTONiUM
2019-04-12 03:37:29 Star.Trek.Discovery.S02E13.WEBRip.x264-TBS
2019-04-12 03:38:15 Frankie.Boyles.New.World.Order.S03E03.1080p.HDTV.x264-PLUTONiUM
2019-04-12 03:38:16 Jimi_Jules-Karma_Baby_EP-(IV86)-WEB-2019-NDE
2019-04-12 03:39:20 Star.Trek.Discovery.S02E13.iNTERNAL.1080p.WEB.x264-BAMBOOZLE
2019-04-12 03:40:10 Kap_Bambino-Dust_Fierce_Forever-(BEC5543981)-WEB-2019-NDE
2019-04-12 03:42:35 Lunatic-Invaders_Album-(HELLS024)-WEB-2019-NDE
2019-04-12 03:43:52 Mazek-Cybermedia-(GZR005)-WEB-2019-NDE
2019-04-12 03:45:49 Papilio-Chamelot-(MAFIA111)-WEB-2019-NDE
2019-04-12 03:46:41 Flip.or.Flop.Vegas.S03E05.Lucky.in.Vegas.1080p.WEB.x264-CAFFEiNE
2019-04-12 03:47:17 Bunbury-La_Ceremonia_De_La_Confusion_(California_Live)-ES-SINGLE-WEB-2019-FREGON
2019-04-12 03:47:26 Podzie-Podzie-(0682384764657)-WEB-2019-NDE
2019-04-12 03:47:46 La_Habitacion_Roja-Madrid-ES-EP-WEB-2019-FREGON
2019-04-12 03:48:00 Flip.or.Flop.Vegas.S03E05.Lucky.in.Vegas.720p.WEB.x264-CAFFEiNE
2019-04-12 03:48:54 MEYTAL-The_Witness-WEB-2019-FREGON
2019-04-12 03:49:23 Rare_DM-Vanta_Black-(CAT280113)-WEB-2019-NDE
2019-04-12 03:50:10 The.Grinch.2018.NORDIC.2160p.UHD.BluRay.x265-CONDITION
2019-04-12 03:50:25 Flip.or.Flop.Vegas.S03E05.Lucky.in.Vegas.WEB.x264-CAFFEiNE
2019-04-12 03:51:35 Sacul-Warm_Up_And_Hot_Tracks-(AM088)-WEB-2019-NDE
2019-04-12 03:52:58 Stranger_Group-Intership-(XY1)-WEB-2019-NDE
2019-04-12 03:55:05 TanKee-Dubmud-(WSR132)-WEB-2019-NDE
2019-04-12 03:57:52 VA-Best_Of_UPZ_(The_Remixes)-(SWA20)-WEB-2019-NDE
2019-04-12 04:00:37 4.Play.2014.WEB.x264-ASSOCiATE
2019-04-12 04:01:37 VA-Minimal_Hits-(546451272)-WEB-2019-NDE
2019-04-12 04:02:48 A.Heart.That.Forgives.2016.FESTIVAL.WEB.x264-ASSOCiATE
2019-04-12 04:03:57 Yoshimi-Failed_Stories-(KDTH020)-WEB-2019-NDE
2019-04-12 04:04:20 A.Heart.That.Forgives.2016.FESTIVAL.720p.WEB.x264-ASSOCiATE
2019-04-12 04:06:46 Dead.Pixels.S01E03.PDTV.x264-PLUTONiUM
2019-04-12 04:09:28 Australia.With.Julia.Bradbury.S01E08.Great.Ocean.Road.HDTV.x264-PLUTONiUM
2019-04-12 04:09:43 Norge.Naa.S03E48.NORWEGiAN.720p.HDTV.x264-NORPiLT
2019-04-12 04:09:47 Special.Unit.2017.FESTIVAL.WEB.x264-ASSOCiATE
2019-04-12 04:10:30 Australia.With.Julia.Bradbury.S01E08.Great.Ocean.Road.720p.HDTV.x264-PLUTONiUM
2019-04-12 04:10:53 Special.Unit.2017.FESTIVAL.720p.WEB.x264-ASSOCiATE
2019-04-12 04:11:32 Australia.With.Julia.Bradbury.S01E08.Great.Ocean.Road.1080p.HDTV.x264-PLUTONiUM
2019-04-12 04:13:08 NASAs.Unexplained.Files.S06E01.Saturns.Moon.Monsters.1080p.WEB.x264-CAFFEiNE
2019-04-12 04:14:12 NASAs.Unexplained.Files.S06E01.Saturns.Moon.Monsters.720p.WEB.x264-CAFFEiNE
2019-04-12 04:15:05 The.Believer.2001.LIMITED.INTERNAL.WEB.x264-ASSOCiATE
2019-04-12 04:15:34 NASAs.Unexplained.Files.S06E01.Saturns.Moon.Monsters.WEB.x264-CAFFEiNE
2019-04-12 04:17:49 Waffle.Street.2015.FESTIVAL.720p.WEB.x264-ASSOCiATE
2019-04-12 04:19:29 Brooklyn.Nine-Nine.S06E12.720p.HDTV.x264-KILLERS
2019-04-12 04:22:33 Brennpunkt.Mitt.Monster.NORWEGiAN.720p.HDTV.x264-NORPiLT
2019-04-12 04:24:05 Brooklyn.Nine-Nine.S06E12.HDTV.x264-KILLERS
2019-04-12 04:24:16 Mindblast_-_We_Are_Not_Alone-(PFR018)-WEB-2019-ZzZz
2019-04-12 04:35:24 Marquise.1997.1080p.BluRay.x264-SPECTACLE
2019-04-12 04:35:35 Marquise.1997.720p.BluRay.x264-SPECTACLE
2019-04-12 04:56:01 Cars.2006.SPANiSH.1080p.BluRay.x264-4FiRE
2019-04-12 04:56:22 Cars.2006.SPANiSH.720p.BluRay.x264-4FiRE
2019-04-12 04:56:44 Cars.2006.SPANiSH.BDRip.x264-4FiRE
2019-04-12 05:00:40 Toddla_T_-_BBC_Radio1s_Soundsystem-SAT-04-12-2019-TALiON
2019-04-12 05:05:18 Abstratique-Horizon-SINGLE-WEB-2019-PTC
2019-04-12 05:05:50 Calibre-Let_Me_Hold_You-SIG015-REMASTERED-WEB-2019-PTC
2019-04-12 05:06:10 Conrad_Subs-Pow_Pow-SINGLE-WEB-2019-PTC
2019-04-12 05:06:26 Conrad_Subs-Solitaire-EARS014-WEB-2019-PTC
2019-04-12 05:06:48 Conrad_Subs-Still_In_Love-SDD166-WEB-2019-PTC
2019-04-12 05:07:08 Derrick_and_Tonika-Vatra_Spirit_EP-SHIM008DD-WEB-2019-PTC
2019-04-12 05:07:32 Duoscience-Discovered-UKE020-WEB-2019-PTC
2019-04-12 05:07:46 Duoscience-Dont_Want_It_No_More-DSKD072-WEB-2019-PTC
2019-04-12 05:08:04 Duoscience-Marya-WEB-2019-PTC
2019-04-12 05:08:22 Hioll-Convulso_EP-BDD013-WEB-2019-PTC
2019-04-12 05:08:42 Ill_Effects-The_24th_Chamber-IAR065-WEB-2019-PTC
2019-04-12 05:09:02 Mukiyare-On_A_Clear_Day_EP-INFLUENZA204-WEB-2019-PTC
2019-04-12 05:09:23 Phace_and_Mefjus-LINKED_01-NEOLINK001-WEB-2019-PTC
2019-04-12 05:09:42 Rene_Bourgeois-You-BAR25-093-WEB-2019-PTC
2019-04-12 05:10:02 Riddle-Heavy_Rain-SLBSS041-WEB-2019-PTC
2019-04-12 05:10:21 Shodan_and_Cosmology-Lucky_Strike_EP-WEB-2019-PTC
2019-04-12 05:10:41 Skeptical-Fibonacci_Sequence-EXIT083-WEB-2019-PTC
2019-04-12 05:11:17 Tweakz-The_Motive-STP001-WEB-2019-PTC
2019-04-12 05:11:58 Tweakz-Mr._Champion-BASSLEGION014-WEB-2019-PTC
2019-04-12 05:12:25 Tweakz-Ligar__Walking_Elephant-SNB049-WEB-2019-PTC
2019-04-12 05:12:45 Twintone-The_Arcadia_Seed-DOR026-WEB-2019-PTC
2019-04-12 05:12:50 StarTalk.S05E06.Actor.Jack.Black.720p.WEB.x264-CAFFEiNE
2019-04-12 05:13:04 Twintone-Instincts_EP-BTPSC039-WEB-2019-PTC
2019-04-12 05:13:20 The.Zodiac.Killer.1971_Another.Son.of.Sam.1977.COMPLETE.BLURAY-REGRET
2019-04-12 05:14:18 StarTalk.S05E06.Actor.Jack.Black.WEB.x264-CAFFEiNE
2019-04-12 05:18:18 Dead.of.Night.US.2018.S02E06.Alibi.Lullaby.720p.WEBRip.x264-CAFFEiNE
2019-04-12 05:19:57 Dead.of.Night.US.2018.S02E06.Alibi.Lullaby.WEBRip.x264-CAFFEiNE
2019-04-12 05:25:09 Die_Jungen_Obersteirer-Schoenes_Oesterreich-WEB-DE-2019-ALPMP3_INT
2019-04-12 05:31:40 Los_Tucanes_De_Tijuana-Los_Mas_Buscados-ES-CD-FLAC-1998-FATHEAD
2019-04-12 05:34:03 ATKPremium.com_19.04.12.Alison.Rey.XXX.IMAGESET-FuGLi
2019-04-12 05:40:06 Devils.Line.E05.German.2018.ANiME.DL.1080p.BluRay.x264-PL3X
2019-04-12 05:40:35 Los_Tucanes_De_Tijuana-Los_Mas_Buscados-ES-CD-1998-FATHEAD_INT
2019-04-12 05:41:18 Devils.Line.E05.German.2018.ANiME.DL.720p.BluRay.x264-PL3X
2019-04-12 05:42:15 Devils.Line.E05.German.2018.ANiME.DL.BDRiP.x264-PL3X
2019-04-12 05:44:49 Devils.Line.E06.German.2018.ANiME.DL.1080p.BluRay.x264-PL3X
2019-04-12 05:45:59 Devils.Line.E06.German.2018.ANiME.DL.720p.BluRay.x264-PL3X
2019-04-12 05:46:53 Devils.Line.E06.German.2018.ANiME.DL.BDRiP.x264-PL3X
2019-04-12 05:46:59 Formel1.2019.Kinas.Grand.Prix.Traning.1.SWEDiSH.720p.HDTV.x264-sweHD
2019-04-12 05:49:22 Devils.Line.E07.German.2018.ANiME.DL.1080p.BluRay.x264-PL3X
2019-04-12 05:50:43 Devils.Line.E07.German.2018.ANiME.DL.720p.BluRay.x264-PL3X
2019-04-12 05:51:40 Devils.Line.E07.German.2018.ANiME.DL.BDRiP.x264-PL3X
2019-04-12 05:54:19 Devils.Line.E08.German.2018.ANiME.DL.1080p.BluRay.x264-PL3X
2019-04-12 05:55:36 Devils.Line.E08.German.2018.ANiME.DL.720p.BluRay.x264-PL3X
2019-04-12 05:56:34 Devils.Line.E08.German.2018.ANiME.DL.BDRiP.x264-PL3X
2019-04-12 05:57:02 Jcn-Kiss_Go-(IND5CA0A172750)-SINGLE-WEB-2019-KLIN
2019-04-12 06:01:11 Beat.for.Beat.S22E06.NORWEGiAN.720p.WEB.X264-HENRETTELSE
2019-04-12 06:02:26 The.Magicians.S04E12.SPANiSH.1080p.HDTV.x264-4FiRE
2019-04-12 06:02:46 The.Magicians.S04E12.SPANiSH.720p.HDTV.x264-4FiRE
2019-04-12 06:03:07 The.Magicians.S04E12.SPANiSH.HDTV.x264-4FiRE
2019-04-12 06:07:51 VA-Mas_Bass_01-(MBR001)-WEB-2019-KLIN
2019-04-12 06:09:42 Finaste.Familjen.S03E04.SWEDiSH.1080p.WEB.X264-AVRATTNING
2019-04-12 06:17:20 VA-Uplifting_Only_Top_15_April_2019-WEB-2019-KLIN
2019-04-12 06:23:26 Tassid-Tarblk007-(TARBLK007)-WEB-2019-KLIN
2019-04-12 06:25:38 Formula1.2019.Chinese.Grand.Prix.Drivers.Press.Conference.WEB.h264-GRiP
2019-04-12 06:28:37 StarTalk.S05E07.News.Anchor.Dan.Rather.720p.WEB.x264-CAFFEiNE
2019-04-12 06:30:26 Formula1.2019.Chinese.Grand.Prix.Drivers.Press.Conference.1080p.WEB.h264-GRiP
2019-04-12 06:31:28 Formula1.2019.Chinese.Grand.Prix.Drivers.Press.Conference.720p.WEB.h264-GRiP
2019-04-12 06:32:29 Formula1.2019.Chinese.Grand.Prix.Drivers.Press.Conference.PDTV.x264-GRiP
2019-04-12 06:32:50 StarTalk.S05E07.News.Anchor.Dan.Rather.WEB.x264-CAFFEiNE
2019-04-12 06:35:21 Formula1.2019.Chinese.Grand.Prix.Practice.One.PDTV.x264-GRiP
2019-04-12 06:35:23 Vegedream-Calimero-SINGLE-WEB-FR-2019-OND
2019-04-12 06:39:08 Kekra-Vrealite_(Feat_Niska)-SINGLE-WEB-FR-2019-OND
2019-04-12 06:45:59 WTA.Claro.Open.2019.Round.2.Kristie.Ahn.Vs.Maria.Camila.Osorio.Serrano.720p.WEB.h264-PYRAMiD
2019-04-12 06:48:14 DJ_Weedim-20_-_20-SINGLE-WEB-FR-2019-OND
2019-04-12 06:49:21 Candice.Renoir.S07E05.FRENCH.720p.HDTV.x264-SH0W
2019-04-12 06:49:31 False.Flag.S02E03.FRENCH.720p.HDTV.x264-SH0W
2019-04-12 06:49:35 False.Flag.S02E04.FRENCH.720p.HDTV.x264-SH0W
2019-04-12 06:49:42 Hawaii.Five-0.2010.S09E05.FRENCH.720p.HDTV.x264-SH0W
2019-04-12 06:49:45 Hawaii.Five-0.2010.S09E06.FRENCH.720p.HDTV.x264-SH0W
2019-04-12 06:49:52 Zac.and.Mia.S01E01.FRENCH.720p.HDTV.x264-SH0W
2019-04-12 06:49:55 Zac.and.Mia.S01E02.FRENCH.720p.HDTV.x264-SH0W
2019-04-12 06:49:58 Zac.and.Mia.S01E03.FRENCH.720p.HDTV.x264-SH0W
2019-04-12 06:50:29 Candice.Renoir.S07E06.FRENCH.720p.HDTV.x264-SH0W
2019-04-12 06:51:04 WTA.Claro.Open.2019.Round.2.Tamara.Zidansek.Vs.Sachia.Vickery.720p.WEB.h264-PYRAMiD
2019-04-12 06:52:15 Beat.Bobby.Flay.S20E01.Against.the.Grain.720p.WEBRip.x264-CAFFEiNE
2019-04-12 06:55:12 The.Daily.Show.2019.04.11.Lizzo.EXTENDED.720p.WEB.x264-TBS
2019-04-12 06:55:22 Beat.Bobby.Flay.S20E01.Against.the.Grain.WEBRip.x264-CAFFEiNE
2019-04-12 06:55:45 The.Daily.Show.2019.04.11.Lizzo.EXTENDED.1080p.WEB.x264-TBS
2019-04-12 06:55:45 The.Daily.Show.2019.04.11.Lizzo.EXTENDED.WEB.x264-TBS
2019-04-12 06:56:06 WTA.Claro.Open.2019.Round.2.Varvara.Lepchenko.Vs.Amanda.Anisimova.720p.WEB.h264-PYRAMiD
2019-04-12 06:56:44 Midnight.Texas.S02E02.Bitte.beiss.mich.German.Dubbed.BDRip.x264-ITG
2019-04-12 06:57:05 Midnight.Texas.S02E02.Bitte.beiss.mich.GERMAN.DUBBED.720p.BLURAY.x264-ZZGtv
2019-04-12 06:58:06 House.Hunters.S164E08.A.Solid.Foundation.in.Denver.CO.1080p.WEB.x264-CAFFEiNE
2019-04-12 06:58:50 BrazzersExxtra.19.04.12.Carmen.Caliente.Carmens.Footjob.Fetish.XXX.1080p.MP4-KTR
2019-04-12 06:59:21 Doctor.Who.S11E11.Toedlicher.Fund.German.Dubbed.BDRip.x264-ITG
2019-04-12 06:59:56 RealWifeStories.19.04.12.Katana.Kombat.Shower.Radi-Ho.XXX.1080p.MP4-KTR
2019-04-12 07:00:19 Doctor.Who.S11E11.Toedlicher.Fund.GERMAN.DUBBED.720p.BLURAY.x264-ZZGtv
2019-04-12 07:00:23 House.Hunters.S164E08.A.Solid.Foundation.in.Denver.CO.720p.WEB.x264-CAFFEiNE
2019-04-12 07:00:53 Fam.S01E13.1080p.WEB.H264-MEMENTO
2019-04-12 07:01:10 WTA.Samsung.Open.2019.Round.2.Antonia.Lottner.Vs.Kristyna.Pliskova.720p.WEB.h264-PYRAMiD
2019-04-12 07:01:47 GirlsGonePink.19.04.12.Abigail.Mac.And.Kendra.Spade.Vagina.Vendetta.XXX.1080p.MP4-KTR
2019-04-12 07:02:28 House.Hunters.S164E08.A.Solid.Foundation.in.Denver.CO.WEB.x264-CAFFEiNE
2019-04-12 07:03:12 VA-Dancing_In_Darkness-(PIASLL131DA)-WEB-2019-ENTiTLED
2019-04-12 07:04:08 House.Hunters.International.S135E07.New.Chapter.in.Budapest.720p.WEBRip.x264-CAFFEiNE
2019-04-12 07:04:20 Supernatural.S14E18.720p.WEB.h264-TBS
2019-04-12 07:04:43 Supernatural.S14E18.WEB.h264-TBS
2019-04-12 07:05:32 Supernatural.S14E18.1080p.WEB.h264-TBS
2019-04-12 07:05:46 Fam.S01E00.720p.WEB.H264-AMCON
2019-04-12 07:06:12 WTA.Samsung.Open.2019.Round.2.Evgeniya.Rodina.Vs.Vera.Lapko.720p.WEB.h264-PYRAMiD
2019-04-12 07:07:23 Fam.S01E13.720p.WEB.H264-AMCON
2019-04-12 07:08:13 House.Hunters.International.S135E07.New.Chapter.in.Budapest.WEBRip.x264-CAFFEiNE
2019-04-12 07:09:33 In.the.Dark.2019.S01E02.720p.WEB.h264-TBS
2019-04-12 07:09:38 In.the.Dark.2019.S01E02.WEB.h264-TBS
2019-04-12 07:09:51 Mit.Paradiso.Liv.S04E03.Drenge.Driks.Og.Drama.DANiSH.720p.WEB.h264-DANES
2019-04-12 07:10:24 In.the.Dark.2019.S01E02.1080p.WEB.h264-TBS
2019-04-12 07:11:16 WTA.Samsung.Open.2019.Round.2.Rebecca.Peterson.Vs.Veronika.Kudermetova.720p.WEB.h264-PYRAMiD
2019-04-12 07:11:43 Simba-Melanoid__Lessons-(SMDIGITAL19)-WEB-2019-ENTANGLE
2019-04-12 07:11:51 Bill_Laswell-City_of_Light-(SRV114)-WEB-2019-ENSLAVE_iNT
2019-04-12 07:12:02 Dolphins_Into_The_Future_and_Lieven_Martens_Moana-Songs_Of_Gold_Incandescent_(2019_Expanded_Edition)-WEB-2019-ENSLAVE
2019-04-12 07:12:13 Taiga_Remains-Works_For_Cassette-(AC101)-WEB-2014-ENSLAVE
2019-04-12 07:12:33 Paradise.Hotel.S15E09.DANiSH.720p.WEB.h264-DANES
2019-04-12 07:14:51 Fam.S01E13.WEB.x264-TBS
2019-04-12 07:15:11 Wrong_Assessment-Kamaji-(DREF040)-EP-WEB-2019-ENTANGLE
2019-04-12 07:15:16 Paul_Mac-Flamenco-(HTH008)-SINGLE-WEB-2019-ENSLAVE
2019-04-12 07:15:25 Fam.S01E13.iNTERNAL.720p.WEB.x264-BAMBOOZLE
2019-04-12 07:16:21 WTA.Samsung.Open.2019.Round.2.Timea.Bacsinszky.Vs.Svetlana.Kuznetsova.720p.WEB.h264-PYRAMiD
2019-04-12 07:17:33 DarkX.19.04.11.Ella.Knox.Dealing.With.Siblings.XXX.1080p.MP4-KTR
2019-04-12 07:18:42 DigitalPlayground.19.04.12.Sofi.Ryan.And.Kenna.James.Untreatable.Part.2.XXX.1080p.MP4-KTR
2019-04-12 07:19:01 Melodys_Enemy_and_Skream-This_Is_It-(WATB031)-WEB-2019-ENSLAVE
2019-04-12 07:19:08 Melodys_Enemy_and_Skream-This_Is_It-(WATB031)-WEB-2019-ENTANGLE
2019-04-12 07:19:45 Pluralsight.com.Reducing.Complexity.in.Data-ELOHiM
2019-04-12 07:20:05 HardX.19.04.12.Gia.Milana.Hot.Anal.Latina.XXX.1080p.MP4-KTR
2019-04-12 07:20:08 Dyspal-Broken_Lullaby-WEB-2019-WAV
2019-04-12 07:20:28 Schindlers.Liste.1993.German.DL.2160p.UHD.BluRay.HEVC-HOVAC
2019-04-12 07:20:51 Camedor-Portal-WEB-2019-ENTiTLED
2019-04-12 07:21:00 Jos_Lok-Vezels-(ARCH149)-WEB-2019-ENTANGLE
2019-04-12 07:21:02 VA-Tokyo_Flashback-Psychedelic_Speed_Freaks-WEB-2019-ENTiTLED
2019-04-12 07:21:22 WTA.Samsung.Open.2019.Round.2.Viktoria.Kuzmova.Vs.Iga.Swiatek.720p.WEB.h264-PYRAMiD
2019-04-12 07:22:12 DarkX.19.04.11.Ella.Knox.Dealing.With.Siblings.XXX.2160p.MP4-KTR
2019-04-12 07:22:25 Jens_Lekman-CORRESPONDENCE-WEB-2019-ENTiTLED
2019-04-12 07:22:49 Goldfrapp-Systemagic_(Remixes)-(1ILMUTE564)-WEB-2019-ENSLAVE
2019-04-12 07:24:28 HardX.19.04.12.Gia.Milana.Hot.Anal.Latina.XXX.2160p.MP4-KTR
2019-04-12 07:25:49 Adred_and_Commix_and_Ant_TC1-Valley_Groove__Stuck_in_a_Loop-(META072)-WEB-2019-ENSLAVE
2019-04-12 07:25:55 Dennis_Quin-Basiszuur-(SOFT004)-WEB-2019-ENTANGLE
2019-04-12 07:27:34 Il.Corriere.Della.Sera.04.12.2019.iTALiAN.RETAiL.eBook-DiVER
2019-04-12 07:28:10 Goldfrapp-Anymore_(Remixes)-(1ILMUTE557)-WEB-2017-ENSLAVE
2019-04-12 07:28:49 Alison_Wonderland-Radio_Wonderland-SAT-04-11-2019-U235
2019-04-12 07:29:15 Pastewka.S09.Making.Of.German.1080p.BluRay.x264-PL3X
2019-04-12 07:29:51 Destructo-All_My_Friends_Radio-SAT-04-11-2019-U235
2019-04-12 07:30:53 DJ_Silva-Dim_Mak_Studios-DAB-04-11-2019-U235
2019-04-12 07:30:57 Retiree-Mystery_Bay_(Club_Mix)-(RS024S4)-SINGLE-WEB-2019-ENTANGLE
2019-04-12 07:31:31 Nova_Materia-Speak_In_Tongues_(Radio_Edit)-(CRAM2834)-SINGLE-WEB-2019-ENSLAVE
2019-04-12 07:31:43 Roger_23-Is_Demanding_for_a_Cultural_Negotiation-(ITX014)-WEB-2019-ENSLAVE
2019-04-12 07:31:52 Pastewka.S09.Making.Of.German.720p.BluRay.x264-PL3X
2019-04-12 07:31:54 Morgan_Page-In_The_Air-SAT-04-11-2019-U235
2019-04-12 07:32:05 PureCFNM.19.04.12.Amber.Deen.Honour.May.And.Roxi.Keogh.Cheating.Cheerleaders.XXX.1080p.MP4-KTR
2019-04-12 07:32:58 NGHTMRE_And_Slander-Gud_Vibrations_Radio-SAT-04-12-2019-U235
2019-04-12 07:33:09 Pastewka.S09.Making.Of.German.BDRiP.x264-PL3X
2019-04-12 07:33:18 PornMegaLoad.19.04.11.Juliet.Miller.Fucks.A.25-Year-Old.XXX.1080p.MP4-KTR
2019-04-12 07:33:58 Kenton_Slash_Demon-Zstring-(TART046D)-WEB-2019-ENTANGLE
2019-04-12 07:34:26 PornMegaLoad.19.04.11.Kaiserin.Dee.Former.Kindergarten.Teacher.Gets.Ass-Fucked.XXX.1080p.MP4-KTR
2019-04-12 07:34:39 Elkhorn-Sun_Cycle-EP-WEB-2019-ENTiTLED
2019-04-12 07:35:29 Nas1_and_Brothermartino-Dog_Cuts-(SOADD01)-WEB-2019-ENTANGLE
2019-04-12 07:35:33 PornMegaLoad.19.04.11.Lana.Blanc.Erotic.Seduction.Magic.XXX.1080p.MP4-KTR
2019-04-12 07:36:32 PornMegaLoad.19.04.11.Lilo.Hawaiian.Dream.XXX.1080p.MP4-KTR
2019-04-12 07:36:59 Pastewka.S09E02.Unverhofftes.Wiedersehen.German.1080p.BluRay.x264-PL3X
2019-04-12 07:37:16 Alex_Cobb-Abate_Fetel-(AC102)-WEB-2017-ENSLAVE
2019-04-12 07:37:21 The.Footy.Show.AFL.2019.04.10.WEB.H264-LASTPLACE
2019-04-12 07:37:26 Odd_Nosdam-Mirrors-(N67)-WEB-2019-ENSLAVE
2019-04-12 07:37:29 A.Vos.Risques.Et.Perils.S02E11.FRENCH.720p.HDTV.x264-BAWLS
2019-04-12 07:37:37 A.Vos.Risques.Et.Perils.S02E11.FRENCH.HDTV.x264-BAWLS
2019-04-12 07:37:42 A.Vos.Risques.Et.Perils.S02E13.FRENCH.720p.HDTV.x264-BAWLS
2019-04-12 07:37:47 A.Vos.Risques.Et.Perils.S02E13.FRENCH.HDTV.x264-BAWLS
2019-04-12 07:37:53 District.31.S03E115.FRENCH.720p.HDTV.x264-BAWLS
2019-04-12 07:37:58 District.31.S03E115.FRENCH.HDTV.x264-BAWLS
2019-04-12 07:38:04 District.31.S03E116.FRENCH.720p.HDTV.x264-BAWLS
2019-04-12 07:38:10 District.31.S03E116.FRENCH.HDTV.x264-BAWLS
2019-04-12 07:38:14 PornMegaLoad.19.04.11.Sylvia.Bateman.Horny.From.The.Heat.XXX.1080p.MP4-KTR
2019-04-12 07:38:42 Pastewka.S09E02.Unverhofftes.Wiedersehen.German.720p.BluRay.x264-PL3X
2019-04-12 07:39:27 Blue_Eyed_Soul-You_Aint_No_Weight-(NUM5116DIGITAL)-WEB-2019-ENRAGED
2019-04-12 07:39:35 GRUPPA-IZ_SKAZKI-WEB-2019-ENRiCH
2019-04-12 07:39:45 Makoto_Kawashima-Homo_Sacer-WEB-2019-ENRiCH
2019-04-12 07:39:49 Pastewka.S09E02.Unverhofftes.Wiedersehen.German.BDRiP.x264-PL3X
2019-04-12 07:40:29 LustyGrandmas.19.04.11.Astrid.Welcome.Home.Surprise.XXX.1080p.MP4-KTR
2019-04-12 07:40:31 Arno_Skali_ft._M._Slice_-_Just_a_Kiss_2K19_(Mixes)-WEB-2019-MMS
2019-04-12 07:40:43 The.Footy.Show.AFL.2019.04.10.720p.WEB.H264-LASTPLACE
2019-04-12 07:40:49 Alex_Cobb-Abate_Fetel-(DFA2645DIGITAL)-WEB-2017-ENSLAVE
2019-04-12 07:41:00 Orson_Hentschel-Steady_State-SINGLE-WEB-2019-ENSLAVE
2019-04-12 07:42:49 DevilsFilm.19.04.12.Leigh.Raven.Blacked.Out.XXX.1080p.MP4-KTR
2019-04-12 07:43:37 Deep_Solution-Latin_Vibes_EP2-(MMDD_EP2)-WEB-2005-CBR
2019-04-12 07:44:38 Dragons.Den.QC.S08E02.FRENCH.720p.HDTV.x264-BAWLS
2019-04-12 07:44:42 Dragons.Den.QC.S08E02.FRENCH.HDTV.x264-BAWLS
2019-04-12 07:44:45 Pastewka.S09E03.Schatten.der.Vergangenheit.German.1080p.BluRay.x264-PL3X
2019-04-12 07:44:47 Highway.Thru.Hell.S07E06.FRENCH.720p.HDTV.x264-BAWLS
2019-04-12 07:44:50 Highway.Thru.Hell.S07E06.FRENCH.HDTV.x264-BAWLS
2019-04-12 07:44:54 Cosima-Ploaia-(PINGIPUNG064)-WEB-2019-ENSLAVE
2019-04-12 07:44:56 Highway.Thru.Hell.S07E07.FRENCH.720p.HDTV.x264-BAWLS
2019-04-12 07:45:01 Highway.Thru.Hell.S07E07.FRENCH.HDTV.x264-BAWLS
2019-04-12 07:45:07 L.Epicerie.2018.04.10.DOC.FRENCH.720p.HDTV.x264-BAWLS
2019-04-12 07:46:34 Pastewka.S09E03.Schatten.der.Vergangenheit.German.720p.BluRay.x264-PL3X
2019-04-12 07:47:00 Animistic_Beliefs-Molucca_Quake-(CE029)-EP-WEB-2019-ENTANGLE
2019-04-12 07:47:03 DevilsFilm.19.04.12.Leigh.Raven.Blacked.Out.XXX.2160p.MP4-KTR
2019-04-12 07:47:30 Pastewka.S09E03.Schatten.der.Vergangenheit.German.BDRiP.x264-PL3X
2019-04-12 07:48:18 Passe.Partout.2019.S01E21.FRENCH.720p.HDTV.x264-BAWLS
2019-04-12 07:48:24 Passe.Partout.2019.S01E21.FRENCH.HDTV.x264-BAWLS
2019-04-12 07:48:28 Storage.Wars.S11E14.FRENCH.720p.HDTV.x264-BAWLS
2019-04-12 07:48:32 Storage.Wars.S11E14.FRENCH.HDTV.x264-BAWLS
2019-04-12 07:48:37 Storage.Wars.S11E24.FRENCH.720p.HDTV.x264-BAWLS
2019-04-12 07:48:41 Storage.Wars.S11E24.FRENCH.HDTV.x264-BAWLS
2019-04-12 07:48:58 Australian.Swimming.Championships.2019.Day.5.WEB.H264-LASTPLACE
2019-04-12 07:51:31 Impractical.Jokers.S08E03.1080p.WEB.x264-TBS
2019-04-12 07:51:38 Pastewka.S09E04.Schmerzende.Gedanken.German.1080p.BluRay.x264-PL3X
2019-04-12 07:52:06 Impractical.Jokers.S08E03.WEB.x264-TBS
2019-04-12 07:52:24 Carolina_-_Inselkind-WEB-DE-2019-JUSTiFY
2019-04-12 07:52:43 La.Gazzetta.Dello.Sport.04.12.2019.iTALiAN.RETAiL.eBook-DiVER
2019-04-12 07:52:49 Mokita_-_Til_I_Dont-SINGLE-WEB-2019-JUSTiFY
2019-04-12 07:53:14 Impractical.Jokers.S08E03.720p.WEB.x264-TBS
2019-04-12 07:53:26 Pastewka.S09E04.Schmerzende.Gedanken.German.720p.BluRay.x264-PL3X
2019-04-12 07:53:54 21Naturals.19.04.12.Sybil.Model.Material.XXX.1080p.MP4-KTR
2019-04-12 07:54:06 Mentre.Ero.Via.2019.Part.3.iTALiAN.WEB.x264-ENCRyPTED
2019-04-12 07:54:19 Mentre.Ero.Via.2019.Part.3.iTALiAN.720p.WEB.x264-ENCRyPTED
2019-04-12 07:54:26 Pastewka.S09E04.Schmerzende.Gedanken.German.BDRiP.x264-PL3X
2019-04-12 07:55:04 Bang.Trickery.19.04.12.Zoey.Monroe.XXX.1080p.MP4-KTR
2019-04-12 07:56:22 BrownBunnies.19.04.12.Nyna.Stax.XXX.1080p.MP4-KTR
2019-04-12 07:56:58 RuPauls.Drag.Race.S11E07.1080p.WEB.x264-SECRETOS
2019-04-12 07:57:50 NuruMassage.19.04.12.Kasey.Miller.Tricking.Her.Sisters.Boyfriend.XXX.1080p.MP4-KTR
2019-04-12 07:58:18 Die.Vorstadtkrokodile.1977.GERMAN.DVDRIP.X264.REPACK-WATCHABLE
2019-04-12 07:58:45 Pastewka.S09E05.Ein.dunkles.Geheimnis.German.1080p.BluRay.x264-PL3X
2019-04-12 07:58:57 Throated.19.04.12.Destiny.Love.Blowjob.Queen.XXX.1080p.MP4-KTR
2019-04-12 07:59:01 RuPauls.Drag.Race.S11E07.720p.WEB.x264-SECRETOS
2019-04-12 07:59:16 Osmia_ft._Christina_Novelli_-_Be_Without_You_(Alcyon_X_Remix)-(WAW019)-SINGLE-WEB-2019-JUSTiFY
2019-04-12 08:00:15 WebYoung.19.04.12.Kendra.Spade.And.Eliza.Ibarra.Black.Sheep.Cousins.XXX.1080p.MP4-KTR
2019-04-12 08:00:30 Pastewka.S09E05.Ein.dunkles.Geheimnis.German.720p.BluRay.x264-PL3X
2019-04-12 08:01:01 RuPauls.Drag.Race.S11E07.WEB.x264-SECRETOS
2019-04-12 08:01:26 Pastewka.S09E05.Ein.dunkles.Geheimnis.German.BDRiP.x264-PL3X
2019-04-12 08:02:29 HandsOnHardcore.19.04.12.Roxy.Lips.Asian.Babes.Favorite.Orgy.XXX.1080p.MP4-KTR
2019-04-12 08:03:03 RuPauls.Drag.Race.Untucked.S11E07.1080p.WEB.x264-SECRETOS
2019-04-12 08:04:30 Mentre.Ero.Via.2019.Part.3.iTALiAN.1080p.WEB.x264-ENCRyPTED
2019-04-12 08:04:59 21Naturals.19.04.12.Sybil.Model.Material.XXX.2160p.MP4-KTR
2019-04-12 08:05:05 RuPauls.Drag.Race.Untucked.S11E07.720p.WEB.x264-SECRETOS
2019-04-12 08:06:04 Pastewka.S09E06.Labyrinth.der.Gefuehle.German.1080p.BluRay.x264-PL3X
2019-04-12 08:07:02 BrownBunnies.19.04.12.Nyna.Stax.XXX.2160p.MP4-KTR
2019-04-12 08:07:05 Den.Inre.Cirkeln.S01E05.SWEDiSH.720p.WEBRip.X264-AVRATTNING
2019-04-12 08:07:08 RuPauls.Drag.Race.Untucked.S11E07.WEB.x264-SECRETOS
2019-04-12 08:07:35 Sagasagor.S01E01.SWEDiSH.720p.WEB.H264-EXEKIDS
2019-04-12 08:07:51 Pastewka.S09E06.Labyrinth.der.Gefuehle.German.720p.BluRay.x264-PL3X
2019-04-12 08:08:05 Sagasagor.S01E02.SWEDiSH.720p.WEB.H264-EXEKIDS
2019-04-12 08:08:35 Sagasagor.S01E03.SWEDiSH.720p.WEB.H264-EXEKIDS
2019-04-12 08:08:50 Pastewka.S09E06.Labyrinth.der.Gefuehle.German.BDRiP.x264-PL3X
2019-04-12 08:09:05 Sagasagor.S01E04.SWEDiSH.720p.WEB.H264-EXEKIDS
2019-04-12 08:09:13 HandsOnHardcore.19.04.12.Roxy.Lips.Asian.Babes.Favorite.Orgy.XXX.2160p.MP4-KTR
2019-04-12 08:09:35 Sagasagor.S01E05.SWEDiSH.720p.WEB.H264-EXEKIDS
2019-04-12 08:10:05 Sagasagor.S01E06.SWEDiSH.720p.WEB.H264-EXEKIDS
2019-04-12 08:10:35 Sagasagor.S01E07.SWEDiSH.720p.WEB.H264-EXEKIDS
2019-04-12 08:11:05 Sagasagor.S01E08.SWEDiSH.720p.WEB.H264-EXEKIDS
2019-04-12 08:11:29 NuruMassage.19.04.12.Kasey.Miller.Tricking.Her.Sisters.Boyfriend.XXX.2160p.MP4-KTR
2019-04-12 08:11:35 Sagasagor.S01E09.SWEDiSH.720p.WEB.H264-EXEKIDS
2019-04-12 08:12:05 Sagasagor.S01E10.SWEDiSH.720p.WEB.H264-EXEKIDS
2019-04-12 08:12:35 Sagasagor.S01E01.SWEDiSH.1080p.WEB.H264-EXEKIDS
2019-04-12 08:13:02 Pastewka.S09E07.Und.keiner.darf.es.wissen.German.1080p.BluRay.x264-PL3X
2019-04-12 08:13:05 Sagasagor.S01E02.SWEDiSH.1080p.WEB.H264-EXEKIDS
2019-04-12 08:13:35 Sagasagor.S01E03.SWEDiSH.1080p.WEB.H264-EXEKIDS
2019-04-12 08:13:36 Conan.2019.04.10.Sean.Penn.1080p.WEB.x264-TBS
2019-04-12 08:13:44 Conan.2019.04.10.Sean.Penn.720p.WEB.x264-TBS
2019-04-12 08:13:53 Conan.2019.04.10.Sean.Penn.WEB.x264-TBS
2019-04-12 08:14:07 Sagasagor.S01E04.SWEDiSH.1080p.WEB.H264-EXEKIDS
2019-04-12 08:14:35 Sagasagor.S01E05.SWEDiSH.1080p.WEB.H264-EXEKIDS
2019-04-12 08:14:36 Pastewka.S09E07.Und.keiner.darf.es.wissen.German.720p.BluRay.x264-PL3X
2019-04-12 08:15:02 Throated.19.04.12.Destiny.Love.Blowjob.Queen.XXX.2160p.MP4-KTR
2019-04-12 08:15:06 Sagasagor.S01E06.SWEDiSH.1080p.WEB.H264-EXEKIDS
2019-04-12 08:15:36 Sagasagor.S01E07.SWEDiSH.1080p.WEB.H264-EXEKIDS
2019-04-12 08:15:42 Pastewka.S09E07.Und.keiner.darf.es.wissen.German.BDRiP.x264-PL3X
2019-04-12 08:16:06 Sagasagor.S01E08.SWEDiSH.1080p.WEB.H264-EXEKIDS
2019-04-12 08:16:35 Sagasagor.S01E09.SWEDiSH.1080p.WEB.H264-EXEKIDS
2019-04-12 08:16:54 Osito_-_Unison-(OSO_1705)-SINGLE-WEB-2017-ZzZz
2019-04-12 08:17:06 Sagasagor.S01E10.SWEDiSH.1080p.WEB.H264-EXEKIDS
2019-04-12 08:17:12 WebYoung.19.04.12.Kendra.Spade.And.Eliza.Ibarra.Black.Sheep.Cousins.XXX.2160p.MP4-KTR
2019-04-12 08:19:28 Burning.Out.2016.NLSUBBED.WEB.H264-MERCATOR
2019-04-12 08:21:00 Pastewka.S09E08.Nur.das.Schicksal.kennt.den.Weg.German.1080p.BluRay.x264-PL3X
2019-04-12 08:22:07 Den.Inre.Cirkeln.S01E05.SWEDiSH.1080p.WEBRip.X264-AVRATTNING
2019-04-12 08:22:12 Amine_Maxwell_-_Aurora-(SUBMISSION120)-SINGLE-WEB-2019-JUSTiFY
2019-04-12 08:23:15 Pastewka.S09E08.Nur.das.Schicksal.kennt.den.Weg.German.720p.BluRay.x264-PL3X
2019-04-12 08:23:29 CzechCasting.19.04.12.Karina.7377.XXX.1080p.MP4-KTR
2019-04-12 08:24:28 Pastewka.S09E08.Nur.das.Schicksal.kennt.den.Weg.German.BDRiP.x264-PL3X
2019-04-12 08:24:33 DorcelClub.19.04.12.Cherry.Kiss.And.Clea.Gaultier.Share.A.Man.XXX.1080p.MP4-KTR
2019-04-12 08:24:55 VA-Submission_Recordings_Presents_Miami_2019-(SUBMISSION119)-WEB-2019-JUSTiFY
2019-04-12 08:25:17 DorcelClub.19.04.12.Clea.Gaultier.Blowjob.With.A.View.XXX.1080p.MP4-KTR
2019-04-12 08:26:47 Private.19.04.12.Rebecca.Volpetti.Eager.To.Please.XXX.1080p.MP4-KTR
2019-04-12 08:28:51 TMZ.on.TV.2019.04.10.720p.WEB.x264-TBS
2019-04-12 08:28:55 TMZ.on.TV.2019.04.10.WEB.x264-TBS
2019-04-12 08:29:06 Pastewka.S09E09.Herzensdinge.German.1080p.BluRay.x264-PL3X
2019-04-12 08:30:20 VA_-_Dancefloor_Paradise_Vol_5-(361593_8036891)-WEB-2019-ZzZz
2019-04-12 08:30:29 VA-Mallorca_Warm_Up_2019_(Powered_By_Xtreme_Sound)-WEB-DE-2019-JUSTiFY
2019-04-12 08:30:36 CzechCasting.19.04.12.Karina.7377.XXX.2160p.MP4-KTR
2019-04-12 08:31:00 Pastewka.S09E09.Herzensdinge.German.720p.BluRay.x264-PL3X
2019-04-12 08:32:11 Pastewka.S09E09.Herzensdinge.German.BDRiP.x264-PL3X
2019-04-12 08:33:00 DorcelClub.19.04.12.Cherry.Kiss.And.Clea.Gaultier.Share.A.Man.XXX.2160p.MP4-KTR
2019-04-12 08:33:23 Mesh-How_Long-CDM-FLAC-2010-AMOK
2019-04-12 08:33:31 PluralSight.LabVIEW.Big.Picture-BOOKWARE-KNiSO
2019-04-12 08:34:13 DorcelClub.19.04.12.Clea.Gaultier.Blowjob.With.A.View.XXX.2160p.MP4-KTR
2019-04-12 08:35:24 Groove_Control_-_Happiness_(Gary_Oconnor_Remix)-(CHEEK_413B)-WEB-2019-ZzZz
2019-04-12 08:36:22 Private.19.04.12.Rebecca.Volpetti.Eager.To.Please.XXX.2160p.MP4-KTR
2019-04-12 08:37:07 Absentia.S02E03.SPANiSH.1080p.HDTV.x264-FCC
2019-04-12 08:37:09 Pastewka.S09E10.Licht.am.Horizont.German.1080p.BluRay.x264-PL3X
2019-04-12 08:37:21 Absentia.S02E03.SPANiSH.720p.HDTV.x264-FCC
2019-04-12 08:37:31 Absentia.S02E03.SPANiSH.HDTV.x264-FCC
2019-04-12 08:37:43 Chicago.Fire.S06E16.SPANiSH.1080p.HDTV.x264-FCC
2019-04-12 08:37:56 Chicago.Fire.S06E16.SPANiSH.720p.HDTV.x264-FCC
2019-04-12 08:38:08 Chicago.Fire.S06E16.SPANiSH.HDTV.x264-FCC
2019-04-12 08:38:19 NCIS.Nueva.Orleans.S05E05.SPANiSH.1080p.HDTV.x264-FCC
2019-04-12 08:38:32 NCIS.Nueva.Orleans.S05E05.SPANiSH.720p.HDTV.x264-FCC
2019-04-12 08:38:44 NCIS.Nueva.Orleans.S05E05.SPANiSH.HDTV.x264-FCC
2019-04-12 08:38:55 The.Big.Bang.Theory.S12E18.SPANiSH.1080p.WEB.x264-FCC
2019-04-12 08:39:06 The.Big.Bang.Theory.S12E18.SPANiSH.720p.WEB.x264-FCC
2019-04-12 08:39:15 WandW_And_Nicky_Romero_-_Ups_And_Downs-(PR146)-WEB-2019-FMC
2019-04-12 08:39:20 The.Big.Bang.Theory.S12E18.SPANiSH.WEB.x264-FCC
2019-04-12 08:39:21 Pastewka.S09E10.Licht.am.Horizont.German.720p.BluRay.x264-PL3X
2019-04-12 08:39:29 The.Good.Fight.S03E05.SPANiSH.1080p.HDTV.x264-FCC
2019-04-12 08:39:33 4-Stjerners.Middag.S11E56.NORWEGIAN.720p.HDTV.x264-TvNORGE
2019-04-12 08:39:41 The.Good.Fight.S03E05.SPANiSH.720p.HDTV.x264-FCC
2019-04-12 08:39:52 The.Good.Fight.S03E05.SPANiSH.HDTV.x264-FCC
2019-04-12 08:39:57 Sagaer.om.Saga.S01E01.NORWEGiAN.720p.WEB.H264-HENRETTELSE
2019-04-12 08:40:23 Pastewka.S09E10.Licht.am.Horizont.German.BDRiP.x264-PL3X
2019-04-12 08:40:26 Sagaer.om.Saga.S01E02.NORWEGiAN.720p.WEB.H264-HENRETTELSE
2019-04-12 08:40:56 Sagaer.om.Saga.S01E03.NORWEGiAN.720p.WEB.H264-HENRETTELSE
2019-04-12 08:41:26 Sagaer.om.Saga.S01E04.NORWEGiAN.720p.WEB.H264-HENRETTELSE
2019-04-12 08:41:42 Helt.Alene.S02E04.NORWEGiAN.720p.HDTV.x264-TvNORGE
2019-04-12 08:41:56 Sagaer.om.Saga.S01E05.NORWEGiAN.720p.WEB.H264-HENRETTELSE
2019-04-12 08:42:26 Sagaer.om.Saga.S01E06.NORWEGiAN.720p.WEB.H264-HENRETTELSE
2019-04-12 08:42:56 Sagaer.om.Saga.S01E07.NORWEGiAN.720p.WEB.H264-HENRETTELSE
2019-04-12 08:43:26 Sagaer.om.Saga.S01E08.NORWEGiAN.720p.WEB.H264-HENRETTELSE
2019-04-12 08:43:56 Sagaer.om.Saga.S01E09.NORWEGiAN.720p.WEB.H264-HENRETTELSE
2019-04-12 08:44:26 Sagaer.om.Saga.S01E10.NORWEGiAN.720p.WEB.H264-HENRETTELSE
2019-04-12 08:44:56 Sagaer.om.Saga.S01E01.NORWEGiAN.1080p.WEB.H264-HENRETTELSE
2019-04-12 08:45:26 Sagaer.om.Saga.S01E02.NORWEGiAN.1080p.WEB.H264-HENRETTELSE
2019-04-12 08:45:49 PrivateCasting-X.19.04.12.Allie.Nicole.XXX.1080p.MP4-KTR
2019-04-12 08:45:56 Sagaer.om.Saga.S01E03.NORWEGiAN.1080p.WEB.H264-HENRETTELSE
2019-04-12 08:46:27 Sagaer.om.Saga.S01E04.NORWEGiAN.1080p.WEB.H264-HENRETTELSE
2019-04-12 08:46:55 SexWithMuslims.19.04.12.Nicolette.Noir.CZECH.XXX.1080p.MP4-KTR
2019-04-12 08:46:57 Sagaer.om.Saga.S01E05.NORWEGiAN.1080p.WEB.H264-HENRETTELSE
2019-04-12 08:47:27 Sagaer.om.Saga.S01E06.NORWEGiAN.1080p.WEB.H264-HENRETTELSE
2019-04-12 08:47:52 Rrritalin_-_15_Cans-(RRRR_001)-SINGLE-WEB-2019-ZzZz
2019-04-12 08:47:57 Sagaer.om.Saga.S01E07.NORWEGiAN.1080p.WEB.H264-HENRETTELSE
2019-04-12 08:48:07 TeenyLovers.19.04.10.Calibri.XXX.1080p.MP4-KTR
2019-04-12 08:48:27 Sagaer.om.Saga.S01E08.NORWEGiAN.1080p.WEB.H264-HENRETTELSE
2019-04-12 08:48:33 Formule1.2019.GP03.China.Eerste.Vrije.Training.DUTCH.720p.HDTV.x264-DTOD
2019-04-12 08:48:57 Sagaer.om.Saga.S01E09.NORWEGiAN.1080p.WEB.H264-HENRETTELSE
2019-04-12 08:49:27 Sagaer.om.Saga.S01E10.NORWEGiAN.1080p.WEB.H264-HENRETTELSE
2019-04-12 08:49:41 WhippedAss.19.04.11.Chanel.Preston.And.Jane.Wilde.XXX.720p.MP4-KTR
2019-04-12 08:52:22 Total.Dreamer.S01E44.GERMAN.1080p.HDTV.x264-REQiT
2019-04-12 08:53:12 Total.Dreamer.S01E44.GERMAN.720p.HDTV.x264-REQiT
2019-04-12 08:53:36 Greys.Anatomy.S15E21.SUBFRENCH.1080p.WEB.H264-SiGeRiS
2019-04-12 08:54:06 Total.Dreamer.S01E44.GERMAN.HDTV.x264-REQiT
2019-04-12 08:54:08 Gungrave.DiSC3.MULTi.COMPLETE.BLURAY-USELESS
2019-04-12 08:54:29 Joymii.19.04.12.Amber.D.Lets.Stay.In.XXX.1080p.MP4-KTR
2019-04-12 08:55:39 StepSecrets.19.04.12.Elin.Holm.No.Escape.XXX.1080p.MP4-KTR
2019-04-12 08:57:21 TeenyLovers.19.04.10.Calibri.XXX.2160p.MP4-KTR
2019-04-12 08:59:43 SexWithMuslims.19.04.12.Nicolette.Noir.CZECH.XXX.2160p.MP4-KTR
2019-04-12 09:00:54 Marvels.Cloak.And.Dagger.S02E03.1080p.WEB.h264-TBS
2019-04-12 09:02:04 Abbys.S01E03.1080p.WEB.H264-MEMENTO
2019-04-12 09:02:18 Superstore.S04E15.720p.WEB.H264-METCON
2019-04-12 09:02:20 PrivateCasting-X.19.04.12.Allie.Nicole.XXX.2160p.MP4-KTR
2019-04-12 09:02:44 A.P.BIO.S02E06.1080p.WEB.H264-MEMENTO
2019-04-12 09:03:01 Superstore.S04E15.1080p.WEB.H264-METCON
2019-04-12 09:04:26 Brooklyn.Nine-Nine.S06E12.1080p.WEB.H264-METCON
2019-04-12 09:05:10 A.P.Bio.S02E06.720p.WEB.H264-METCON
2019-04-12 09:05:11 Brooklyn.Nine-Nine.S06E12.iNTERNAL.720p.WEB.H264-AMRAP
2019-04-12 09:06:31 NRL.2019.Round.5.Broncos.vs.Tigers.PDTV.x264-WiNNiNG
2019-04-12 09:07:38 Law.and.Order.SVU.S20E20.1080p.WEB.H264-AMCON
2019-04-12 09:07:39 Ein.besonderes.Leben.S01E01.GERMAN.DL.1080P.WEB.X264.INTERNAL-WAYNE
2019-04-12 09:08:35 Law.and.Order.SVU.S20E20.iNTERNAL.720p.WEB.H264-AMRAP
2019-04-12 09:08:39 Abbys.S01E03.720p.WEB.H264-MEMENTO
2019-04-12 09:08:55 The.Man.Who.Killed.Hitler.and.Then.The.Bigfoot.2018.720p.BluRay.x264-PSYCHD
2019-04-12 09:09:21 RuPauls.Drag.Race.S11E07.REPACK.1080p.WEB.x264-SECRETOS
2019-04-12 09:09:24 Seal.Team.S02E16.SPANiSH.1080p.HDTV.x264-FERiCE
2019-04-12 09:10:58 The.Man.Who.Killed.Hitler.and.Then.The.Bigfoot.2018.1080p.BluRay.x264-PSYCHD
2019-04-12 09:11:23 RuPauls.Drag.Race.S11E07.REPACK.720p.WEB.x264-SECRETOS
2019-04-12 09:11:37 Seal.Team.S02E16.SPANiSH.720p.HDTV.x264-FERiCE
2019-04-12 09:11:54 MetArtX.19.04.12.Kay.J.On.A.Rainy.Day.2.XXX.1080p.MP4-KTR
2019-04-12 09:12:43 In.the.Dark.2019.S01E02.iNTERNAL.720p.WEB.H264-AMRAP
2019-04-12 09:12:51 Seal.Team.S02E16.SPANiSH.HDTV.x264-FERiCE
2019-04-12 09:12:56 Anilos.19.04.12.Alby.Daor.Alone.With.Alby.XXX.1080p.MP4-KTR
2019-04-12 09:13:01 The.Man.Who.Killed.Hitler.and.Then.The.Bigfoot.2018.BDRip.x264-PSYCHD
2019-04-12 09:13:13 In.the.Dark.2019.S01E02.iNTERNAL.1080p.WEB.H264-AMRAP
2019-04-12 09:13:24 RuPauls.Drag.Race.S11E07.REPACK.WEB.x264-SECRETOS
2019-04-12 09:13:57 Nubiles.19.04.12.Kate.Rose.Playful.Teen.XXX.1080p.MP4-KTR
2019-04-12 09:15:04 Nubiles.19.04.12.Terry.Bloom.In.Bloom.XXX.1080p.MP4-KTR
2019-04-12 09:15:26 RuPauls.Drag.Race.Untucked.S11E07.REPACK.1080p.WEB.x264-SECRETOS
2019-04-12 09:15:57 Better.Things.S03E07.720p.WEB.H264-MEMENTO
2019-04-12 09:16:04 Better.Things.S03E07.1080p.WEB.H264-MEMENTO
2019-04-12 09:16:18 Better.Things.S03E07.WEB.H264-MEMENTO
2019-04-12 09:16:50 SexArt.19.04.12.Emylia.Argan.And.Alexis.Crystal.My.Summer.Part.3.XXX.1080p.MP4-KTR
2019-04-12 09:17:27 RuPauls.Drag.Race.Untucked.S11E07.REPACK.720p.WEB.x264-SECRETOS
2019-04-12 09:17:52 Alejandrito_Argenal-Nos_Pertencemos-(ARVD053)-WEB-2019-LEV
2019-04-12 09:17:52 Alex_Progress-Sound_Force-(4061707158681)-WEB-2019-LEV
2019-04-12 09:17:52 BATTS-The_Grand_Tour-WEB-2019-LEV
2019-04-12 09:18:05 Big_Search-Slow_Fascination-WEB-2019-LEV
2019-04-12 09:18:08 Mako_-_Coyote-(UL00284)-SINGLE-WEB-2019-MMS
2019-04-12 09:18:11 HerLimit.19.04.12.Mia.Linz.XXX.1080p.MP4-KTR
2019-04-12 09:19:12 Project.Runway.S17E05.1080p.WEB.h264-TBS
2019-04-12 09:19:24 Snack.World.S01E05.FRENCH.720p.HDTV.x264-D4KiD
2019-04-12 09:19:27 ThatSitcomShow.19.04.12.Ella.Knox.And.Quinn.Wilde.More.The.Merrier.XXX.1080p.MP4-KTR
2019-04-12 09:19:31 RuPauls.Drag.Race.Untucked.S11E07.REPACK.WEB.x264-SECRETOS
2019-04-12 09:19:53 Project.Runway.S17E05.720p.WEB.h264-TBS
2019-04-12 09:20:06 Project.Runway.S17E05.WEB.h264-TBS
2019-04-12 09:20:13 Snack.World.S01E05.FRENCH.HDTV.x264-D4KiD
2019-04-12 09:20:48 BrattySis.19.04.12.Emma.Starletto.Good.Little.Bunny.XXX.1080p.MP4-KTR
2019-04-12 09:20:59 Snack.World.S01E06.FRENCH.720p.HDTV.x264-D4KiD
2019-04-12 09:21:46 Snack.World.S01E06.FRENCH.HDTV.x264-D4KiD
2019-04-12 09:22:35 NubileFilms.19.04.12.Monica.Brown.Need.Your.Love.XXX.1080p.MP4-KTR
2019-04-12 09:24:49 Huge.in.France.S01E01.GERMAN.DL.1080P.WEB.X264.INTERNAL-WAYNE
2019-04-12 09:25:26 HotCrazyMess.19.04.12.Vienna.Black.Shes.A.Vandal.XXX.1080p.MP4-KTR
2019-04-12 09:25:27 Foerste.Date.S02E10.NORWEGIAN.720p.HDTV.x264-TvNORGE
2019-04-12 09:30:18 Bachelor.In.Paradise.AU.S02E03.HDTV.x264-CCT
2019-04-12 09:31:21 SexArt.19.04.12.Emylia.Argan.And.Alexis.Crystal.My.Summer.Part.3.XXX.2160p.MP4-KTR
2019-04-12 09:31:31 Bachelor.In.Paradise.AU.S02E03.720p.HDTV.x264-CCT
2019-04-12 09:32:46 Bachelor.In.Paradise.AU.S02E03.1080p.HDTV.h264-CCT
2019-04-12 09:34:35 Huge.in.France.S01E02.720p.WEBRip.x264-STRiFE
2019-04-12 09:34:41 Huge.in.France.S01E03.720p.WEBRip.x264-STRiFE
2019-04-12 09:34:52 Huge.in.France.S01E04.720p.WEBRip.x264-STRiFE
2019-04-12 09:35:07 Huge.in.France.S01E05.720p.WEBRip.x264-STRiFE
2019-04-12 09:35:54 Huge.in.France.S01E01.iNTERNAL.1080p.WEB.x264-STRiFE
2019-04-12 09:36:17 Huge.in.France.S01E02.iNTERNAL.1080p.WEB.x264-STRiFE
2019-04-12 09:36:36 Huge.in.France.S01E03.iNTERNAL.1080p.WEB.x264-STRiFE
2019-04-12 09:36:53 Huge.in.France.S01E04.iNTERNAL.1080p.WEB.x264-STRiFE
2019-04-12 09:37:17 Huge.in.France.S01E05.iNTERNAL.1080p.WEB.x264-STRiFE
2019-04-12 09:37:35 Huge.in.France.S01E06.iNTERNAL.1080p.WEB.x264-STRiFE
2019-04-12 09:37:58 Huge.in.France.S01E07.iNTERNAL.1080p.WEB.x264-STRiFE
2019-04-12 09:38:17 Huge.in.France.S01E08.iNTERNAL.1080p.WEB.x264-STRiFE
2019-04-12 09:38:53 OpenFamily.19.04.12.Chloe.Cherry.XXX.1080p.MP4-KTR
2019-04-12 09:39:04 The.Weekly.With.Charlie.Pickering.S05E04.1080p.HDTV.x264-CCT
2019-04-12 09:39:29 Wen.wuerdest.du.auf.eine.einsame.Insel.mitnehmen.2019.GERMAN.DL.1080P.WEB.X264.INTERNAL-WAYNE
2019-04-12 09:40:10 Huge.in.France.S01E08.720p.WEBRip.x264-STRiFE
2019-04-12 09:41:15 Andy_Emler_And_David_Liebman-Journey_Around_The_Truth-WEB-2019-LEV
2019-04-12 09:41:24 OpenFamily.19.04.12.Chloe.Cherry.XXX.2160p.MP4-KTR
2019-04-12 09:41:36 Hard.Quiz.S04E10.HDTV.x264-CCT
2019-04-12 09:42:02 Anderson_.Paak-Ventura-WEB-2019-LEV
2019-04-12 09:42:25 Star.Trek.Discovery.S02E13.POLISH.720p.WEBRip.x264-ProPLTV
2019-04-12 09:42:36 Angelo_Lomelo-Graphene-(5059033424111)-WEB-2019-LEV
2019-04-12 09:43:00 Ascii_Pals-Maschinen_Storys-(INP1)-WEB-2019-LEV
2019-04-12 09:43:26 Axnt-Double_Image-WEB-2019-LEV
2019-04-12 09:43:46 Black_Flower-Future_Flora-WEB-2019-LEV
2019-04-12 09:44:06 Bob_Catt_The_Legend-CRATE_DIGGER_VOL._2-WEB-2019-LEV
2019-04-12 09:44:25 Chess_Moves-Black_Chrome-WEB-2019-LEV
2019-04-12 09:44:42 Huge.in.France.S01E01.iNTERNAL.HDR.1080p.WEB.h265-PALEALE
2019-04-12 09:45:24 Chess_Moves-Boom_Bap_Crate_Life-WEB-2019-LEV
2019-04-12 09:45:25 Huge.in.France.S01E01.GERMAN.DL.HDR.1080p.WEB.h265.iNTERNAL-EiSBOCK
2019-04-12 09:45:42 Huge.in.France.S01E02.iNTERNAL.HDR.1080p.WEB.h265-PALEALE
2019-04-12 09:45:44 Chess_Moves-Unrestricted_Boundaries-WEB-2019-LEV
2019-04-12 09:46:02 Chewbeats-Campari_Beatz_Vol_1-WEB-2019-LEV
2019-04-12 09:46:18 Huge.in.France.S01E02.GERMAN.DL.HDR.1080p.WEB.h265.iNTERNAL-EiSBOCK
2019-04-12 09:46:21 ChillHop_Beats-Classic_Hip_Hop-(CHI10)-WEB-2019-LEV
2019-04-12 09:46:40 Coke_Youngblood-Urban_Tension_Vol_1-WEB-2019-LEV
2019-04-12 09:46:44 Huge.in.France.S01E03.iNTERNAL.HDR.1080p.WEB.h265-PALEALE
2019-04-12 09:46:59 DeSerter-Europa-(3615937974811)-WEB-2019-LEV
2019-04-12 09:47:11 Huge.in.France.S01E03.GERMAN.DL.HDR.1080p.WEB.h265.iNTERNAL-EiSBOCK
2019-04-12 09:47:17 Divorosso-Anonym_House-(RSV19063)-WEB-2019-LEV
2019-04-12 09:47:45 Huge.in.France.S01E04.iNTERNAL.HDR.1080p.WEB.h265-PALEALE
2019-04-12 09:47:52 Divorosso-Backdoor_House-(RSV19065)-WEB-2019-LEV
2019-04-12 09:48:04 Huge.in.France.S01E04.GERMAN.DL.HDR.1080p.WEB.h265.iNTERNAL-EiSBOCK
2019-04-12 09:48:11 Divorosso-Bullet_Lounge-(RSV19070)-WEB-2019-LEV
2019-04-12 09:48:35 Divorosso-Circle_House-(RSV19128)-WEB-2019-LEV
2019-04-12 09:48:46 Huge.in.France.S01E05.iNTERNAL.HDR.1080p.WEB.h265-PALEALE
2019-04-12 09:48:53 Divorosso-Dance_On_Fire-(RSV19073)-WEB-2019-LEV
2019-04-12 09:48:58 Huge.in.France.S01E05.GERMAN.DL.HDR.1080p.WEB.h265.iNTERNAL-EiSBOCK
2019-04-12 09:49:08 Hard.Quiz.S04E10.1080p.HDTV.x264-CCT
2019-04-12 09:49:11 Divorosso-Fantasy_Latin-(RSV19078)-WEB-2019-LEV
2019-04-12 09:49:16 TonightsGirlfriend.19.04.12.Maya.Kendrick.XXX.1080p.MP4-KTR
2019-04-12 09:49:29 Divorosso-Invidia-(RSV19121)-WEB-2019-LEV
2019-04-12 09:49:47 Huge.in.France.S01E06.iNTERNAL.HDR.1080p.WEB.h265-PALEALE
2019-04-12 09:49:48 Divorosso-Latin_Houses-(RSV19090)-WEB-2019-LEV
2019-04-12 09:49:50 Huge.in.France.S01E06.GERMAN.DL.HDR.1080p.WEB.h265.iNTERNAL-EiSBOCK
2019-04-12 09:49:51 WTA.Claro.Open.2019.Round.2.Ana.Bogdan.Vs.Sara.Sorribes.Tormo.720p.WEB.h264-PYRAMiD
2019-04-12 09:50:23 Hot.Rod.No.12.2015.HYBRiD.MAGAZiNE.eBook-LiBRiCiDE
2019-04-12 09:50:43 Huge.in.France.S01E07.GERMAN.DL.HDR.1080p.WEB.h265.iNTERNAL-EiSBOCK
2019-04-12 09:50:49 Huge.in.France.S01E07.iNTERNAL.HDR.1080p.WEB.h265-PALEALE
2019-04-12 09:51:25 Hot.Rod.No.01.2016.HYBRiD.MAGAZiNE.eBook-LiBRiCiDE
2019-04-12 09:51:36 Huge.in.France.S01E08.GERMAN.DL.HDR.1080p.WEB.h265.iNTERNAL-EiSBOCK
2019-04-12 09:51:51 Huge.in.France.S01E08.iNTERNAL.HDR.1080p.WEB.h265-PALEALE
2019-04-12 09:52:09 Hot.Rod.No.02.2016.HYBRiD.MAGAZiNE.eBook-LiBRiCiDE
2019-04-12 09:52:56 Hot.Rod.No.03.2016.HYBRiD.MAGAZiNE.eBook-LiBRiCiDE
2019-04-12 09:53:06 TonightsGirlfriend.19.04.12.Maya.Kendrick.XXX.2160p.MP4-KTR
2019-04-12 09:53:24 Huge.in.France.S01E07.720p.WEBRip.x264-STRiFE
2019-04-12 09:53:47 Hot.Rod.No.04.2016.HYBRiD.MAGAZiNE.eBook-LiBRiCiDE
2019-04-12 09:54:36 Hot.Rod.No.05.2016.HYBRiD.MAGAZiNE.eBook-LiBRiCiDE
2019-04-12 09:54:45 Stan_Kenton-Speak_Low-WEB-2019-LEV
2019-04-12 09:54:55 WTA.Claro.Open.2019.Round.2.Bibiane.Schoofs.Vs.Sara.Errani.720p.WEB.h264-PYRAMiD
2019-04-12 09:55:28 Hot.Rod.No.06.2016.HYBRiD.MAGAZiNE.eBook-LiBRiCiDE
2019-04-12 09:55:49 Huge.in.France.S01E01.720p.WEBRip.x264-STRiFE
2019-04-12 09:56:00 Huge.in.France.S01E06.720p.WEBRip.x264-STRiFE
2019-04-12 09:56:05 Deaf_Havana-Deaf_Havana_Live_At_Brixton_Academy-WEB-2019-LEV
2019-04-12 09:56:22 Hot.Rod.No.07.2016.HYBRiD.MAGAZiNE.eBook-LiBRiCiDE
2019-04-12 09:56:28 Tranzformer_X_Isaac_G___The_Essence-Elevated-WEB-2019-LEV
2019-04-12 09:57:17 Hot.Rod.No.08.2016.HYBRiD.MAGAZiNE.eBook-LiBRiCiDE
2019-04-12 09:57:50 Ein.besonderes.Leben.S01E01.GERMAN.DL.720P.WEB.X264.INTERNAL-WAYNE
2019-04-12 09:57:51 Formula1.2019.Chinese.Grand.Prix.Practice.One.720p.WEB.h264-GRiP
2019-04-12 09:58:09 Wild.Op.De.Veluwe.Part02.DUTCH.1080p.HDTV.x264-DTOD
2019-04-12 09:58:15 Hot.Rod.No.09.2016.HYBRiD.MAGAZiNE.eBook-LiBRiCiDE
2019-04-12 09:59:16 Hot.Rod.No.10.2016.HYBRiD.MAGAZiNE.eBook-LiBRiCiDE
2019-04-12 09:59:43 Klassen.S05E214.Ingen.Invitation.DANISH.720p.WEB.h264-LSDK
2019-04-12 09:59:59 WTA.Claro.Open.2019.Round.2.Jasmine.Paolini.Vs.Lara.Arruabarrena.720p.WEB.h264-PYRAMiD
2019-04-12 10:00:18 Hot.Rod.No.11.2016.HYBRiD.MAGAZiNE.eBook-LiBRiCiDE
2019-04-12 10:01:23 Hot.Rod.No.12.2016.HYBRiD.MAGAZiNE.eBook-LiBRiCiDE
2019-04-12 10:01:47 Klassen.S05E215.Mysteriet.Om.Det.Knuste.Kranie.DANISH.720p.WEB.h264-LSDK
2019-04-12 10:03:48 Klassen.S05E216.Alt.For.Alma.DANISH.720p.WEB.h264-LSDK
2019-04-12 10:05:02 WTA.Claro.Open.2019.Round.2.Magda.Linette.Vs.Astra.Sharma.720p.WEB.h264-PYRAMiD
2019-04-12 10:05:51 Klassen.S05E217.Fobi.For.Snot.DANISH.720p.WEB.h264-LSDK
2019-04-12 10:06:29 Hot.Rod.No.01.2017.HYBRiD.MAGAZiNE.eBook-LiBRiCiDE
2019-04-12 10:06:33 PlayboyPlus.19.04.12.Carmen.Nikole.Off.Duty.XXX.1080p.MP4-KTR
2019-04-12 10:07:38 Hot.Rod.No.02.2017.HYBRiD.MAGAZiNE.eBook-LiBRiCiDE
2019-04-12 10:07:54 Klassen.S05E218.Dum.For.Dig.DANISH.720p.WEB.h264-LSDK
2019-04-12 10:08:01 HardTied.19.04.10.Red.August.Tit.Tie.XXX.720p.MP4-KTR
2019-04-12 10:08:31 Nubiles.net_19.04.12.Rachel.Adjani.Deeper.XXX.IMAGESET-FuGLi
2019-04-12 10:08:48 Hot.Rod.No.03.2017.HYBRiD.MAGAZiNE.eBook-LiBRiCiDE
2019-04-12 10:09:38 BCM.19.04.12.Samantha.Hayes.Doing.Some.Yoga.On.That.Big.Black.Cock.XXX.1080p.MP4-KTR
2019-04-12 10:09:56 Formula1.2019.Chinese.Grand.Prix.Practice.One.WEB.h264-GRiP
2019-04-12 10:09:57 Klassen.S05E219.En.Tarvelig.Challenge.DANISH.720p.WEB.h264-LSDK
2019-04-12 10:10:00 Hot.Rod.No.04.2017.HYBRiD.MAGAZiNE.eBook-LiBRiCiDE
2019-04-12 10:10:41 Goldtaucher.der.Beringsee.S05E01.Start.in.eine.kurze.Saison.GERMAN.DOKU.720p.HDTV.x264.PROPER-CDD
2019-04-12 10:10:59 Formula1.2019.Chinese.Grand.Prix.Practice.One.1080p.WEB.h264-GRiP
2019-04-12 10:11:14 Hot.Rod.No.05.2017.HYBRiD.MAGAZiNE.eBook-LiBRiCiDE
2019-04-12 10:11:45 NewSensations.19.04.12.Jane.Wilde.XXX.1080p.MP4-KTR
2019-04-12 10:11:59 Klassen.S05E220.Aldrig.Forelsket.DANISH.720p.WEB.h264-LSDK
2019-04-12 10:12:30 Hot.Rod.No.06.2017.HYBRiD.MAGAZiNE.eBook-LiBRiCiDE
2019-04-12 10:13:48 Hot.Rod.No.07.2017.HYBRiD.MAGAZiNE.eBook-LiBRiCiDE
2019-04-12 10:14:02 Klassen.S05E221.Christians.Crush.Del1.DANISH.720p.WEB.h264-LSDK
2019-04-12 10:14:12 WildOnCam.19.04.12.Sydney.Cole.And.Victoria.June.Lesbian.XXX.1080p.MP4-KTR
2019-04-12 10:15:09 Hot.Rod.No.08.2017.HYBRiD.MAGAZiNE.eBook-LiBRiCiDE
2019-04-12 10:15:42 Busy.Tonight.2019.04.11.Nikolaj.Coster.Waldau.720p.WEB.x264-TBS
2019-04-12 10:15:51 Busy.Tonight.2019.04.11.Nikolaj.Coster.Waldau.WEB.x264-TBS
2019-04-12 10:16:05 Klassen.S05E222.Christians.Crush.Del2.DANISH.720p.WEB.h264-LSDK
2019-04-12 10:16:18 Luna.Star.Hot.Latina.XXX.DVDRip.x264-WOP
2019-04-12 10:16:26 NewSensations.19.04.12.Jane.Wilde.XXX.2160p.MP4-KTR
2019-04-12 10:16:36 Busy.Tonight.2019.04.11.Nikolaj.Coster.Waldau.1080p.WEB.x264-TBS
2019-04-12 10:16:38 Hot.Rod.No.09.2017.HYBRiD.MAGAZiNE.eBook-LiBRiCiDE
2019-04-12 10:17:21 Formula1.2019.Chinese.Grand.Prix.Paddock.Pass.Pre.Race.720p.WEB.h264-GRiP
2019-04-12 10:17:24 Teen.Trouble.XXX.DVDRip.x264-WOP
2019-04-12 10:17:26 formula1.2019.chinese.grand.prix.paddock.pass.preview.720p.web.h264-grip.sfv
2019-04-12 10:18:02 Hot.Rod.No.10.2017.HYBRiD.MAGAZiNE.eBook-LiBRiCiDE
2019-04-12 10:18:07 Klassen.S05E223.Min.Vaerste.Bedste.Ven.DANISH.720p.WEB.h264-LSDK
2019-04-12 10:18:24 Formula1.2019.Chinese.Grand.Prix.Paddock.Pass.Pre.Race.WEB.h264-GRiP
2019-04-12 10:19:16 Stephen.Colbert.2019.04.11.Donnie.Wahlberg.720p.WEB.x264-TBS
2019-04-12 10:19:19 BCM.19.04.12.Samantha.Hayes.Doing.Some.Yoga.On.That.Big.Black.Cock.XXX.2160p.MP4-KTR
2019-04-12 10:19:27 Formula1.2019.Chinese.Grand.Prix.Paddock.Pass.Pre.Race.1080p.WEB.h264-GRiP
2019-04-12 10:19:27 Stephen.Colbert.2019.04.11.Donnie.Wahlberg.WEB.x264-TBS
2019-04-12 10:19:29 Hot.Rod.No.11.2017.HYBRiD.MAGAZiNE.eBook-LiBRiCiDE
2019-04-12 10:19:40 Stephen.Colbert.2019.04.11.Donnie.Wahlberg.1080p.WEB.x264-TBS
2019-04-12 10:20:10 Klassen.S05E224.Rich.Kid.DANISH.720p.WEB.h264-LSDK
2019-04-12 10:20:59 Hot.Rod.No.12.2017.HYBRiD.MAGAZiNE.eBook-LiBRiCiDE
2019-04-12 10:22:12 Klassen.S05E225.Krise.I.Klassen.Del1.DANISH.720p.WEB.h264-LSDK
2019-04-12 10:23:20 VA-The_Wild_Army_Vol_3-(PAPDS257)-WEB-2019-dh
2019-04-12 10:24:03 Hot.Rod.No.01.2018.HYBRiD.MAGAZiNE.eBook-LiBRiCiDE
2019-04-12 10:24:17 Klassen.S05E226.Krise.I.Klassen.Del2.DANISH.720p.WEB.h264-LSDK
2019-04-12 10:25:37 Hot.Rod.No.02.2018.HYBRiD.MAGAZiNE.eBook-LiBRiCiDE
2019-04-12 10:26:18 Klassen.S05E227.Et.Vaadt.Uheld.DANISH.720p.WEB.h264-LSDK
2019-04-12 10:26:22 Formula1.2019.Bahrain.Grand.Prix.Drivers.Press.Conference.720p.WEB.h264-GRiP
2019-04-12 10:27:09 AllOver30.19.04.12.Phoebe.Waters.Ladies.With.Toys.XXX.1080p.MP4-KTR
2019-04-12 10:27:12 Hot.Rod.No.03.2018.HYBRiD.MAGAZiNE.eBook-LiBRiCiDE
2019-04-12 10:27:25 Formula1.2019.Bahrain.Grand.Prix.Drivers.Press.Conference.WEB.h264-GRiP
2019-04-12 10:28:04 AllOver30.19.04.12.Velvet.Skye.Mature.Pleasure.XXX.1080p.MP4-KTR
2019-04-12 10:28:22 Klassen.S05E228.Albertes.Wannabes.DANISH.720p.WEB.h264-LSDK
2019-04-12 10:28:26 Formula1.2019.Bahrain.Grand.Prix.Drivers.Press.Conference.1080p.WEB.h264-GRiP
2019-04-12 10:28:49 Hot.Rod.No.04.2018.HYBRiD.MAGAZiNE.eBook-LiBRiCiDE
2019-04-12 10:28:54 Special.S01E01.POLISH.720p.WEBRip.x264-ProPLTV
2019-04-12 10:29:13 Tacoma.FD.S01E03.UNCENSORED.WEBRip.x264-TBS
2019-04-12 10:29:29 Defloration.19.04.11.Mashka.Singer.Solo.XXX.1080p.MP4-KTR
2019-04-12 10:30:03 Sydney.to.the.Max.S01E11.WEB.x264-TBS
2019-04-12 10:30:10 Special.S01E02.POLISH.720p.WEBRip.x264-ProPLTV
2019-04-12 10:30:17 Dredd.2012.German.DL.2160p.UHD.BluRay.x265-PL3X
2019-04-12 10:30:17 Sydney.to.the.Max.S01E11.720p.WEB.x264-TBS
2019-04-12 10:30:21 Tacoma.FD.S01E03.UNCENSORED.720p.WEBRip.x264-TBS
2019-04-12 10:30:25 Klassen.S05E229.Den.Hemmelige.SMS.DANISH.720p.WEB.h264-LSDK
2019-04-12 10:30:29 Hot.Rod.No.05.2018.HYBRiD.MAGAZiNE.eBook-LiBRiCiDE
2019-04-12 10:30:54 PlumperPass.19.04.12.Lexxxi.Luxe.Body.Painted.BBW.XXX.1080p.MP4-KTR
2019-04-12 10:31:19 Special.S01E03.POLISH.720p.WEBRip.x264-ProPLTV
2019-04-12 10:31:31 Manuel_Tur--Organic_Reach-(FRD244)-WEB-2019-dh
2019-04-12 10:32:13 Hot.Rod.No.06.2018.HYBRiD.MAGAZiNE.eBook-LiBRiCiDE
2019-04-12 10:32:19 Special.S01E04.POLISH.720p.WEBRip.x264-ProPLTV
2019-04-12 10:32:23 TrickyOldTeacher.19.04.12.Ivi.Rein.XXX.1080p.MP4-KTR
2019-04-12 10:32:26 Formula1.2019.Bahrain.Grand.Prix.Jolyon.Pallmers.Analysis.720p.WEB.h264-GRiP
2019-04-12 10:32:26 Klassen.S05E230.Det.Forsvundne.Kaerestebrev.Del1.DANISH.720p.WEB.h264-LSDK
2019-04-12 10:33:20 Special.S01E05.POLISH.720p.WEBRip.x264-ProPLTV
2019-04-12 10:33:28 Formula1.2019.Bahrain.Grand.Prix.Jolyon.Pallmers.Analysis.WEB.h264-GRiP
2019-04-12 10:33:45 VA-Acid_In_My_System_Pt._1-(KLLKTR001AMS)-WEB-2019-NDE
2019-04-12 10:34:00 Hot.Rod.No.07.2018.HYBRiD.MAGAZiNE.eBook-LiBRiCiDE
2019-04-12 10:34:16 Special.S01E06.POLISH.720p.WEBRip.x264-ProPLTV
2019-04-12 10:34:28 Klassen.S05E231.Det.Forsvundne.Kaerestebrev.Del2.DANISH.720p.WEB.h264-LSDK
2019-04-12 10:34:30 Formula1.2019.Bahrain.Grand.Prix.Jolyon.Pallmers.Analysis.1080p.WEB.h264-GRiP
2019-04-12 10:34:35 Blank_and_Jones_-_In_the_Mix-SAT-04-11-2019-TALiON
2019-04-12 10:35:04 MomPov.E532.Victoria.XXX.1080p.MP4-KTR
2019-04-12 10:35:12 Special.S01E07.POLISH.720p.WEBRip.x264-ProPLTV
2019-04-12 10:35:26 Ross_Couch--Close_To_You-(BRR127)-WEB-2019-dh
2019-04-12 10:35:48 Hot.Rod.No.08.2018.HYBRiD.MAGAZiNE.eBook-LiBRiCiDE
2019-04-12 10:36:14 Coach.Trip.S17E01.PDTV.x264-GIMINI
2019-04-12 10:36:19 Special.S01E08.POLISH.720p.WEBRip.x264-ProPLTV
2019-04-12 10:36:31 Klassen.S05E232.Det.Forsvundne.Kaerestebrev.Del3.DANISH.720p.WEB.h264-LSDK
2019-04-12 10:37:15 Coach.Trip.S17E02.PDTV.x264-GIMINI
2019-04-12 10:37:24 VA-Backstage_Hits_2019-(SIR994)-WEB-2019-NDE
2019-04-12 10:37:26 Tacoma.FD.S01E03.UNCENSORED.1080p.WEBRip.x264-TBS
2019-04-12 10:37:36 Hot.Rod.No.09.2018.HYBRiD.MAGAZiNE.eBook-LiBRiCiDE
2019-04-12 10:38:16 Coach.Trip.S17E03.PDTV.x264-GIMINI
2019-04-12 10:38:22 MomPov.BTS.E120.Nadine.XXX.1080p.MP4-KTR
2019-04-12 10:38:34 Klassen.S05E234.Det.Forsvundne.Kaerestebrev.Del5.DANISH.720p.WEB.h264-LSDK
2019-04-12 10:39:17 Coach.Trip.S17E04.PDTV.x264-GIMINI
2019-04-12 10:39:29 Hot.Rod.No.10.2018.HYBRiD.MAGAZiNE.eBook-LiBRiCiDE
2019-04-12 10:39:34 MomPov.BONUS.E159.Jacky.XXX.1080p.MP4-KTR
2019-04-12 10:40:09 VA-Borderless_Techno-(LEBCOM112)-WEB-2019-NDE
2019-04-12 10:40:18 Coach.Trip.S17E05.PDTV.x264-GIMINI
2019-04-12 10:40:35 Schindlers.List.1993.BONUS.MULTi.COMPLETE.BLURAY-OLDHAM
2019-04-12 10:40:58 The.Sister.Fantasy.3.DiSC1.XXX.DVDRip.x264-BTRA
2019-04-12 10:41:19 Coach.Trip.S17E06.PDTV.x264-GIMINI
2019-04-12 10:41:22 Hot.Rod.No.11.2018.HYBRiD.MAGAZiNE.eBook-LiBRiCiDE
2019-04-12 10:41:23 Alchemyst_Grimelock_Maelan-Feel_The_Heat_EP-(STAIN003)-VINYL-2010-DEF
2019-04-12 10:41:47 The.Truth.About.Obesity.2018.HDTV.x264-PLUTONiUM
2019-04-12 10:41:55 TeensLoveAnal.19.04.12.Nova.Cane.Have.You.Ever.Tried.The.Real.Thing.XXX.1080p.MP4-KTR
2019-04-12 10:42:17 The.Sister.Fantasy.3.DiSC2.XXX.DVDRip.x264-BTRA
2019-04-12 10:42:22 Coach.Trip.S17E07.PDTV.x264-GIMINI
2019-04-12 10:42:25 Klassen.S05E233.Det.Forsvundne.Kaerestebrev.Del4.DANISH.720p.WEB.h264-LSDK
2019-04-12 10:42:47 Tittsworth_WTF_Ft_Kid_Sister_and_Paserock-WTF_09_Mixes-(RAT029)-VINYL-2009-DEF
2019-04-12 10:42:50 The.Truth.About.Obesity.2018.1080p.HDTV.h264-PLUTONiUM
2019-04-12 10:43:13 VA-Clubbers_Culture_Spirit_Of_Tech_House_Vol_3-(CCVA0841)-WEB-2019-NDE
2019-04-12 10:43:18 Hot.Rod.No.12.2018.HYBRiD.MAGAZiNE.eBook-LiBRiCiDE
2019-04-12 10:43:23 Coach.Trip.S17E08.PDTV.x264-GIMINI
2019-04-12 10:44:23 Coach.Trip.S17E09.PDTV.x264-GIMINI
2019-04-12 10:44:49 ATKGirlfriends.19.04.12.Ashley.Lane.XXX.1080p.MP4-KTR
2019-04-12 10:45:00 Formule1.2019.GP03.China.Eerste.Vrije.Training.DUTCH.1080p.HDTV.x264-DTOD
2019-04-12 10:45:21 Formula1.2019.Bahrain.Grand.Prix.Paddock.Pass.Post.Race.720p.WEB.h264-GRiP
2019-04-12 10:45:24 Coach.Trip.S17E10.PDTV.x264-GIMINI
2019-04-12 10:46:03 ATKGirlfriends.19.04.12.Rosalyn.Sphinx.XXX.1080p.MP4-KTR
2019-04-12 10:46:26 Coach.Trip.S17E11.PDTV.x264-GIMINI
2019-04-12 10:46:56 VA-Club_Quake_Vol_1_(Liquid_Shades)-(3615937655818)-WEB-2019-NDE
2019-04-12 10:47:27 Coach.Trip.S17E12.PDTV.x264-GIMINI
2019-04-12 10:47:28 ClubSeventeen.19.04.12.Elin.Holm.Solo.XXX.1080p.MP4-KTR
2019-04-12 10:48:28 Coach.Trip.S17E13.PDTV.x264-GIMINI
2019-04-12 10:48:59 ATKGirlfriends.19.04.12.Ashley.Lane.XXX.2160p.MP4-KTR
2019-04-12 10:49:29 Coach.Trip.S17E14.PDTV.x264-GIMINI
2019-04-12 10:49:33 Anal.Among.Friends.3.DiSC1.XXX.DVDRip.x264-DigitalSin
2019-04-12 10:49:33 VA-Discovery_House_Vol_1_(Tasteful_Selection_Of_Nu_Deep_Rhythms)-(7630045416134)-WEB-2019-NDE
2019-04-12 10:50:24 ATKGirlfriends.19.04.12.Rosalyn.Sphinx.XXX.2160p.MP4-KTR
2019-04-12 10:50:30 Coach.Trip.S17E15.PDTV.x264-GIMINI
2019-04-12 10:51:31 Coach.Trip.S17E16.PDTV.x264-GIMINI
2019-04-12 10:52:21 Anal.Among.Friends.3.DiSC2.XXX.DVDRip.x264-DigitalSin
2019-04-12 10:52:32 Coach.Trip.S17E17.PDTV.x264-GIMINI
2019-04-12 10:52:37 ClubSeventeen.19.04.12.Victoria.Tiffani.And.Vikki.B.Threesome.XXX.INTERNAL.1080p.MP4-KTR
2019-04-12 10:52:57 VA-Ibiza_Lounge_Zone_Vol_6_(Compiled_And_Mixed_By_Disco_Van)-(VCS103)-WEB-2019-NDE
2019-04-12 10:53:33 Coach.Trip.S17E18.PDTV.x264-GIMINI
2019-04-12 10:54:31 Sune.vs.Sune.2018.SWEDiSH.BDRip.x264-RESURRECTION
2019-04-12 10:54:34 Coach.Trip.S17E19.PDTV.x264-GIMINI
2019-04-12 10:54:41 Tacoma.FD.S01E03.UNCENSORED.REPACK.WEBRip.x264-TBS
2019-04-12 10:55:36 Coach.Trip.S17E20.PDTV.x264-GIMINI
2019-04-12 10:55:55 Tacoma.FD.S01E03.UNCENSORED.REPACK.720p.WEBRip.x264-TBS
2019-04-12 10:56:11 Kyle_Findlater-Silent_Secrecy-WEB-2019-sceau
2019-04-12 10:56:37 Coach.Trip.S17E21.PDTV.x264-GIMINI
2019-04-12 10:57:11 The.Resident.S02E19.SPANiSH.1080p.HDTV.x264-FCC
2019-04-12 10:57:15 GangbangCreampie.19.04.09.G209.Christy.Love.BTS.XXX.1080p.MP4-KTR
2019-04-12 10:57:33 The.Resident.S02E19.SPANiSH.720p.HDTV.x264-FCC
2019-04-12 10:57:38 Coach.Trip.S17E22.PDTV.x264-GIMINI
2019-04-12 10:57:44 Mike_Reeves_And_Cashwest-The_Introduction-WEB-2019-sceau
2019-04-12 10:57:53 The.Resident.S02E19.SPANiSH.HDTV.x264-FCC
2019-04-12 10:58:16 Nancy_Hubanks-Nancy_Hubanks-WEB-2019-sceau
2019-04-12 10:58:40 Coach.Trip.S17E23.PDTV.x264-GIMINI
2019-04-12 10:58:46 GangbangCreampie.19.04.12.G210.Saya.Song.XXX.1080p.MP4-KTR
2019-04-12 10:59:02 Sune.vs.Sune.2018.SWEDiSH.720p.BluRay.x264-RESURRECTION
2019-04-12 10:59:22 Mega.Titten.1.GERMAN.XXX.DVDRip.x264-EGP
2019-04-12 10:59:29 Ion_Cato-In_Due_Time-WEB-2019-sceau
2019-04-12 10:59:39 Tacoma.FD.S01E03.UNCENSORED.REPACK.1080p.WEBRip.x264-TBS
2019-04-12 10:59:41 Coach.Trip.S17E24.PDTV.x264-GIMINI
2019-04-12 11:00:14 GloryHoleSecrets.19.04.10.Brooklyn.Gray.First.Glory.Hole.POV.XXX.1080p.MP4-KTR
2019-04-12 11:00:22 For.The.People.2018.S02E06.WEB.h264-TBS
2019-04-12 11:00:34 Station.19.S02E13.WEB.h264-TBS
2019-04-12 11:00:42 Coach.Trip.S17E25.PDTV.x264-GIMINI
2019-04-12 11:00:45 Station.19.S02E13.1080p.WEB.h264-TBS
2019-04-12 11:00:46 For.The.People.2018.S02E06.1080p.WEB.h264-TBS
2019-04-12 11:00:56 GranCanada-My_Favourite_Part-WEB-2019-sceau
2019-04-12 11:01:09 Arschlecken.GERMAN.XXX.DVDRip.x264-EGP
2019-04-12 11:01:43 Coach.Trip.S17E26.PDTV.x264-GIMINI
2019-04-12 11:02:09 GloryHoleSecrets.19.04.12.Molly.Pleasant.First.Glory.Hole.XXX.1080p.MP4-KTR
2019-04-12 11:02:44 Coach.Trip.S17E27.PDTV.x264-GIMINI
2019-04-12 11:03:25 Greys.Anatomy.S15E21.1080p.WEB.h264-TBS
2019-04-12 11:03:45 Coach.Trip.S17E28.PDTV.x264-GIMINI
2019-04-12 11:03:55 LoveHerFeet.19.04.12.Sophia.Leone.Getting.To.Know.Your.Neighbor.XXX.1080p.MP4-KTR
2019-04-12 11:04:46 Coach.Trip.S17E29.PDTV.x264-GIMINI
2019-04-12 11:04:53 Drew_Singer-Two_Sided-WEB-2019-sceau
2019-04-12 11:05:11 Station.19.S02E13.iNTERNAL.1080p.WEB.H264-MEMENTO
2019-04-12 11:05:11 VA-Its_Simple_This_Is_100_Deep_House_Tracks_Of_2019-(0733991257701)-WEB-2019-NDE
2019-04-12 11:05:47 Coach.Trip.S17E30.Finale.PDTV.x264-GIMINI
2019-04-12 11:05:53 PropertySex.19.04.12.Christiana.Cinn.Indecisive.Buyer.XXX.1080p.MP4-KTR
2019-04-12 11:07:00 AllOver30.19.04.12.Phoebe.Waters.Ladies.With.Toys.XXX.2160p.MP4-KTR
2019-04-12 11:07:04 Greys.Anatomy.S15E21.iNTERNAL.1080p.WEB.H264-MEMENTO
2019-04-12 11:07:14 David.Bowie.Finding.Fame.2019.NLSUBBED.WEB.H264-MERCATOR
2019-04-12 11:08:19 Omari-Omniscient-WEB-2019-sceau
2019-04-12 11:08:37 AllOver30.19.04.12.Velvet.Skye.Mature.Pleasure.XXX.2160p.MP4-KTR
2019-04-12 11:08:52 Formula1.2019.Chinese.Grand.Prix.Practice.Two.WEB.h264-GRiP
2019-04-12 11:10:30 Formula1.2019.Chinese.Grand.Prix.The.Story.So.Far.PDTV.x264-GRiP
2019-04-12 11:10:49 TrickyOldTeacher.19.04.12.Ivi.Rein.XXX.2160p.MP4-KTR
2019-04-12 11:11:04 Sune.vs.Sune.2018.SWEDiSH.1080p.BluRay.x264-RESURRECTION
2019-04-12 11:15:27 700.requins.dans.la.nuit.DOCU.MULTi.COMPLETE.BLURAY-SharpHD
2019-04-12 11:17:09 Superstore.S04E15.WEB.h264-TBS
2019-04-12 11:17:30 A.P.BIO.S02E06.WEB.h264-TBS
2019-04-12 11:19:30 Law.and.Order.SVU.S20E20.iNTERNAL.720p.WEB.h264-BAMBOOZLE
2019-04-12 11:19:40 Greys.Anatomy.S15E21.iNTERNAL.720p.WEB.h264-BAMBOOZLE
2019-04-12 11:20:00 KarupsHA.19.04.11.Penelope.White.Blackmail.Buzz.XXX.1080p.MP4-KTR
2019-04-12 11:20:11 Brooklyn.Nine-Nine.S06E12.iNTERNAL.720p.WEB.h264-BAMBOOZLE
2019-04-12 11:21:50 KarupsOW.19.04.12.Tiffany.Rousso.Discunt.Price.XXX.1080p.MP4-KTR
2019-04-12 11:22:24 Abbys.S01E03.WEB.h264-TBS
2019-04-12 11:23:46 Chantal.Komt.Werken.S01E03.DUTCH.720p.HDTV.x264-DTOD
2019-04-12 11:23:50 Factcheckers.S01E05.FLEMISH.WEB.H264-MERCATOR
2019-04-12 11:24:15 KarupsHA.19.04.11.Penelope.White.Blackmail.Buzz.XXX.2160p.MP4-KTR
2019-04-12 11:24:37 VA-Melodic_House_Sessions_Vol_13-(LWMHS13)-WEB-2019-NDE
2019-04-12 11:25:21 Iedereen.Had.Het.Erover.S01E03.DUTCH.720p.HDTV.x264-DTOD
2019-04-12 11:26:57 Das.Boot.2018.S01E08.SPANiSH.1080p.HDTV.x264-XPERT_HD
2019-04-12 11:27:12 VA-Miami_Winter_Conference_2019-(MTD015)-WEB-2019-NDE
2019-04-12 11:27:13 KarupsOW.19.04.12.Tiffany.Rousso.Discunt.Price.XXX.2160p.MP4-KTR
2019-04-12 11:27:50 Formula1.2019.Chinese.Grand.Prix.Practice.Two.PDTV.x264-GRiP
2019-04-12 11:28:41 Das.Boot.2018.S01E08.SPANiSH.720p.HDTV.x264-XPERT_HD
2019-04-12 11:28:59 Gent.West.S02E11.FLEMISH.WEB.x264-MERCATOR
2019-04-12 11:29:13 Formule1.2019.GP03.China.Tweede.Vrije.Training.DUTCH.720p.HDTV.x264-DTOD
2019-04-12 11:30:19 Das.Boot.2018.S01E08.SPANiSH.HDTV.x264-XPERT
2019-04-12 11:30:45 VA-Now_Or_Never_Vol_3_(Tech_House_ONLY)-(WOK108)-WEB-2019-NDE
2019-04-12 11:31:51 Jimmy.Kimmel.2019.04.11.Don.Cheadle.WEB.h264-TBS
2019-04-12 11:31:53 Jimmy.Kimmel.2019.04.11.Don.Cheadle.720p.WEB.h264-TBS
2019-04-12 11:31:58 Jamie_B_-_Bones-(DNZF_485)-SINGLE-WEB-2019-ZzZz
2019-04-12 11:34:07 VA-SEXY_TECH_HOUSE_BOMB-(SIFARE0023)-WEB-2019-NDE
2019-04-12 11:36:22 Serzo_-_Ready_Tonight-SINGLE-WEB-2019-MMS
2019-04-12 11:37:18 VA-Slave_To_The_Vibe_Vol_4-(WARRIORS061)-WEB-2019-NDE
2019-04-12 11:39:00 Anto_-_Take_Me_Back-(PDHH_117)-SINGLE-WEB-2019-ZzZz
2019-04-12 11:39:23 VA-Spring_Emotions_Vol_1-(PLT070)-WEB-2019-NDE
2019-04-12 11:41:37 Michael_Henderson-Take_Me_Im_Yours_The_Buddah_Years_Anthology-REMASTERED-2CD-FLAC-2018-NBFLAC
2019-04-12 11:41:56 DTFSluts.19.04.12.Liv.Revamped.Petite.Latina.Fuck.Slut.XXX.1080p.MP4-KTR
2019-04-12 11:42:10 VA-Substance_Vol_54-(RMCOMP852)-WEB-2019-NDE
2019-04-12 11:42:56 MugFucked.18.10.18.Valentina.Nappi.XXX.1080p.MP4-KTR
2019-04-12 11:44:10 MugFucked.18.10.25.Kleio.Valentein.XXX.1080p.MP4-KTR
2019-04-12 11:44:11 Autiszm_-_Cursed-(ISRD154)-WEB-2019-SRG
2019-04-12 11:44:50 Dim_Val_Pol_-_Emotion-(PSR082)-SINGLE-WEB-2019-JUSTiFY
2019-04-12 11:45:08 MugFucked.18.11.01.Kimber.Woods.XXX.1080p.MP4-KTR
2019-04-12 11:45:19 Progman_-_Conqueror-(BT201)-SINGLE-WEB-2019-JUSTiFY
2019-04-12 11:45:42 Sosa_Ibiza_and_Dalosy_-_Granada-WEB-2019-KNOWN
2019-04-12 11:45:48 VA-Summer_People_(Deep-House_Session)_Vol_1-(GORILLAZY044)-WEB-2019-NDE
2019-04-12 11:45:49 Sergei_Vasilenko_-_Parade_Of_Planets-(YR7660)-SINGLE-WEB-2019-JUSTiFY
2019-04-12 11:46:05 MugFucked.18.11.08.Ella.Nova.XXX.1080p.MP4-KTR
2019-04-12 11:46:37 Formel.1.2019.Grosser.Preis.von.China.1.Freies.Training.in.Shanghai.GERMAN.720p.HDTV.x264-F1
2019-04-12 11:47:04 MugFucked.18.11.15.Cherie.Deville.XXX.1080p.MP4-KTR
2019-04-12 11:47:43 Cupra_-_Axis-(SS_077)-SINGLE-WEB-2019-ZzZz
2019-04-12 11:48:03 MugFucked.18.11.22.Chanel.Preston.XXX.1080p.MP4-KTR
2019-04-12 11:48:39 VA-Techna_Records_Best_Of_Vol_3-(TECH201)-WEB-2019-NDE
2019-04-12 11:49:02 MugFucked.18.11.29.Britney.Amber.XXX.1080p.MP4-KTR
2019-04-12 11:50:00 MugFucked.18.12.06.Alexa.Grace.XXX.1080p.MP4-KTR
2019-04-12 11:50:29 Marc_Lewis_-_Boulder_Holder_(Matt_Wade_Remix)-(FBR_311)-SINGLE-WEB-2019-ZzZz
2019-04-12 11:51:02 MugFucked.18.12.13.Abella.Danger.XXX.1080p.MP4-KTR
2019-04-12 11:51:34 VA-Techno_Influence-(LEBCOM111)-WEB-2019-NDE
2019-04-12 11:53:23 Swaytone_-_Chaos-WEB-2019-KNOWN
2019-04-12 11:55:25 Formel.1.2019.Grosser.Preis.von.China.1.Freies.Training.in.Shanghai.GERMAN.HDTVRiP.x264-F1
2019-04-12 11:59:02 VA-The_Best_Of_Ibiza_Tech_House_19-(GS268)-WEB-2019-NDE
2019-04-12 11:59:25 2_Thunders_-_Utopia-(JAKD011)-SINGLE-WEB-2019-JUSTiFY
2019-04-12 12:00:17 Basstian_and_Sonu_Jolly_-_Home-SINGLE-WEB-2019-JUSTiFY
2019-04-12 12:01:56 Medu_-_Dirty_Jam-WEB-2019-KNOWN
2019-04-12 12:03:08 Massive_Ditto_and_Vinyl_S_-_What_Else_(2019_Remixes)-(MR0528)-WEB-2019-JUSTiFY
2019-04-12 12:03:24 VA-The_Deep_Secrets_Of_A_Bachelor-(073399127732)-WEB-2019-NDE
2019-04-12 12:05:56 VA-The_Definition_Of_Future_House_Vol_15-(PTCOMP977A)-WEB-2019-NDE
2019-04-12 12:06:14 GirlsOutWest.19.04.12.Dodi.Sun.Shower.XXX.1080p.MP4-TRASHBIN
2019-04-12 12:06:58 VA-Dave_202_Backstage_Hits_2019-(SIR994)-WEB-2019-JUSTiFY
2019-04-12 12:07:28 GirlsOutWest.19.04.12.Dodi.Sun.Shower.XXX.2160p.MP4-TRASHBIN
2019-04-12 12:08:22 Broken_Logic_-_Catch_Your_Fall-(BLU288)-WEB-2019-JUSTiFY
2019-04-12 12:08:32 KarupsHA.19.04.12.Aurora.Green.XXX.1080p.MP4-TRASHBIN
2019-04-12 12:08:44 Mellan.Raderna.S02E31.SWEDiSH.720p.WEB.H264-EXECUTION
2019-04-12 12:08:59 T-SKYDIVER_-_What_Is_Love-(LR1394446)-WEB-2019-JUSTiFY
2019-04-12 12:09:08 VA-This_Is_Tech_House_Vol_3_(25_Pocket_Rockets)-(URBAN086)-WEB-2019-NDE
2019-04-12 12:09:14 Mellan.Raderna.S02E31.SWEDiSH.1080p.WEB.H264-EXECUTION
2019-04-12 12:09:49 KarupsPC.19.04.11.Ricky.Kove.XXX.1080p.MP4-TRASHBIN
2019-04-12 12:10:36 VA-Tropical_Beach_Vol_6-(MGL056)-WEB-2019-NDE
2019-04-12 12:10:49 KarupsPC.19.04.12.Barra.Brass.XXX.1080p.MP4-TRASHBIN
2019-04-12 12:12:07 MMVFilms.19.04.12.Eva.Adams.Anal.Temptation.GERMAN.XXX.1080p.MP4-TRASHBIN
2019-04-12 12:13:20 PureXXXFilms.19.04.12.Brooklyn.Blue.Family.Values.XXX.1080p.MP4-TRASHBIN
2019-04-12 12:13:45 VA-Weekend_In_Paradise_(Fabulous_Summer_Tunes)_Vol_2-(WMG099)-WEB-2019-NDE
2019-04-12 12:15:28 Twisted_ft._Will_Snyder_-_Cant_Keep_My_Eyes_Off_You-(UMM0004)-WEB-2019-JUSTiFY
2019-04-12 12:16:02 Twisted_ft._Will_Snyder_-_Cant_Keep_My_Eyes_Off_You_(Jay_Frog_Remix)-(UMM0004R)-WEB-2019-JUSTiFY
2019-04-12 12:16:57 ATKExotics.19.04.12.Daizy.Cooper.Interview.XXX.1080p.MP4-KTR
2019-04-12 12:17:57 Escape.Room.2019.FRENCH.720p.BluRay.x264-VENUE
2019-04-12 12:18:12 ATKHairy.19.04.12.Alisha.XXX.1080p.MP4-KTR
2019-04-12 12:18:57 ATKHairy.19.04.12.Niki.Snow.XXX.1080p.MP4-KTR
2019-04-12 12:19:10 VA-Welcome_To_Spring_Vol_67-(SRR0067)-WEB-2019-NDE
2019-04-12 12:19:29 Escape.Room.2019.FRENCH.BDRip.x264-VENUE
2019-04-12 12:19:58 AuntJudys.19.04.12.Auntie.Red.Walks.You.Through.Her.Office.Fantasy.XXX.1080p.MP4-KTR
2019-04-12 12:20:06 Escape.Room.2019.MULTi.1080p.BluRay.x264-VENUE
2019-04-12 12:20:13 Syn_Cole_-_Horizon_83-WEB-2019-KNOWN
2019-04-12 12:24:07 VA-Welcome_To_Spring_Vol_68-(SRR0068)-WEB-2019-NDE
2019-04-12 12:26:10 VA-WMC_Miami_2019-(HB156)-WEB-2019-NDE
2019-04-12 12:28:00 Fellar_-_Groovy_Space-WEB-2019-KNOWN
2019-04-12 12:29:41 My.Roommate.Is.A.Cat.E11.DUBBED.1080p.WEB.x264-URANiME
2019-04-12 12:30:42 My.Roommate.Is.A.Cat.E11.DUBBED.720p.WEB.x264-URANiME
2019-04-12 12:31:43 My.Roommate.Is.A.Cat.E11.DUBBED.WEB.x264-URANiME
2019-04-12 12:31:53 Milfty.19.04.12.Ryan.Keely.Sentimental.Stepmom.Snatch.XXX.1080p.MP4-KTR
2019-04-12 12:32:05 Bordertown.FI.S02E01.German.BDRiP.x264-PL3X
2019-04-12 12:32:17 Bordertown.FI.S02E01.German.720p.BluRay.x264-PL3X
2019-04-12 12:32:44 Sarazanmai.E01.1080p.WEB.x264-URANiME
2019-04-12 12:33:44 Sarazanmai.E01.720p.WEB.x264-URANiME
2019-04-12 12:34:44 Sarazanmai.E01.WEB.x264-URANiME
2019-04-12 12:35:45 We.Never.Learn.Bokuben.E01.1080p.WEB.x264-URANiME
2019-04-12 12:36:03 Temptation.Island.NL.S09E10.DUTCH.720p.HDTV.x264-DTOD
2019-04-12 12:36:45 We.Never.Learn.Bokuben.E01.720p.WEB.x264-URANiME
2019-04-12 12:37:45 We.Never.Learn.Bokuben.E01.WEB.x264-URANiME
2019-04-12 12:38:13 ShotHerFirst.19.04.12.Savannah.Dixon.XXX.1080p.MP4-KTR
2019-04-12 12:40:50 ShotHerFirst.19.04.12.Savannah.Dixon.XXX.2160p.MP4-KTR
2019-04-12 12:43:45 Huge.in.France.S01E02.GERMAN.DL.1080P.WEB.X264.INTERNAL-WAYNE
2019-04-12 12:44:46 Huge.in.France.S01E03.GERMAN.DL.1080P.WEB.X264.INTERNAL-WAYNE
2019-04-12 12:45:47 Huge.in.France.S01E04.GERMAN.DL.1080P.WEB.X264.INTERNAL-WAYNE
2019-04-12 12:46:11 Bordertown.FI.S02E01.German.1080p.BluRay.x264-PL3X
2019-04-12 12:46:45 Huge.in.France.S01E05.GERMAN.DL.1080P.WEB.X264.INTERNAL-WAYNE
2019-04-12 12:47:29 Huge.in.France.S01E06.GERMAN.DL.1080P.WEB.X264.INTERNAL-WAYNE
2019-04-12 12:48:14 Huge.in.France.S01E07.GERMAN.DL.1080P.WEB.X264.INTERNAL-WAYNE
2019-04-12 12:48:49 Huge.in.France.S01E08.GERMAN.DL.1080P.WEB.X264.INTERNAL-WAYNE
2019-04-12 12:49:10 WankItNow.19.04.10.Dolly.P.Just.A.Fling.XXX.1080p.MP4-KTR
2019-04-12 12:50:06 WankItNow.19.04.10.Lucia.Love.And.Kylie.Nymphette.Bound.To.Cum.XXX.1080p.MP4-KTR
2019-04-12 12:50:11 Ein.besonderes.Leben.S01E02.GERMAN.DL.1080P.WEB.X264.INTERNAL-WAYNE
2019-04-12 12:51:06 WankItNow.19.04.11.Rachael.C.These.Big.Tits.XXX.1080p.MP4-KTR
2019-04-12 12:51:26 Ein.besonderes.Leben.S01E03.GERMAN.DL.1080P.WEB.X264.INTERNAL-WAYNE
2019-04-12 12:52:09 WankItNow.19.04.12.Ashley.Jay.In.The.Dog.House.XXX.1080p.MP4-KTR
2019-04-12 12:52:41 Ein.besonderes.Leben.S01E04.GERMAN.DL.1080P.WEB.X264.INTERNAL-WAYNE
2019-04-12 12:53:07 WankItNow.19.04.12.Lucy.Rose.Keep.Fucking.Me.Part.2.XXX.1080p.MP4-KTR
2019-04-12 12:53:57 Ein.besonderes.Leben.S01E05.GERMAN.DL.1080P.WEB.X264.INTERNAL-WAYNE
2019-04-12 12:54:54 Ein.besonderes.Leben.S01E06.GERMAN.DL.1080P.WEB.X264.INTERNAL-WAYNE
2019-04-12 12:55:31 Ein.besonderes.Leben.S01E07.GERMAN.DL.1080P.WEB.X264.INTERNAL-WAYNE
2019-04-12 12:56:02 Ein.besonderes.Leben.S01E08.GERMAN.DL.1080P.WEB.X264.INTERNAL-WAYNE
2019-04-12 12:56:49 Huizenjagers.S04E43.FLEMISH.WEB.x264-MERCATOR
2019-04-12 12:57:28 Ein.besonderes.Leben.S01E02.GERMAN.DL.720P.WEB.X264.INTERNAL-WAYNE
2019-04-12 12:59:53 Ein.besonderes.Leben.S01E03.GERMAN.DL.720P.WEB.X264.INTERNAL-WAYNE
2019-04-12 13:00:19 WankItNow.19.04.10.Dolly.P.Just.A.Fling.XXX.2160p.MP4-KTR
2019-04-12 13:00:31 Ein.besonderes.Leben.S01E04.GERMAN.DL.720P.WEB.X264.INTERNAL-WAYNE
2019-04-12 13:01:01 Ein.besonderes.Leben.S01E05.GERMAN.DL.720P.WEB.X264.INTERNAL-WAYNE
2019-04-12 13:01:19 WankItNow.19.04.10.Lucia.Love.And.Kylie.Nymphette.Bound.To.Cum.XXX.2160p.MP4-KTR
2019-04-12 13:02:23 WankItNow.19.04.11.Rachael.C.These.Big.Tits.XXX.2160p.MP4-KTR
2019-04-12 13:02:24 Ein.besonderes.Leben.S01E06.GERMAN.DL.720P.WEB.X264.INTERNAL-WAYNE
2019-04-12 13:02:56 Ein.besonderes.Leben.S01E07.GERMAN.DL.720P.WEB.X264.INTERNAL-WAYNE
2019-04-12 13:03:28 WankItNow.19.04.12.Ashley.Jay.In.The.Dog.House.XXX.2160p.MP4-KTR
2019-04-12 13:03:42 Ein.besonderes.Leben.S01E08.GERMAN.DL.720P.WEB.X264.INTERNAL-WAYNE
2019-04-12 13:04:39 WankItNow.19.04.12.Lucy.Rose.Keep.Fucking.Me.Part.2.XXX.2160p.MP4-KTR
2019-04-12 13:07:40 Formule1.2019.GP03.China.Tweede.Vrije.Training.DUTCH.1080p.HDTV.x264-DTOD
2019-04-12 13:16:37 Afrikas.wilde.Tierwelt.S01E03.GERMAN.DL.DOKU.720p.HDTV.x264-GHDP
2019-04-12 13:18:44 Digimon.Adventure.Tri.3.Confession.2016.1080p.BluRay.x264-GHOULS
2019-04-12 13:22:35 Digimon.Adventure.Tri.3.Confession.2016.720p.BluRay.x264-GHOULS
2019-04-12 13:25:45 Formel.1.2019.Grosser.Preis.von.China.1.Freies.Training.in.Shanghai.GERMAN.1080p.HDTV.x264-F1
2019-04-12 13:26:52 Digimon.Adventure.Tri.3.Confession.2016.BDRip.x264-GHOULS
2019-04-12 13:31:11 Formel.1.2019.Grosser.Preis.von.China.2.Freies.Training.in.Shanghai.GERMAN.720p.HDTV.x264-F1
2019-04-12 13:34:32 Chantal.Komt.Werken.S01E03.DUTCH.1080p.HDTV.x264-DTOD
2019-04-12 13:34:46 VA-Soulfulradio_Vol_3-(10148698)-WEB-2019-KLIN
2019-04-12 13:37:02 Le.Monde.13.Avril.2019.French.Retail.eBook-FMR
2019-04-12 13:37:11 Le.Monde.M.13.Avril.2019.French.Retail.eBook-FMR
2019-04-12 13:37:20 Iedereen.Had.Het.Erover.S01E03.DUTCH.1080p.HDTV.x264-DTOD
2019-04-12 13:37:23 Blood_Command-Return_of_the_Arsonist-WEB-2019-KLV
2019-04-12 13:39:50 Formel.1.2019.Grosser.Preis.von.China.2.Freies.Training.in.Shanghai.GERMAN.HDTVRiP.x264-F1
2019-04-12 13:39:55 Alchemyst_Grimelock_Maelan-Feel_The_Heat_EP-(STAIN003)-VINYL-FLAC-2010-BEATOCUL
2019-04-12 13:40:07 Behexen-Eternal_Realm-Demo-Tape-1997-KLV_INT
2019-04-12 13:40:32 Tittsworth_WTF_Ft_Kid_Sister_And_Paserock-WTF_09_Mixes-(RAT029)-VINYL-FLAC-2009-BEATOCUL
2019-04-12 13:42:38 Charnel_Winds-Stigma_Prior_Nefastvm-Demo-Tape-FI-2004-KLV_INT
2019-04-12 13:44:56 Tod.bei.Nacht.S01E02.GERMAN.DL.DOKU.720p.HDTV.x264-GHDP
2019-04-12 13:45:08 Musta_Kappeli-Sielun_Pimeydessa-Demo-Tape-FI-2007-KLV_INT
2019-04-12 13:45:34 Raate-Demo_1-Demo-Tape-FI-2004-KLV_INT
2019-04-12 13:47:52 VA-Sound_For_DJ_Vol_22-(KCD19051)-WEB-2019-KLIN
2019-04-12 13:50:03 Call.My.Agent.S02E06.SPANiSH.1080p.HDTV.x264-FCC
2019-04-12 13:50:24 Call.My.Agent.S02E06.SPANiSH.720p.HDTV.x264-FCC
2019-04-12 13:50:31 Stormheit-Calling_the_Spirits_of_Hate-Demo-Tape-2006-KLV_INT
2019-04-12 13:50:36 Call.My.Agent.S02E06.SPANiSH.HDTV.x264-FCC
2019-04-12 13:50:47 Estacion.19.S02E11.SPANiSH.1080p.HDTV.x264-FCC
2019-04-12 13:51:04 Torturium-Banished_Soul_Tortured_into_Infernal_Visions-Demo-Tape-2004-KLV_INT
2019-04-12 13:51:09 Estacion.19.S02E11.SPANiSH.720p.HDTV.x264-FCC
2019-04-12 13:51:28 Estacion.19.S02E11.SPANiSH.HDTV.x264-FCC
2019-04-12 13:54:07 Seven.Enhanced.Edition.Update.v1.3.1-BAT
2019-04-12 14:03:59 Auslogics.BitReplica.v2.3.2.0.Incl.Keygen-AMPED
2019-04-12 14:04:35 Double.Date.2017.GERMAN.720p.BluRay.x264-UNiVERSUM
2019-04-12 14:04:40 Double.Date.GERMAN.2017.AC3.BDRip.x264-UNiVERSUM
2019-04-12 14:05:22 Digimon.Adventure.Tri.3.Confession.2016.COMPLETE.BLURAY-VEXHD
2019-04-12 14:06:21 Glass.2019.MULTi.2160p.UHD.BluRay.x265-OohLaLa
2019-04-12 14:06:21 Namuamidabutsu.Utena.E01.1080p.WEB.x264-URANiME
2019-04-12 14:07:21 Namuamidabutsu.Utena.E01.720p.WEB.x264-URANiME
2019-04-12 14:08:21 Namuamidabutsu.Utena.E01.WEB.x264-URANiME
2019-04-12 14:10:23 VA-Spring_Dreams_Vol_2-(RR052)-WEB-2019-KLIN
2019-04-12 14:13:07 Wise.Mans.Grandchild.E01.1080p.WEB.x264-URANiME
2019-04-12 14:13:14 Little.Women.Atlanta.S05E03.Put.a.Ring.on.It.HDTV.x264-CRiMSON
2019-04-12 14:14:08 Wise.Mans.Grandchild.E01.720p.WEB.x264-URANiME
2019-04-12 14:15:08 Wise.Mans.Grandchild.E01.DUBBED.1080p.WEB.x264-URANiME
2019-04-12 14:16:05 VA-Restate_Gods_Vol_9-(RG009)-WEB-2019-KLIN
2019-04-12 14:16:09 Wise.Mans.Grandchild.E01.DUBBED.720p.WEB.x264-URANiME
2019-04-12 14:17:09 Wise.Mans.Grandchild.E01.DUBBED.WEB.x264-URANiME
2019-04-12 14:18:10 Wise.Mans.Grandchild.E01.WEB.x264-URANiME
2019-04-12 14:23:58 Abdomen_Burst_-_Changes_(Incl._Malevich_Fretwell_Monojoke_Remix)-(SILK051)-WEB-2012-MMS
2019-04-12 14:29:54 Temptation.Island.NL.S09E10.DUTCH.1080p.HDTV.x264-DTOD
2019-04-12 14:30:16 Afrikas.wilde.Tierwelt.S01E03.GERMAN.DL.DOKU.1080p.HDTV.x264-GHDP
2019-04-12 14:31:41 Nintendo_Labo_ToyCon_04_VR_Kit_NSW-VENOM
2019-04-12 14:31:58 Floortje.Naar.Het.Einde.Van.De.Wereld.S06E07.DUTCH.720p.HDTV.x264-DTOD
2019-04-12 14:35:26 Kontrakt.v1.1.8.0-SiMPLEX
2019-04-12 14:36:42 Little.Women.Atlanta.S05E03.Put.a.Ring.on.It.720p.HDTV.x264-CRiMSON
2019-04-12 14:37:19 GTO.Great.Teacher.Onizuka.2014.E01.SUBFRENCH.1080p.WEB.x264-AMB3R
2019-04-12 14:37:38 GTO.Great.Teacher.Onizuka.2014.E02.SUBFRENCH.1080p.WEB.x264-AMB3R
2019-04-12 14:37:47 GTO.Great.Teacher.Onizuka.2014.E03.SUBFRENCH.1080p.WEB.x264-AMB3R
2019-04-12 14:37:55 GTO.Great.Teacher.Onizuka.2014.E04.SUBFRENCH.1080p.WEB.x264-AMB3R
2019-04-12 14:38:04 GTO.Great.Teacher.Onizuka.2014.E05.SUBFRENCH.1080p.WEB.x264-AMB3R
2019-04-12 14:38:13 GTO.Great.Teacher.Onizuka.2014.E06.SUBFRENCH.1080p.WEB.x264-AMB3R
2019-04-12 14:38:23 GTO.Great.Teacher.Onizuka.2014.E07.SUBFRENCH.1080p.WEB.x264-AMB3R
2019-04-12 14:38:31 GTO.Great.Teacher.Onizuka.2014.E08.SUBFRENCH.1080p.WEB.x264-AMB3R
2019-04-12 14:38:40 GTO.Great.Teacher.Onizuka.2014.E09.SUBFRENCH.1080p.WEB.x264-AMB3R
2019-04-12 14:38:47 GTO.Great.Teacher.Onizuka.2014.E10.SUBFRENCH.1080p.WEB.x264-AMB3R
2019-04-12 14:39:00 GTO.Great.Teacher.Onizuka.2014.E11.FiNAL.SUBFRENCH.1080p.WEB.x264-AMB3R
2019-04-12 14:39:44 Memento.Mori.2018.GERMAN.720p.BluRay.x264-UNiVERSUM
2019-04-12 14:40:02 Memento.Mori.GERMAN.2018.AC3.BDRip.x264-UNiVERSUM
2019-04-12 14:41:38 Memento.Mori.2018.GERMAN.DUAL.COMPLETE.BLURAY-UNiVERSUM
2019-04-12 14:42:26 Performance.Samples.Caspian.KONTAKT-MASCHiNE
2019-04-12 14:42:56 Formel.1.2019.Grosser.Preis.von.China.2.Freies.Training.in.Shanghai.GERMAN.1080p.HDTV.x264-F1
2019-04-12 14:45:50 Subspecies.4.Bloodstorm.1998.INTERNAL.WEB.x264-ASSOCiATE
2019-04-12 14:46:51 The.Miracle.of.the.Cards.2001.INTERNAL.WEB.x264-ASSOCiATE
2019-04-12 14:47:54 Crash.and.Burn.1990.FESTIVAL.INTERNAL.WEB.x264-ASSOCiATE
2019-04-12 14:52:23 La_Recre-La_Recre-WEB-2019-OND
2019-04-12 14:52:26 Swamp.People.S10E11.Wild.Wild.Swamp.HDTV.x264-CRiMSON
2019-04-12 14:55:14 Ran.eSports.Professional.Gaming.Magazine.2019.04.11.German.1080p.HDTV.x264-WiNMAU
2019-04-12 14:56:18 Floortje.Naar.Het.Einde.Van.De.Wereld.S06E07.DUTCH.1080p.HDTV.x264-DTOD
2019-04-12 14:57:57 Ran.eSports.Professional.Gaming.Magazine.2019.04.11.German.720p.HDTV.x264-WiNMAU
2019-04-12 14:58:03 VA-Best_Funky_House_2019_(Spring_2K19_Edition)-(MF00197)-WEB-2019-KLIN
2019-04-12 14:59:35 Ran.eSports.Professional.Gaming.Magazine.2019.04.11.German.HDTVRip.x264-WiNMAU
2019-04-12 15:00:15 False.Flag.S02E03.FRENCH.HDTV.x264-AMB3R
2019-04-12 15:00:22 False.Flag.S02E04.FRENCH.HDTV.x264-AMB3R
2019-04-12 15:03:38 All.Wifed.Out.2012.WEB.x264-ASSOCiATE
2019-04-12 15:04:41 All.Wifed.Out.2012.720p.WEB.x264-ASSOCiATE
2019-04-12 15:05:29 Double.Date.2017.GERMAN.DL.1080p.BluRay.x264-UNiVERSUM
2019-04-12 15:05:43 Drop.Dead.Gorgeous.2010.REAL.WEB.x264-ASSOCiATE
2019-04-12 15:06:06 Performance.Samples.Con.Moto.Cellos.KONTAKT-MASCHiNE
2019-04-12 15:06:43 Double.Date.2017.COMPLETE.BLURAY-iTWASNTME
2019-04-12 15:06:46 Drop.Dead.Gorgeous.2010.720p.WEB.x264-ASSOCiATE
2019-04-12 15:07:23 The_Lost_Trybe_Of_Hip_Hop-Pressure-PROMO-VINYL-FLAC-1997-FrB
2019-04-12 15:07:25 The.Man.Who.Killed.Hitler.and.Then.The.Bigfoot.2018.COMPLETE.BLURAY-COASTER
2019-04-12 15:07:54 Take.Care.2014.FESTIVAL.720p.WEB.x264-ASSOCiATE
2019-04-12 15:08:10 Moosemeat.and.Marmalade.S04E11.HDTV.x264-aAF
2019-04-12 15:08:41 Moosemeat.and.Marmalade.S04E11.720p.HDTV.x264-aAF
2019-04-12 15:08:57 Digging.to.China.1997.LIMITED.INTERNAL.WEB.x264-ASSOCiATE
2019-04-12 15:09:43 Kalkofes.Mattscheibe.Specials.2017.Disc.1.GERMAN.COMPLETE.BLURAY-FULLSiZE
2019-04-12 15:10:00 Digging.to.China.1997.LIMITED.720p.WEB.x264-ASSOCiATE
2019-04-12 15:10:35 Swamp.People.S10E11.Wild.Wild.Swamp.720p.HDTV.x264-CRiMSON
2019-04-12 15:13:15 Big.Brother.Canada.S07E17.720p.HDTV.x264-aAF
2019-04-12 15:15:26 Big.Brother.Canada.S07E17.HDTV.x264-aAF
2019-04-12 15:15:42 Justice.League.vs.the.Fatal.Five.2019.MULTi.2160p.UHD.BluRay.x265-OohLaLa
2019-04-12 15:19:32 Nachtwacht.S01E11.FLEMISH.WEB.H264-MERCATOR
2019-04-12 15:20:58 Mokushi-Fragmented_Species-(BATAU084)-WEB-2019-KLIN
2019-04-12 15:24:30 Nachtwacht.S01E12.FLEMISH.WEB.H264-MERCATOR
2019-04-12 15:24:52 Anal.Antics.XXX.DVDRip.x264-HORNDOGS
2019-04-12 15:26:07 Doe_Smith-Une_Pluie_Determinee-WEB-FR-2019-OND
2019-04-12 15:26:27 Secret_Band-Lightning__Rabbit_Hole-WEB-2019-ENTiTLED
2019-04-12 15:27:11 Perthil-Tekk_Toys_2-(10150696)-SINGLE-WEB-2019-KLIN
2019-04-12 15:27:42 FJ-Kote_Mwin-SINGLE-WEB-FR-2019-OND
2019-04-12 15:29:13 FJ-Ote_Mon_Kafrine-WEB-FR-2012-OND
2019-04-12 15:30:44 Himra-Brutal-WEB-FR-2019-OND
2019-04-12 15:31:35 Trapoeta-Hands_Up-(DS7272)-SINGLE-WEB-2019-KLIN
2019-04-12 15:32:15 Himra-Omega-WEB-FR-2018-OND
2019-04-12 15:32:20 Glass.2019.PROOF.FIX.COMPLETE.UHD.BLURAY-TERMiNAL
2019-04-12 15:33:48 Kaf_Malbar-Accept_(Feat_Boss_And_Youth)-SINGLE-WEB-FR-2019-OND
2019-04-12 15:35:18 Leto-Double_Bang_7-SINGLE-WEB-FR-2019-OND
2019-04-12 15:35:29 Kalkofes.Mattscheibe.Specials.2018.Disc.2.GERMAN.COMPLETE.BLURAY-FULLSiZE
2019-04-12 15:36:32 Afrojack_ft._Rae_Sremmurd_and_Stanaj_-_Sober-(WALL207)-WEB-2019-MMS
2019-04-12 15:36:49 McBox-Trop_Tard-WEB-FR-2019-OND
2019-04-12 15:37:53 Nachtwacht.S01E13.FLEMISH.WEB.H264-MERCATOR
2019-04-12 15:38:00 Formula1.2019.Chinese.Grand.Prix.Practice.Two.720p.WEB.h264-GRiP
2019-04-12 15:38:21 Pills-Presentation-SINGLE-WEB-FR-2019-OND
2019-04-12 15:39:27 For.The.People.2018.S02E06.720p.HDTV.x264-aAF
2019-04-12 15:39:37 Lotus_Land_Pilot-Lsy-(ODSCL030)-SINGLE-WEB-2019-KLIN
2019-04-12 15:39:52 Prs-One-Sombre-WEB-FR-2019-OND
2019-04-12 15:40:27 Sefyu-Yusef-FR-CD-FLAC-2019-Mrflac
2019-04-12 15:41:25 Rafael_Battistuzzi-Encore_(Feat_Eva_Simba)-SINGLE-WEB-FR-2019-OND
2019-04-12 15:42:50 Formula1.2019.Chinese.Grand.Prix.Practice.Two.1080p.WEB.h264-GRiP
2019-04-12 15:42:57 St_Unit-Intro-WEB-FR-2019-OND
2019-04-12 15:43:52 Rinsz-Island_Moonrise_2-(194271892294)-WEB-2019-KLIN
2019-04-12 15:44:28 St_Unit-Protege_Ton_Dos_(Edit)-SINGLE-WEB-FR-2018-OND
2019-04-12 15:45:30 ManRoyale.19.01.11.Hunter.Smith.and.Jason.Wolf.Good.Vibrations.XXX.1080p.x264-MANLOVE
2019-04-12 15:46:00 Wido-Sensas-WEB-FR-2019-OND
2019-04-12 15:46:11 Bohdan.Cafourek.-.Sprava.Windows.Serveru.2008.pruvodce.pokrocileho.spravce.2009.CZECH.RETAiL.eBook-MoCB
2019-04-12 15:46:16 Helena.Heroldova.-.Cinska.vysivka.2011.CZECH.RETAiL.eBook-MoCB
2019-04-12 15:46:18 Helena.Jarkovska.Marketa.Jarkovska.-.Posilovani.s.nacinim.306krat.jinak.2011.CZECH.RETAiL.eBook-MoCB
2019-04-12 15:46:23 Jan.Bumba.-.Ceske.katastry.od.11.do.21.stoleti.2011.CZECH.RETAiL.eBook-MoCB
2019-04-12 15:46:24 Jana.Klucka.Pavla.Volfova.-.Kognitivni.trenink.v.praxi.2011.CZECH.RETAiL.eBook-MoCB
2019-04-12 15:46:26 Jiri.Kosek.-.PHP.a.XML.2009.CZECH.RETAiL.eBook-MoCB
2019-04-12 15:46:28 Karel.Kopec.-.Zelenina.ve.vyzive.cloveka.2011.CZECH.RETAiL.eBook-MoCB
2019-04-12 15:46:31 Diana.Chrpova.-.S.vyzivou.zdrave.po.cely.rok.2011.CZECH.RETAiL.eBook-MoCB
2019-04-12 15:46:43 Klara.Buzkova.-.Fitness.joga.harmonicke.cviceni.tela.i.duse.2006.CZECH.RETAiL.eBook-MoCB
2019-04-12 15:46:45 Kolektiv.autoru.z.CAP.-.Cesko-anglicky.slovnik.pojistovnictvi.2007.CZECH.RETAiL.eBook-MoCB
2019-04-12 15:46:47 Ladislav.Chladek.-.Pivovarnictvi.2011.CZECH.RETAiL.eBook-MoCB
2019-04-12 15:46:50 Marie.Skopova.Jana.Berankova.-.Aerobik.kompletni.pruvodce.2011.CZECH.RETAiL.eBook-MoCB
2019-04-12 15:46:52 Miroslav.Ferencik.Jozef.Rovensky.Yehuda.Shoenfeld.Vladimir.Matha.-.Imunitni.system.Informace.pro.kazdeho.2011.CZECH.RETAiL.eBook-MoCB
2019-04-12 15:46:54 Ondrej.Cada.-.Objektove.programovani.naucte.se.pravidla.objektoveho.mysleni.2011.CZECH.RETAiL.eBook-MoCB
2019-04-12 15:46:57 Pavel.Cerny.Michal.Goetz.-.Manual.obranne.strelby.2011.CZECH.RETAiL.eBook-MoCB
2019-04-12 15:47:00 Petr.Krcmar.-.Linux.postavte.si.pocitacovou.sit.2008.CZECH.RETAiL.eBook-MoCB
2019-04-12 15:47:02 Radim.Jebavy.Tomas.Zumr.-.Posilovani.s.balancnimi.pomuckami.2011.CZECH.RETAiL.eBook-MoCB
2019-04-12 15:47:10 ManRoyale.19.01.25.Hunter.Smith.and.Mateo.Fernandez.Slutty.Bottom.XXX.1080p.x264-MANLOVE
2019-04-12 15:47:53 YouTubers_Life_OMG_NSW-LiGHTFORCE
2019-04-12 15:48:27 Catatonia-International_Velvet-CD-FLAC-1998-1KING
2019-04-12 15:48:32 Cold_War_Kids-Robbers_And_Cowards-CD-FLAC-2007-1KING
2019-04-12 15:48:39 Gomez-Liquid_Skin-CD-FLAC-1999-1KING
2019-04-12 15:48:45 Ocean_Colour_Scene-Moseley_Shoals-CD-FLAC-1996-1KING
2019-04-12 15:48:55 ManRoyale.19.02.14.Tristan.Hunter.and.Shane.Jackson.Be.My.Valentine.XXX.1080p.x264-MANLOVE
2019-04-12 15:49:18 Performance.Samples.Oceania.KONTAKT-MASCHiNE
2019-04-12 15:50:34 ManRoyale.19.03.01.Luke.C.Taylor.and.Tristan.Hunter.Vibrating.Orgasms.XXX.1080p.x264-MANLOVE
2019-04-12 15:50:55 Funcky_Beat-Fused-(BER043)-WEB-2019-KLIN
2019-04-12 15:52:15 ManRoyale.19.03.08.Arad.Winwin.and.Tristan.Hunter.Persian.Bodybuilder.Hardcore.Fuck.XXX.1080p.x264-MANLOVE
2019-04-12 15:52:31 7-Data.Photo.Recovery.Enterprise.v1.9-LAXiTY
2019-04-12 15:52:34 7-Data.Recovery.Suite.Enterprise.v4.4-LAXiTY
2019-04-12 15:52:40 Aha-Soft.Any.to.Icon.v3.59-LAXiTY
2019-04-12 15:52:44 Aha-Soft.Icon.to.Any.v3.29-LAXiTY
2019-04-12 15:52:48 Aha-Soft.IconLover.v5.48-LAXiTY
2019-04-12 15:52:52 Amazing.Free.External.Hard.Drive.Folder.Lock.v7.8.8.8-LAXiTY
2019-04-12 15:52:55 Chaos.Intellect.v10.1.0.7.incl.Keygen-LAXiTY
2019-04-12 15:52:59 Chris-PC.RAM.Booster.v4.90-LAXiTY
2019-04-12 15:53:03 Dr.Hardware.2019.v19.3.0.German-LAXiTY
2019-04-12 15:53:06 FairStars.Recorder.v4.00-LAXiTY
2019-04-12 15:53:10 GiliSoft.Full.Disk.Encryption.v4.2.Multilanguage-LAXiTY
2019-04-12 15:53:14 Gillmeister.Folder2List.v3.18.0.Bilanguage-LAXiTY
2019-04-12 15:53:18 Hastasoft.PixPower.Photo.and.Draw.v9.02.German.incl.Keygen-LAXiTY
2019-04-12 15:53:21 HippoEDIT.x64.v1.61.53-LAXiTY
2019-04-12 15:53:25 ILike.iPhone.Data.Recovery.Pro.v7.1.8.8-LAXiTY
2019-04-12 15:53:29 Infonautics.File.Date.Corrector.v1.49-LAXiTY
2019-04-12 15:53:32 Mp3Toolkit.v1.6.1-LAXiTY
2019-04-12 15:53:36 NCH.Classic.FTP.Plus.v4.0.incl.Keygen-LAXiTY
2019-04-12 15:53:40 NCH.DreamPlan.Plus.v4.03.incl.Keygen-LAXiTY
2019-04-12 15:53:44 NCH.Express.Rip.Plus.v3.00.Beta.incl.Keygen-LAXiTY
2019-04-12 15:53:47 OpenCloner.DVD-Cloner.2019.x64.v16.20.1445.Multilanguage-LAXiTY
2019-04-12 15:53:51 ProWeser.AP.Modellbahn.v3.100.3.German-LAXiTY
2019-04-12 15:53:56 RoGaSoft.RGS.Verbrauch.v2.3.2.German-LAXiTY
2019-04-12 15:53:58 ManRoyale.19.03.15.Cazden.Hunter.and.Bar.Addison.Happy.St.Patricks.Day.XXX.1080p.x264-MANLOVE
2019-04-12 15:53:58 RoGaSoft.RGS.Verbrauch.x64.v2.3.2.German-LAXiTY
2019-04-12 15:54:02 RoGaSoft.SQLite.Change.Pro.v1.3.1.German-LAXiTY
2019-04-12 15:54:07 RoGaSoft.SQLite.Change.Pro.x64.v1.3.1.German-LAXiTY
2019-04-12 15:54:09 SL-Urlaubsplaner.v3.0.5.Austria-LAXiTY
2019-04-12 15:54:13 SL-Urlaubsplaner.v3.0.5.Swiss-LAXiTY
2019-04-12 15:54:17 Snooper.v1.48.8-LAXiTY
2019-04-12 15:54:20 Speedy.Soft.Digistudio.v10.1.3.201.Bilanguage-LAXiTY
2019-04-12 15:54:24 UB-Soft.Hotel.v5.00.20.German.Modulregistrierung.Keygen.only-LAXiTY
2019-04-12 15:54:28 WinASO.Registry.Optimizer.v5.7.0.0-LAXiTY
2019-04-12 15:54:31 WinNc.v8.5.0.0.Multilanguage-LAXiTY
2019-04-12 15:54:35 YL.Computing.Dr.Folder.v2.6.7.9.incl.Keygen-LAXiTY
2019-04-12 15:54:39 YL.Computing.ScanMyReg.v3.25-LAXiTY
2019-04-12 15:55:38 ManRoyale.19.03.22.Cazden.Hunter.and.Mike.Monroe.Sup.U.Wanna.BJ.XXX.1080p.x264-MANLOVE
2019-04-12 15:55:39 Klassen.S05E235.Spark.Mig.DANISH.720p.WEB.h264-LSDK
2019-04-12 15:57:20 ManRoyale.19.03.29.Bar.Addison.and.Mike.Monroe.Bed.Buddies.XXX.1080p.x264-MANLOVE
2019-04-12 15:57:41 Klassen.S05E236.Forelsket.Eller.Fodbold.DANISH.720p.WEB.h264-LSDK
2019-04-12 15:59:02 ManRoyale.19.04.05.Wesley.Woods.and.Michael.Boston.Off.To.Boot.Camp.XXX.1080p.x264-MANLOVE
2019-04-12 15:59:43 Klassen.S05E237.Hvordan.Kysser.Man.DANISH.720p.WEB.h264-LSDK
2019-04-12 16:00:43 MenPOV.19.01.04.James.Fenlon.and.Mateo.Fernandez.Racking.Up.XXX.1080p.x264-MANLOVE
2019-04-12 16:01:45 Klassen.S05E238.Magnus.Mobber.DANISH.720p.WEB.h264-LSDK
2019-04-12 16:02:04 Point_Whitmark-F41_Rueckkehr_Aus_Dem_Totenland-Audiobook-DE-2019-VOiCE
2019-04-12 16:02:24 MenPOV.19.01.04.James.Fenlon.and.Mateo.Fernandez.Racking.Up.XXX.2160p.x264-MANLOVE
2019-04-12 16:03:18 Fraktal-F07_Hinter_Dem_Zaun-Audiobook-DE-2019-VOiCE
2019-04-12 16:03:48 Klassen.S05E239.Fortnite.Fail.DANISH.720p.WEB.h264-LSDK
2019-04-12 16:03:57 Efterlyst.S53E12.SWEDiSH.720p.WEB.H264-EXECUTION
2019-04-12 16:04:07 MenPOV.19.02.01.Tristan.Hunter.and.Marcus.Tresor.Snowballers.XXX.1080p.x264-MANLOVE
2019-04-12 16:04:20 Efterlyst.S53E12.SWEDiSH.1080p.WEB.H264-EXECUTION
2019-04-12 16:04:37 Bibi_Blocksberg-F128_Ausgehext-Audiobook-DE-2019-VOiCE
2019-04-12 16:05:40 GHST-Gridlock_Fragments-(GOLD012B)-WEB-2019-DJ
2019-04-12 16:05:48 ShowerBait.19.01.18.Jason.Wolf.and.Nicholas.Ryder.Peeping.Shower.Buddy.XXX.1080p.x264-MANLOVE
2019-04-12 16:05:51 Klassen.S05E240.Pigernes.Omklaedningsrum.DANISH.720p.WEB.h264-LSDK
2019-04-12 16:06:18 Revmawan-Beast_Mode-(RNGDPEP001)-WEB-2019-DJ
2019-04-12 16:07:05 Solanca-Morning_Light-(SEN001)-WEB-2019-DJ
2019-04-12 16:07:30 ShowerBait.19.02.08.Marcus.Tresor.and.Shane.Jackson.Baiting.Housekeeping.XXX.1080p.x264-MANLOVE
2019-04-12 16:09:11 ShowerBait.19.02.22.Arad.Winwin.and.Luke.C.Taylor.Twinks.Muscle.God.Dream.Come.True.XXX.1080p.x264-MANLOVE
2019-04-12 16:09:19 Klassen.S05E241.Den.Perfekte.Profil.Del1.DANISH.720p.WEB.h264-LSDK
2019-04-12 16:11:22 Klassen.S05E242.Den.Perfekte.Profil.Del2.DANISH.720p.WEB.h264-LSDK
2019-04-12 16:11:27 Formula1.2019.Bahrain.Grand.Prix.Paddock.Pass.Post.Race.1080p.WEB.h264-GRiP
2019-04-12 16:11:59 Hunting.JonBenets.Killer.The.Untold.Story.2019.720p.WEB.h264-TBS
2019-04-12 16:12:10 Nachtwacht.S02E11.FLEMISH.WEB.H264-MERCATOR
2019-04-12 16:12:14 Hunting.JonBenets.Killer.The.Untold.Story.2019.WEB.h264-TBS
2019-04-12 16:12:29 Formula1.2019.Bahrain.Grand.Prix.Paddock.Pass.Post.Race.WEB.h264-GRiP
2019-04-12 16:12:43 Nachtwacht.S02E12.FLEMISH.WEB.H264-MERCATOR
2019-04-12 16:13:24 Klassen.S05E243.En.Kikset.Dobbeltdate.DANISH.720p.WEB.h264-LSDK
2019-04-12 16:13:29 Formula1.2019.Bahrain.Grand.Prix.Paddock.Pass.Pre.Race.1080p.WEB.h264-GRiP
2019-04-12 16:13:55 Nachtwacht.S02E13.FLEMISH.WEB.H264-MERCATOR
2019-04-12 16:14:31 Formula1.2019.Bahrain.Grand.Prix.Paddock.Pass.Pre.Race.720p.WEB.h264-GRiP
2019-04-12 16:14:36 formula1.2019.bahrain.grand.prix.paddock.pass.pre.race.720p.web.h264-grip.sfv
2019-04-12 16:15:32 Formula1.2019.Bahrain.Grand.Prix.Paddock.Pass.Pre.Race.WEB.h264-GRiP
2019-04-12 16:16:33 Formula1.2019.Bahrain.Grand.Prix.Post.Qualifying.Press.Conference.1080p.WEB.h264-GRiP
2019-04-12 16:17:34 Formula1.2019.Bahrain.Grand.Prix.Post.Qualifying.Press.Conference.720p.WEB.h264-GRiP
2019-04-12 16:18:36 Formula1.2019.Bahrain.Grand.Prix.Post.Qualifying.Press.Conference.WEB.h264-GRiP
2019-04-12 16:19:37 Formula1.2019.Bahrain.Grand.Prix.Post.Race.Press.Conference.1080p.WEB.h264-GRiP
2019-04-12 16:20:38 Formula1.2019.Bahrain.Grand.Prix.Post.Race.Press.Conference.720p.WEB.h264-GRiP
2019-04-12 16:21:39 Formula1.2019.Bahrain.Grand.Prix.Post.Race.Press.Conference.WEB.h264-GRiP
2019-04-12 16:21:57 Halvdan.Viking.2018.SWEDiSH.PAL.DVDR-OLDSWE
2019-04-12 16:22:23 Formel1.2019.Kinas.Grand.Prix.Traning.2.SWEDiSH.720p.HDTV.x264-sweHD
2019-04-12 16:22:39 Blindspot.S04E10.SPANiSH.1080p.HDTV.x264-4FiRE
2019-04-12 16:22:40 Formula1.2019.Bahrain.Grand.Prix.Team.Principals.Press.Conference.1080p.WEB.h264-GRiP
2019-04-12 16:22:59 Blindspot.S04E10.SPANiSH.720p.HDTV.x264-4FiRE
2019-04-12 16:23:03 Andis-Slovo_Ritmu_4-(703116_0629247)-WEB-2019-EBM
2019-04-12 16:23:18 Jimmy.Fallon.2019.04.11.Emma.Stone.HDTV.x264-SORNY
2019-04-12 16:23:20 Blindspot.S04E10.SPANiSH.HDTV.x264-4FiRE
2019-04-12 16:23:30 Christian_Nati-Touch_EP-(LR23)-WEB-2019-EBM
2019-04-12 16:23:44 Formula1.2019.Bahrain.Grand.Prix.Team.Principals.Press.Conference.720p.WEB.h264-GRiP
2019-04-12 16:23:54 Prime_Mover-Grained-(ATT002)-WEB-2019-EBM
2019-04-12 16:24:43 Formula1.2019.Bahrain.Grand.Prix.Team.Principals.Press.Conference.WEB.h264-GRiP
2019-04-12 16:25:27 Creaturen_Der_Nacht-Aus_Heiterem_Himmel-DE-CDEP-FLAC-2005-FiXIE
2019-04-12 16:25:46 Formula1.2019.Bahrain.Grand.Prix.Tech.Talk.1080p.WEB.h264-GRiP
2019-04-12 16:26:45 Formula1.2019.Bahrain.Grand.Prix.Tech.Talk.720p.WEB.h264-GRiP
2019-04-12 16:27:02 Jimmy.Fallon.2019.04.11.Emma.Stone.720p.HDTV.x264-SORNY
2019-04-12 16:27:05 Creed.ll.2018.MULTiSUBS.PAL.DVDR-OLDSWE
2019-04-12 16:27:07 Massiv-Der_Ghettotraum_In_Handarbeit-DE-CD-FLAC-2009-FiXIE
2019-04-12 16:27:46 Formula1.2019.Bahrain.Grand.Prix.Tech.Talk.WEB.h264-GRiP
2019-04-12 16:28:45 VA-Hardbase.FM_Vol._11-3CD-2019-VOiCE
2019-04-12 16:28:47 Formula1.2019.Bahrain.Grand.Prix.Weekend.Debrief.1080p.WEB.h264-GRiP
2019-04-12 16:29:48 Formula1.2019.Bahrain.Grand.Prix.Weekend.Debrief.720p.WEB.h264-GRiP
2019-04-12 16:29:50 Formula.1.2019.Chinese.Grand.Prix.1st.Practice.DANiSH.720p.HDTV.x264-RCDiVX
2019-04-12 16:30:49 Formula1.2019.Bahrain.Grand.Prix.Weekend.Debrief.WEB.h264-GRiP
2019-04-12 16:31:18 The.Nutcracker.And.The.Four.Realms.2018.MULTiSUBS.PAL.DVDR-OLDSWE
2019-04-12 16:31:51 Formula1.2019.Chinese.Grand.Prix.Team.Principals.Press.Conference.1080p.WEB.h264-GRiP
2019-04-12 16:32:52 Formula1.2019.Chinese.Grand.Prix.Team.Principals.Press.Conference.720p.WEB.h264-GRiP
2019-04-12 16:33:11 Tacoma.FD.S01E03.A.New.Hope.720p.HDTV.x264-CRiMSON
2019-04-12 16:33:31 Tacoma.FD.S01E03.A.New.Hope.HDTV.x264-CRiMSON
2019-04-12 16:33:50 The.First.48.S18E13.The.Brotherhood.and.Lit.Up.HDTV.x264-CRiMSON
2019-04-12 16:33:54 Formula1.2019.Chinese.Grand.Prix.Team.Principals.Press.Conference.WEB.h264-GRiP
2019-04-12 16:37:34 Midnight.Texas.S02E02.German.HDTV.1080p.x264-ARC
2019-04-12 16:44:01 Jimmy.Fallon.2019.04.11.Emma.Stone.1080p.WEB.x264-TBS
2019-04-12 16:45:02 Seth.Meyers.2019.04.11.Adam.Driver.WEB.x264-TBS
2019-04-12 16:45:21 Seth.Meyers.2019.04.11.Adam.Driver.720p.WEB.x264-TBS
2019-04-12 16:45:30 Carson.Daly.2019.04.11.John.Bradley.WEB.x264-TBS
2019-04-12 16:46:21 Carson.Daly.2019.04.11.John.Bradley.720p.WEB.x264-TBS
2019-04-12 16:46:25 Carson.Daly.2019.04.11.John.Bradley.1080p.WEB.x264-TBS
2019-04-12 16:46:32 Nachtwacht.S03E11.FLEMISH.WEB.H264-MERCATOR
2019-04-12 16:47:10 Seth.Meyers.2019.04.11.Adam.Driver.1080p.WEB.x264-TBS
2019-04-12 16:47:47 Nachtwacht.S03E12.FLEMISH.WEB.H264-MERCATOR
2019-04-12 16:49:50 Nachtwacht.S03E13.FLEMISH.WEB.H264-MERCATOR
2019-04-12 16:52:19 The.First.48.S18E13.The.Brotherhood.and.Lit.Up.720p.HDTV.x264-CRiMSON
2019-04-12 16:53:12 Memento.Mori.2018.GERMAN.1080p.BluRay.x264-UNiVERSUM
2019-04-12 16:54:27 American.Takedown.S01E01.Drug.Trafficking.INTERNAL.WEB.x264-UNDERBELLY
2019-04-12 16:55:29 American.Takedown.S01E01.Drug.Trafficking.INTERNAL.720p.WEB.x264-UNDERBELLY
2019-04-12 16:56:01 Memento.Mori.2018.GERMAN.DL.1080p.BluRay.AVC-iTSMEMARiO
2019-04-12 16:56:32 American.Takedown.S01E02.Dog.Fighting.WEB.x264-UNDERBELLY
2019-04-12 16:56:39 Our.Planet.2019.S01E01.POLISH.1080p.WEB.x264-OBLAKANY
2019-04-12 16:57:34 American.Takedown.S01E02.Dog.Fighting.720p.WEB.x264-UNDERBELLY
2019-04-12 16:57:48 Our.Planet.2019.S01E02.POLISH.1080p.WEB.x264-OBLAKANY
2019-04-12 16:58:11 Reach.for.the.Sky.2015.NLSUBBED.WEB.H264-MERCATOR
2019-04-12 16:58:37 American.Takedown.S01E04.Human.Trafficking.WEB.x264-UNDERBELLY
2019-04-12 16:58:54 Battalion.2018.DVDR-LiBRA
2019-04-12 16:58:55 Our.Planet.2019.S01E03.POLISH.1080p.WEB.x264-OBLAKANY
2019-04-12 16:59:39 American.Takedown.S01E04.Human.Trafficking.720p.WEB.x264-UNDERBELLY
2019-04-12 16:59:44 SisLovesMe.19.04.12.Vanna.Bardot.And.Lacy.Lennon.My.Stepsis.The.Wingman.XXX.1080p.MP4-KTR
2019-04-12 17:00:02 Our.Planet.2019.S01E04.POLISH.1080p.WEB.x264-OBLAKANY
2019-04-12 17:00:41 American.Takedown.S01E05.Sexual.Assault.WEB.x264-UNDERBELLY
2019-04-12 17:01:10 Our.Planet.2019.S01E05.POLISH.1080p.WEB.x264-OBLAKANY
2019-04-12 17:01:44 American.Takedown.S01E05.Sexual.Assault.720p.WEB.x264-UNDERBELLY
2019-04-12 17:02:21 Our.Planet.2019.S01E06.POLISH.1080p.WEB.x264-OBLAKANY
2019-04-12 17:02:46 American.Takedown.S01E06.Border.Crimes.WEB.x264-UNDERBELLY
2019-04-12 17:03:29 Our.Planet.2019.S01E07.POLISH.1080p.WEB.x264-OBLAKANY
2019-04-12 17:03:49 American.Takedown.S01E06.Border.Crimes.720p.WEB.x264-UNDERBELLY
2019-04-12 17:03:58 Battalion.2018.PROPER.DVDRip.x264-ARiES
2019-04-12 17:04:36 Our.Planet.2019.S01E08.POLISH.1080p.WEB.x264-OBLAKANY
2019-04-12 17:04:51 American.Takedown.S01E07.Identity.Theft.WEB.x264-UNDERBELLY
2019-04-12 17:05:32 Double.Shot.at.Love.S01E01.1080p.WEB.x264-TBS
2019-04-12 17:05:44 Roman.Empire.The.Mad.Emperor.S03E01.POLISH.720p.WEB.x264-OBLAKANY
2019-04-12 17:05:54 American.Takedown.S01E07.Identity.Theft.720p.WEB.x264-UNDERBELLY
2019-04-12 17:06:07 Double.Shot.at.Love.S01E01.720p.WEB.x264-TBS
2019-04-12 17:06:22 Double.Shot.at.Love.S01E01.WEB.x264-TBS
2019-04-12 17:06:51 Roman.Empire.The.Mad.Emperor.S03E02.POLISH.720p.WEB.x264-OBLAKANY
2019-04-12 17:07:18 SpoofPorn.19.04.12.Klara.Gold.REMASTERED.XXX.1080p.MP4-KTR
2019-04-12 17:07:58 Roman.Empire.The.Mad.Emperor.S03E03.POLISH.720p.WEB.x264-OBLAKANY
2019-04-12 17:08:48 POVD.19.04.12.Kenna.James.Fooseball.Tease.XXX.1080p.MP4-KTR
2019-04-12 17:09:04 Roman.Empire.The.Mad.Emperor.S03E04.POLISH.720p.WEB.x264-OBLAKANY
2019-04-12 17:11:08 Britain.Beneath.Your.Feet.S01E02.1080p.HDTV.H264-UNDERBELLY
2019-04-12 17:11:10 PrivateSociety.19.04.12.She.Wants.To.Be.A.Model.XXX.720p.MP4-KTR
2019-04-12 17:13:31 Double.Date.2017.BDRip.x264-GETiT
2019-04-12 17:14:00 Formula.1.2019.Chinese.Grand.Prix.2nd.Practice.DANiSH.720p.HDTV.x264-RCDiVX
2019-04-12 17:14:09 POVD.19.04.12.Kenna.James.Fooseball.Tease.XXX.2160p.MP4-KTR
2019-04-12 17:14:35 Double.Date.2017.720p.BluRay.x264-GETiT
2019-04-12 17:16:44 Pitura_Freska_-_Crudele_(Remix)-WEB-IT-1996-iDC
2019-04-12 17:17:12 A_Klee-Summer_Of_Love_2018_Remixes-(SDR062)-WEB-2019-KLIN
2019-04-12 17:17:30 DaneJones.19.04.12.Lovita.Fate.XXX.1080p.MP4-KTR
2019-04-12 17:18:08 Alien.News.Desk.S01E08.720p.WEB.x264-TBS
2019-04-12 17:20:27 The.Legend.Of.Cocaine.Island.2018.iNTERNAL.POLISH.1080p.WEB.x264-OBLAKANY
2019-04-12 17:20:35 Station.19.S02E13.720p.WEB.h264-TBS
2019-04-12 17:21:58 Numerobe-Velvet-(4061798238736)-WEB-2019-KLIN
2019-04-12 17:23:18 Bedrich.Ryc.Veronika.Petru.-.Sebeobrana.na.ulici.2012.CZECH.RETAiL.eBook-MoCB
2019-04-12 17:23:21 Helena.Kubrychtova.Bartova.Robert.Stuchlik.-.Joga.jak.si.vybrat.tu.pravou.2011.CZECH.RETAiL.eBook-MoCB
2019-04-12 17:23:29 Marie.Nemcova.-.Rodinna.fotografie.s.digitalnim.fotoaparatem.2011.CZECH.RETAiL.eBook-MoCB
2019-04-12 17:23:31 Marta.Muchova.Karla.Tomankova.-.Cviceni.na.balancni.plosine.2011.CZECH.RETAiL.eBook-MoCB
2019-04-12 17:23:34 Vaclav.Krejcik.Jana.Altnerova.-.Cviceni.pro.radost.4.tydny.v.pohybu.2011.CZECH.RETAiL.eBook-MoCB
2019-04-12 17:24:02 Little.Women.LA.S08E02.WEB.h264-TBS
2019-04-12 17:24:10 Little.Women.LA.S08E02.720p.WEB.h264-TBS
2019-04-12 17:24:23 Irena.Mlynkova.Martin.Necasky.Jaroslav.Pokorny.Karel.Richta.Kamil.Toman.Vojtech.Toman.-.XML.technologie.Principy.a.aplikace.v.praxi.2011.CZECH.RETAiL.eBook-MoCB
2019-04-12 17:25:19 Uun-Hell_Is_Empty_EP-(MORD060)-WEB-2019-AGITB
2019-04-12 17:26:49 BrothaLovers.19.04.11.Jenna.Marie.Interracial.Pregnancy.XXX.1080p.MP4-KTR
2019-04-12 17:27:10 For.The.People.2018.S02E06.iNTERNAL.720p.WEB.h264-BAMBOOZLE
2019-04-12 17:28:44 BrothaLovers.19.04.11.Jenna.Marie.Interracial.Pregnancy.XXX.2160p.MP4-KTR
2019-04-12 17:29:59 Nora.2000.LIMITED.INTERNAL.WEB.x264-ASSOCiATE
2019-04-12 17:30:33 RoundAndBrown.19.04.12.September.Reign.Dreaming.Of.September.XXX.1080p.MP4-KTR
2019-04-12 17:31:02 Take.Care.2014.FESTIVAL.WEB.x264-ASSOCiATE
2019-04-12 17:31:06 Mari_Iva-My_Baby_Halloween-(BASE117)-WEB-2019-KLIN
2019-04-12 17:32:15 TeensLoveHugeCocks.19.04.12.Mazzy.Grace.Prissy.Pussy.XXX.1080p.MP4-KTR
2019-04-12 17:34:03 4.Play.2014.720p.WEB.x264-ASSOCiATE
2019-04-12 17:35:05 An.American.Werewolf.In.Paris.1997.INTERNAL.WEBRip.x264-ASSOCiATE
2019-04-12 17:35:16 Akosmo-Bubbles_Drifting_In_The_Morning_Breeze-(SRS09007)-SINGLE-WEB-2019-KLIN
2019-04-12 17:35:37 Star.Trek.Discovery.S02E13.FRENCH.WEBRip.x264-AMB3R
2019-04-12 17:36:08 An.American.Werewolf.In.Paris.1997.720p.WEBRip.x264-ASSOCiATE
2019-04-12 17:37:11 In.the.Hive.2012.LIMITED.WEB.x264-ASSOCiATE
2019-04-12 17:37:13 Formula.1.2019.Chinese.Grand.Prix.1st.Practice.DANiSH.HDTV.x264-RCDiVX
2019-04-12 17:38:13 In.the.Hive.2012.LIMITED.720p.WEB.x264-ASSOCiATE
2019-04-12 17:39:14 Raas-Floating_Forward-(AMEP14)-WEB-2019-KLIN
2019-04-12 17:39:17 Created.Equal.2017.FESTIVAL.WEB.x264-ASSOCiATE
2019-04-12 17:40:19 Created.Equal.2017.FESTIVAL.720p.WEB.x264-ASSOCiATE
2019-04-12 17:41:03 Formula.1.2019.Chinese.Grand.Prix.2nd.Practice.DANiSH.HDTV.x264-RCDiVX
2019-04-12 17:41:57 Martyroux-Love_Style-(IND5CA254E6733)-SINGLE-WEB-2019-KLIN
2019-04-12 17:43:12 PLURALSIGHT.INNOVATION.IN.THE.WORKPLACE-JGTiSO
2019-04-12 17:43:53 Skyllne-Reach_For_The_Sky-(IND5CA29C7B724)-SINGLE-WEB-2019-KLIN
2019-04-12 17:44:42 Beverly.Hills.Ninja.1997.1080p.HDTV.x264-ASSOCiATE
2019-04-12 17:45:17 DJ_Esqueletor-Guitar_Dream-(IND5C61BDD3E33)-SINGLE-WEB-2019-KLIN
2019-04-12 17:47:30 Mike_Rowland-Solace-Reissue-1990-NOiR
2019-04-12 17:47:33 S7Illmaker-Night_City-(IND5CA229EF737)-SINGLE-WEB-2019-KLIN
2019-04-12 17:47:55 FakeHostel.19.04.12.Andreina.Deluxe.And.Cherry.Kiss.XXX.1080p.MP4-KTR
2019-04-12 17:48:14 Double.Date.2017.GERMAN.DL.1080p.BluRay.AVC-iTSMEMARiO
2019-04-12 17:48:43 MTD-Missing_Hours_EP-(MOCD008)-WEB-2019-B2R
2019-04-12 17:48:54 ASTRONEER.Update.v1.0.15-CODEX
2019-04-12 17:49:38 Weedcraft.Inc.Update.v1.02-CODEX
2019-04-12 17:50:18 Byterz-Gabber_Mafia_Bogota-(IND5CA1B4C3764)-SINGLE-WEB-2019-KLIN
2019-04-12 17:51:19 PLURALSIGHT.CRITICAL.AND.ANALYTICAL.THINKING.SKILLS.IN.DATA.LITERACY.EXECUTIVE.BRIEFING-JGTiSO
2019-04-12 17:51:25 Day_and_Taxi-All-1992-NOiR
2019-04-12 17:51:47 Yoghi_Julian-Laut_Bercerita-(IND5CA10E7C725)-SINGLE-WEB-2019-KLIN
2019-04-12 17:53:05 Kerouac-Erfindungen-2006-NOiR
2019-04-12 17:54:40 SLAM_MIXMARATHON-Kris_Kross_Amsterdam-CABLE-12-04-2019-1KING
2019-04-12 17:55:14 Human_Pattern-Excavation-(4061798217236)-WEB-2019-KLIN
2019-04-12 17:56:18 Sok-Zhivi_Zhivoe-RU-2006-NOiR
2019-04-12 17:58:08 Jiri.Prokop.-.Algoritmy.v.jazyku.C.a.C.plus.plus.prakticky.pruvodce.2011.CZECH.RETAiL.eBook-MoCB
2019-04-12 17:58:10 Miroslav.Prochazka.-.Leciva.moc.kamenu.Harmonie.a.zdravi.v.krystalu.zaklete.2011.CZECH.RETAiL.eBook-MoCB
2019-04-12 17:58:13 Petr.Novotny.-.CorelDRAW.X4.prakticka.prirucka.2011.CZECH.RETAiL.eBook-MoCB
2019-04-12 17:58:15 Tomas.Novak.-.Posilnete.si.svoji.vuli.Co.chci.to.dokazu.2011.CZECH.RETAiL.eBook-MoCB
2019-04-12 17:58:17 Tomas.Novak.Blanka.Dvorackova.-.Verte.sami.sobe.2011.CZECH.RETAiL.eBook-MoCB
2019-04-12 17:58:19 Urumchi-Nar(r)-UG-2012-NOiR
2019-04-12 17:58:34 Harvey_Touch-Archipielago-(4061798970377)-WEB-2019-KLIN
2019-04-12 17:59:32 Ovel_Love-Unease-(UNEASE)-SINGLE-WEB-2019-KLIN
2019-04-12 17:59:38 Mac.OSX.Mojave.10.14.3.iNTERNAL-APPLEiSO
2019-04-12 18:00:41 Helpless_Zombies-RAZOR
2019-04-12 18:00:53 Rainforest_Solitaire_2-RAZOR
2019-04-12 18:01:06 Br-Bengala-(4061798243662)-SINGLE-WEB-2019-KLIN
2019-04-12 18:01:56 Galaxy_Monster-RAZOR
2019-04-12 18:03:03 Hidden_Expedition_The_Golden_Secret-RAZOR
2019-04-12 18:03:12 Eat.Drink.and.Be.Buried.A.Gourmet.Detective.Mystery.2017.HDTV.x264-ASSOCiATE
2019-04-12 18:03:35 Huge.In.France.S01E01.iNTERNAL.MULTi.1080p.WEB.x264-CARAPiLS
2019-04-12 18:04:15 Eat.Drink.and.Be.Buried.A.Gourmet.Detective.Mystery.2017.720p.HDTV.x264-ASSOCiATE
2019-04-12 18:04:37 Huge.In.France.S01E02.iNTERNAL.MULTi.1080p.WEB.x264-CARAPiLS
2019-04-12 18:04:56 PACKT.HANDS.ON.RESTFUL.WEB.SERVICES.WITH.JAVA.11.PROPER-JGTiSO
2019-04-12 18:05:17 Eat.Drink.and.Be.Buried.A.Gourmet.Detective.Mystery.2017.1080p.HDTV.H264-ASSOCiATE
2019-04-12 18:05:39 Huge.In.France.S01E03.iNTERNAL.MULTi.1080p.WEB.x264-CARAPiLS
2019-04-12 18:06:00 Ancestral_Elephants-Enchanted_Visions-(MM114)-WEB-2019-KLIN
2019-04-12 18:06:20 Buried.Secrets.2014.HDTV.x264-ASSOCiATE
2019-04-12 18:06:41 Huge.In.France.S01E04.iNTERNAL.MULTi.1080p.WEB.x264-CARAPiLS
2019-04-12 18:07:09 Sergio_Mendoza_y_la_Orkesta-Sergio_Mendoza_y_la_Orkesta-Promo-SP-2012-NOiR
2019-04-12 18:07:23 Buried.Secrets.2014.720p.HDTV.x264-ASSOCiATE
2019-04-12 18:07:33 The.First.48.S18E14.WEB.h264-TBS
2019-04-12 18:07:44 Huge.In.France.S01E05.iNTERNAL.MULTi.1080p.WEB.x264-CARAPiLS
2019-04-12 18:07:48 The.First.48.S18E14.720p.WEB.h264-TBS
2019-04-12 18:07:56 Mahou-Out_My_Face_(Feat_Marvin_B)-(VRS187)-SINGLE-WEB-2019-KLIN
2019-04-12 18:08:25 Buried.Secrets.2014.1080p.HDTV.x264-ASSOCiATE
2019-04-12 18:08:46 Huge.In.France.S01E06.iNTERNAL.MULTi.1080p.WEB.x264-CARAPiLS
2019-04-12 18:09:04 Snack.World.S01E07.FRENCH.720p.HDTV.x264-D4KiD
2019-04-12 18:09:23 Swamp.People.S10E11.WEB.h264-TBS
2019-04-12 18:09:27 The.Student.2017.HDTV.x264-ASSOCiATE
2019-04-12 18:09:39 Swamp.People.S10E11.720p.WEB.h264-TBS
2019-04-12 18:09:49 Huge.In.France.S01E07.iNTERNAL.MULTi.1080p.WEB.x264-CARAPiLS
2019-04-12 18:09:51 Snack.World.S01E07.FRENCH.HDTV.x264-D4KiD
2019-04-12 18:10:10 The.American.Farm.S01E02.WEB.h264-TBS
2019-04-12 18:10:31 The.American.Farm.S01E02.720p.WEB.h264-TBS
2019-04-12 18:10:38 Snack.World.S01E08.FRENCH.720p.HDTV.x264-D4KiD
2019-04-12 18:10:47 The.Student.2017.720p.HDTV.x264-ASSOCiATE
2019-04-12 18:10:52 Huge.In.France.S01E08.FiNAL.iNTERNAL.MULTi.1080p.WEB.x264-CARAPiLS
2019-04-12 18:11:24 Snack.World.S01E08.FRENCH.HDTV.x264-D4KiD
2019-04-12 18:11:42 The.Student.2017.1080p.HDTV.H264-ASSOCiATE
2019-04-12 18:12:04 Silhouette_Tales-Traces-2013-NOiR
2019-04-12 18:12:29 Mesa-Kosmoramadisco_Kosmik_Series-(4061798239740)-WEB-2019-KLIN
2019-04-12 18:14:13 Marco_Santilli_Cheroba-Locchio_Della_Betulla-2017-NOiR
2019-04-12 18:17:59 Torben.Chris.Rydder.Op.I.Ligestilling.DANISH.720p.WEB.h264-FFD
2019-04-12 18:19:36 Close.Calls.On.Camera.S07E05.720p.WEB.h264-LiGATE
2019-04-12 18:20:33 Jimmy_Marguerite-A_Zero-SINGLE-WEB-FR-2019-OND
2019-04-12 18:21:42 Blaster-Grand_Theft_Album_Pt_1-(DOG051)-WEB-2019-KLIN
2019-04-12 18:21:57 Papad.Mammad.S04E03.EE.720p.WEBRip.x264-EMX
2019-04-12 18:22:12 Close.Calls.On.Camera.S07E05.WEB.h264-LiGATE
2019-04-12 18:23:38 Papad.Mammad.S04E04.EE.720p.WEBRip.x264-EMX
2019-04-12 18:24:22 Face.A.Face.Avec.Daesh.2018.DOC.FRENCH.720p.HDTV.x264-DEAL
2019-04-12 18:25:09 Papad.Mammad.S04E05.EE.720p.WEBRip.x264-EMX
2019-04-12 18:26:26 Manson.Les.Archives.Secretes.2018.DOC.FRENCH.720p.HDTV.x264-DEAL
2019-04-12 18:26:30 Papad.Mammad.S04E06.EE.720p.WEBRip.x264-EMX
2019-04-12 18:28:41 Station.19.S02E13.720p.HDTV.x264-aAF
2019-04-12 18:33:20 Narcotrafic.La.Nouvelle.Guerre.2019.DOC.FRENCH.720p.HDTV.x264-DEAL
2019-04-12 18:35:02 Sport.Reporter.Skate.Le.Dilemme.Olympique.2019.DOC.FRENCH.720p.HDTV.x264-DEAL
2019-04-12 18:35:31 The.Real.GhostBusters.S03E01.iNTERNAL.MULTi.WEB.x264-D4KiD
2019-04-12 18:36:17 The.Real.GhostBusters.S03E02.iNTERNAL.MULTi.WEB.x264-D4KiD
2019-04-12 18:36:53 Kalumet-Transfix-WEB-2017-XTC_iNT
2019-04-12 18:37:04 The.Real.GhostBusters.S03E03.iNTERNAL.MULTi.WEB.x264-D4KiD
2019-04-12 18:37:39 Narcose-Panda_Eyes-WEB-2017-XTC_iNT
2019-04-12 18:37:50 The.Real.GhostBusters.S03E04.iNTERNAL.MULTi.WEB.x264-D4KiD
2019-04-12 18:38:37 The.Real.GhostBusters.S03E05.iNTERNAL.MULTi.WEB.x264-D4KiD
2019-04-12 18:39:00 Mr_Miaou-Warp_Rift-WEB-2017-XTC_iNT
2019-04-12 18:39:24 The.Real.GhostBusters.S03E06.iNTERNAL.MULTi.WEB.x264-D4KiD
2019-04-12 18:40:06 Curious.Cases.Update.v20190412-PLAZA
2019-04-12 18:40:10 The.Real.GhostBusters.S03E07.iNTERNAL.MULTi.WEB.x264-D4KiD
2019-04-12 18:40:33 MarZ.Tactical.Base.Defense.Update.v20190412-CODEX
2019-04-12 18:40:56 The.Real.GhostBusters.S03E08.iNTERNAL.MULTi.WEB.x264-D4KiD
2019-04-12 18:41:11 Samplestick-MH31-WEB-2017-XTC_iNT
2019-04-12 18:41:11 Touch.Loops.Velvet.Pop.WAV-MASCHiNE
2019-04-12 18:41:43 The.Real.GhostBusters.S03E09.iNTERNAL.MULTi.WEB.x264-D4KiD
2019-04-12 18:41:49 Neon-Emergence-WEB-2017-XTC_iNT
2019-04-12 18:42:29 The.Real.GhostBusters.S03E10.iNTERNAL.MULTi.WEB.x264-D4KiD
2019-04-12 18:43:16 The.Real.GhostBusters.S03E11.iNTERNAL.MULTi.WEB.x264-D4KiD
2019-04-12 18:43:25 So_Kobayashi-Reflected_Colours-(RF070)-WEB-2019-KLIN
2019-04-12 18:43:27 Caleidisco-Candy_Island-WEB-2017-XTC_iNT
2019-04-12 18:43:35 Papad.Mammad.S04E07.EE.720p.WEBRip.x264-EMX
2019-04-12 18:44:03 The.Real.GhostBusters.S03E12.iNTERNAL.MULTi.WEB.x264-D4KiD
2019-04-12 18:44:49 The.Real.GhostBusters.S03E13.FiNAL.iNTERNAL.MULTi.WEB.x264-D4KiD
2019-04-12 18:45:11 Papad.Mammad.S04E08.EE.720p.WEBRip.x264-EMX
2019-04-12 18:45:37 The.Real.GhostBusters.S04E01.iNTERNAL.MULTi.WEB.x264-D4KiD
2019-04-12 18:46:10 Ultimate_Xperience-Lazarus_Rising-WEB-2016-XTC_iNT
2019-04-12 18:46:25 The.Real.GhostBusters.S04E02.iNTERNAL.MULTi.WEB.x264-D4KiD
2019-04-12 18:47:11 The.Real.GhostBusters.S04E03.iNTERNAL.MULTi.WEB.x264-D4KiD
2019-04-12 18:47:17 Spruce-Bazel-WEB-2016-XTC_iNT
2019-04-12 18:47:58 The.Real.GhostBusters.S04E04.iNTERNAL.MULTi.WEB.x264-D4KiD
2019-04-12 18:48:45 The.Real.GhostBusters.S04E05.iNTERNAL.MULTi.WEB.x264-D4KiD
2019-04-12 18:49:32 The.Real.GhostBusters.S04E06.iNTERNAL.MULTi.WEB.x264-D4KiD
2019-04-12 18:50:19 The.Real.GhostBusters.S04E07.iNTERNAL.MULTi.WEB.x264-D4KiD
2019-04-12 18:50:45 VA-Ruffbeatz_Escape_Reality_Vol._1-WEB-2016-XTC_iNT
2019-04-12 18:51:05 The.Real.GhostBusters.S04E08.FiNAL.iNTERNAL.MULTi.WEB.x264-D4KiD
2019-04-12 18:51:28 Mine-Klebstoff-DE-2019-NOiR
2019-04-12 18:51:46 VA-Sabellius_Pack_3-WEB-2017-XTC_iNT
2019-04-12 18:52:09 Tymek-Klubowe-WEB-PL-2019-A4O
2019-04-12 18:52:45 Monkey_Puzzle-The_Multi-Dimensional_Satchel-WEB-2017-XTC_iNT
2019-04-12 18:53:06 Double.Date.2017.BDRip.x264.REPACK-GETiT
2019-04-12 18:53:41 Karmarama-Celestial_Frequencies-WEB-2017-XTC_iNT
2019-04-12 18:54:13 Double.Date.2017.1080p.BluRay.x264-GETiT
2019-04-12 18:54:13 Paralitic_Twins-Birth_Of_Cosmos-WEB-2017-XTC_iNT
2019-04-12 18:54:32 Iva.Proskova.-.Malba.v.cinskem.stylu.2011.CZECH.RETAiL.eBook-MoCB
2019-04-12 18:54:34 Josef.Sedlacek.-.Anglicko-cesky.stomatologicky.slovnik.2011.CZECH.RETAiL.eBook-MoCB
2019-04-12 18:54:40 VA-Hardbase.FM_11-3CD-FLAC-2019-VOLDiES
2019-04-12 18:54:41 Libor.Kunte.Vaclav.Zeleny.-.Okrasne.rostliny.tropu.a.subtropu.2011.CZECH.RETAiL.eBook-MoCB
2019-04-12 18:54:43 Roman.Soukup.-.Skola.digitalni.fotografie.2005.CZECH.RETAiL.eBook-MoCB
2019-04-12 18:54:45 Tomas.Biba.-.Kamen.v.okrasne.zahrade.2011.CZECH.RETAiL.eBook-MoCB
2019-04-12 18:55:08 VA-Convergence-WEB-2017-XTC_iNT
2019-04-12 18:55:48 Drollkoppz-Rubber_Duck_The_Remixes-WEB-2017-XTC_iNT
2019-04-12 18:56:29 VA-Best_Of_World_People-WEB-2017-XTC_iNT
2019-04-12 18:56:39 Roccos.Abbondanza.7.XXX.DVDRip.x264-HORNDOGS
2019-04-12 18:57:40 VA-Frantic_Meditation-WEB-2017-XTC_iNT
2019-04-12 18:58:22 Xamanist-7-WEB-2016-XTC_iNT
2019-04-12 18:59:21 Wakhan-Mystical_Encounter_With_Yourself-WEB-2016-XTC_iNT
2019-04-12 19:03:17 VA-Sunshine_Live_67-(Uptrax037_2)-3CD-2019-BF
2019-04-12 19:09:00 Mastaba_Audio-Particles-(TRT012S)-SINGLE-WEB-2019-KLIN
2019-04-12 19:13:02 Celebrity.Home.Raiders.S01E01.Gene.Simmons.720p.WEB.x264-GIMINI
2019-04-12 19:13:20 Moto3.2019.The.Americas.Practice.One.WEB.x264-VERUM
2019-04-12 19:14:03 Celebrity.Home.Raiders.S01E01.Gene.Simmons.WEB.x264-GIMINI
2019-04-12 19:14:03 Vital_Techniques-Bloodclart-WEB-2011-KLIN
2019-04-12 19:14:06 Table_Top_Racing_World_Tour_Nitro_Edition_eShop_NSW-LiGHTFORCE
2019-04-12 19:14:29 Dookoom-Bloodclart-WEB-2018-KLIN
2019-04-12 19:14:30 Mortal.Engines.2018.MULTI.COMPLETE.BLURAY-BD4U
2019-04-12 19:14:50 Moto3.2019.The.Americas.Practice.One.720p.WEB.x264-VERUM
2019-04-12 19:15:04 Celebrity.Home.Raiders.S01E02.Ice.T.and.Coco.720p.WEB.x264-GIMINI
2019-04-12 19:15:19 Th_Losin_Streaks-This_Band_Will_Self-Destruct_In_T-Minus-VINYL-FLAC-2018-FATHEAD
2019-04-12 19:15:36 Another.Son.of.Sam.1977.1080p.BluRay.x264-REGRET
2019-04-12 19:16:06 Celebrity.Home.Raiders.S01E02.Ice.T.and.Coco.WEB.x264-GIMINI
2019-04-12 19:16:16 Th_Losin_Streaks-This_Band_Will_Self-Destruct_In_T-Minus-Vinyl-2018-FATHEAD
2019-04-12 19:16:39 Auto.Ikonen.Jaguar.E.Type.GERMAN.DOKU.720p.HDTV.x264-TMSF
2019-04-12 19:17:06 Moto3.2019.The.Americas.Practice.One.1080p.WEB.x264-VERUM
2019-04-12 19:17:11 Celebrity.Home.Raiders.S01E03.David.Hasselhoff.720p.WEB.x264-GIMINI
2019-04-12 19:18:03 MotoGP.2019.The.Americas.Practice.One.WEB.x264-VERUM
2019-04-12 19:18:08 Celebrity.Home.Raiders.S01E03.David.Hasselhoff.WEB.x264-GIMINI
2019-04-12 19:19:10 Celebrity.Home.Raiders.S01E04.Fran.Drescher.720p.WEB.x264-GIMINI
2019-04-12 19:19:57 MotoGP.2019.The.Americas.Practice.One.720p.WEB.x264-VERUM
2019-04-12 19:20:11 Celebrity.Home.Raiders.S01E04.Fran.Drescher.WEB.x264-GIMINI
2019-04-12 19:20:29 Staxel-Razor1911
2019-04-12 19:20:38 Auto.Ikonen.Jaguar.E.Type.GERMAN.DOKU.WS.HDTVRip.x264-TMSF
2019-04-12 19:21:12 Celebrity.Home.Raiders.S01E05.Rick.Harrison.720p.WEB.x264-GIMINI
2019-04-12 19:21:46 Mryvs-Split_Mind-(SOLO009)-WEB-2019-KLIN
2019-04-12 19:22:14 Celebrity.Home.Raiders.S01E05.Rick.Harrison.WEB.x264-GIMINI
2019-04-12 19:22:39 MotoGP.2019.The.Americas.Practice.One.1080p.WEB.x264-VERUM
2019-04-12 19:23:15 Celebrity.Home.Raiders.S01E06.David.Cassidy.720p.WEB.x264-GIMINI
2019-04-12 19:23:27 Dub_Zero-Fire-(DZM002)-SINGLE-WEB-2019-KLIN
2019-04-12 19:24:16 Celebrity.Home.Raiders.S01E06.David.Cassidy.WEB.x264-GIMINI
2019-04-12 19:25:17 Celebrity.Home.Raiders.S01E07.Debbie.Gibson.720p.WEB.x264-GIMINI
2019-04-12 19:25:29 Neuron-In_The_Sun_Again___Dream-(SLK077)-WEB-2019-KLIN
2019-04-12 19:25:37 Another.Son.of.Sam.1977.720p.BluRay.x264-REGRET
2019-04-12 19:26:18 Celebrity.Home.Raiders.S01E07.Debbie.Gibson.WEB.x264-GIMINI
2019-04-12 19:27:03 Grease.1978.40th.A.E.TrueHD.AC3.MULTISUBS.1080p.BluRay.x264.HQ-TUSAHD
2019-04-12 19:27:19 Celebrity.Home.Raiders.S01E08.Lance.Bass.720p.WEB.x264-GIMINI
2019-04-12 19:27:42 Aryozo-Evidor-(CAT271036)-SINGLE-WEB-2019-KLIN
2019-04-12 19:28:20 Celebrity.Home.Raiders.S01E08.Lance.Bass.WEB.x264-GIMINI
2019-04-12 19:30:44 Postkodmiljonaren.S27E16.SWEDiSH.720p.WEB.X264-EXECUTION
2019-04-12 19:31:01 Postkodmiljonaren.S27E16.SWEDiSH.1080p.WEB.X264-EXECUTION
2019-04-12 19:31:49 Sub_Zero_One-Like___Dislike_989-(KLNQ069)-WEB-2019-KLIN
2019-04-12 19:32:42 Annihilation.2018.MULTI.COMPLETE.BLURAY-BD4U
2019-04-12 19:35:06 Elad_Levin-Tango_Bravo_303_EP-(TCP013)-WEB-2019-KLIN
2019-04-12 19:35:20 Another.Son.of.Sam.1977.BDRip.x264-REGRET
2019-04-12 19:37:45 Karakuri.Circus.E24.SUBFRENCH.1080p.WEBRip.x264-AMB3R
2019-04-12 19:38:36 Emil_Teiger-Human_-_EP-WEB-2011-KLIN
2019-04-12 19:38:37 Wild.Chile.A.Wild.Ride.S01.EXTRAS.1080p.WEBRip.x264-TViLLAGE
2019-04-12 19:40:37 Wild.Chile.A.Wild.Ride.S01.EXTRAS.720p.WEBRip.x264-TViLLAGE
2019-04-12 19:40:39 Kemurikusa.E12.FiNAL.SUBFRENCH.1080p.WEBRip.x264-AMB3R
2019-04-12 19:40:51 Madmaster-To_The_Soul-(DMR138)-WEB-2019-KLIN
2019-04-12 19:42:38 Wild.Chile.A.Wild.Ride.S01E01.1080p.WEBRip.x264-TViLLAGE
2019-04-12 19:43:11 I.Survived.Beyond.and.Back.S01E01.INTERNAL.720p.WEB.x264-GIMINI
2019-04-12 19:44:39 Wild.Chile.A.Wild.Ride.S01E01.2160p.WEBRip.x264-TViLLAGE
2019-04-12 19:45:16 The.Zodiac.Killer.1971.BDRip.x264-REGRET
2019-04-12 19:46:40 Wild.Chile.A.Wild.Ride.S01E01.720p.WEBRip.x264-TViLLAGE
2019-04-12 19:47:19 Komsije.S02E02.SERBiAN.HDTV.x264-RADiOACTiVE
2019-04-12 19:47:20 Komsije.S02E02.SERBiAN.1080p.HDTV.H264-RADiOACTiVE
2019-04-12 19:47:20 Komsije.S02E02.SERBiAN.720p.HDTV.x264-RADiOACTiVE
2019-04-12 19:47:59 BlackedRaw.19.04.12.Kenzie.Reeves.XXX.1080p.MP4-KTR
2019-04-12 19:48:40 Wild.Chile.A.Wild.Ride.S01E02.1080p.WEBRip.x264-TViLLAGE
2019-04-12 19:50:42 Wild.Chile.A.Wild.Ride.S01E02.2160p.WEBRip.x264-TViLLAGE
2019-04-12 19:50:50 I.Survived.Beyond.and.Back.S01E01.INTERNAL.WEB.x264-GIMINI
2019-04-12 19:51:52 I.Survived.Beyond.and.Back.S01E02.720p.WEB.x264-GIMINI
2019-04-12 19:52:41 Wild.Chile.A.Wild.Ride.S01E02.720p.WEBRip.x264-TViLLAGE
2019-04-12 19:52:53 I.Survived.Beyond.and.Back.S01E02.WEB.x264-GIMINI
2019-04-12 19:53:54 I.Survived.Beyond.and.Back.S01E03.720p.WEB.x264-GIMINI
2019-04-12 19:54:32 Matt_Prehn-With_You-(OSCR129)-WEB-2019-KLIN
2019-04-12 19:54:55 I.Survived.Beyond.and.Back.S01E03.WEB.x264-GIMINI
2019-04-12 19:55:00 VA_-_Select_Mix_-_80s_Essentials_Vol.35-WEB-2019-MST
2019-04-12 19:55:08 VA_-_Select_Mix_-_Select_Essentials_Vol.158-WEB-2019-MST
2019-04-12 19:55:14 The.Zodiac.Killer.1971.1080p.BluRay.x264-REGRET
2019-04-12 19:55:15 VA_-_Ultimix_264-WEB-2019-MST
2019-04-12 19:55:36 Engineered.Software.PIPE-FLO.Professional.v16.1-AMPED
2019-04-12 19:56:00 I.Survived.Beyond.and.Back.S01E04.720p.WEB.x264-GIMINI
2019-04-12 19:56:58 I.Survived.Beyond.and.Back.S01E04.WEB.x264-GIMINI
2019-04-12 19:58:00 I.Survived.Beyond.and.Back.S01E05.720p.WEB.x264-GIMINI
2019-04-12 19:58:43 Doom.Patrol.S01E09.iNTERNAL.1080p.WEB.H264-AMRAP
2019-04-12 19:59:01 I.Survived.Beyond.and.Back.S01E05.WEB.x264-GIMINI
2019-04-12 19:59:43 Doom.Patrol.S01E09.720p.WEBRip.X264-METCON
2019-04-12 20:00:03 I.Survived.Beyond.and.Back.S01E06.720p.WEB.x264-GIMINI
2019-04-12 20:00:57 Nytt.Paa.Nytt.S40E14.NORWEGiAN.720p.WEB.X264-HENRETTELSE
2019-04-12 20:01:04 I.Survived.Beyond.and.Back.S01E06.WEB.x264-GIMINI
2019-04-12 20:02:06 Growing.Up.Gotti.S01E01.WEB.x264-GIMINI
2019-04-12 20:02:08 Frankie_Jools-Signals-(HMR002)-SINGLE-WEB-2019-KLIN
2019-04-12 20:02:11 Find.Your.Way.Episode.1.RIP-Unleashed
2019-04-12 20:02:48 The.Voice.S05E31.NORWEGiAN.720p.WEB.H264-HENRETTELSE
2019-04-12 20:03:28 The.Real.GhostBusters.S05E01.READNFO.iNTERNAL.MULTi.WEB.x264-D4KiD
2019-04-12 20:04:15 Growing.Up.Gotti.S01E02.WEB.x264-GIMINI
2019-04-12 20:04:19 The.Real.GhostBusters.S05E02.iNTERNAL.MULTi.WEB.x264-D4KiD
2019-04-12 20:04:54 Espiritus-Progression-(VDS020)-SINGLE-WEB-2019-KLIN
2019-04-12 20:04:59 Reka.Ljubezni.S04E27.SI.HDTV.x264-RADiOACTiVE
2019-04-12 20:05:00 Reka.Ljubezni.S04E27.SI.720p.HDTV.x264-RADiOACTiVE
2019-04-12 20:05:05 The.Real.GhostBusters.S05E03.iNTERNAL.MULTi.WEB.x264-D4KiD
2019-04-12 20:05:05 The.Zodiac.Killer.1971.720p.BluRay.x264-REGRET
2019-04-12 20:05:17 Growing.Up.Gotti.S01E03.WEB.x264-GIMINI
2019-04-12 20:05:33 Blaze.2018.LiMiTED.1080p.BluRay.x264-VETO
2019-04-12 20:05:51 The.Real.GhostBusters.S05E04.iNTERNAL.MULTi.WEB.x264-D4KiD
2019-04-12 20:06:18 Growing.Up.Gotti.S01E04.WEB.x264-GIMINI
2019-04-12 20:06:39 The.Real.GhostBusters.S05E05.iNTERNAL.MULTi.WEB.x264-D4KiD
2019-04-12 20:06:49 Blaze.2018.LiMiTED.720p.BluRay.x264-VETO
2019-04-12 20:07:21 Growing.Up.Gotti.S01E05.WEB.x264-GIMINI
2019-04-12 20:07:25 The.Real.GhostBusters.S05E06.iNTERNAL.MULTi.WEB.x264-D4KiD
2019-04-12 20:08:11 The.Real.GhostBusters.S05E07.iNTERNAL.MULTi.WEB.x264-D4KiD
2019-04-12 20:08:26 Growing.Up.Gotti.S01E06.WEB.x264-GIMINI
2019-04-12 20:08:58 The.Real.GhostBusters.S05E08.iNTERNAL.MULTi.WEB.x264-D4KiD
2019-04-12 20:09:28 Growing.Up.Gotti.S01E07.WEB.x264-GIMINI
2019-04-12 20:09:45 The.Real.GhostBusters.S05E09.FiNAL.iNTERNAL.MULTi.WEB.x264-D4KiD
2019-04-12 20:09:52 Devil_Engine_Update_v1.0.2_NSW-VENOM
2019-04-12 20:10:31 Better.Things.S03E06.SPANiSH.1080p.WEB.h264-4FiRE
2019-04-12 20:10:31 The.Real.GhostBusters.S06E01.READNFO.iNTERNAL.MULTi.WEB.x264-D4KiD
2019-04-12 20:10:52 Better.Things.S03E06.SPANiSH.720p.WEB.h264-4FiRE
2019-04-12 20:11:00 Growing.Up.Gotti.S01E08.WEB.x264-GIMINI
2019-04-12 20:11:10 Bakumatsu.E14.SUBFRENCH.1080p.WEB.x264-AMB3R
2019-04-12 20:11:12 Better.Things.S03E06.SPANiSH.WEB.h264-4FiRE
2019-04-12 20:11:18 The.Real.GhostBusters.S06E02.iNTERNAL.MULTi.WEB.x264-D4KiD
2019-04-12 20:11:28 Fruits.Basket.2019.E02.SUBFRENCH.1080p.WEB.x264-AMB3R
2019-04-12 20:11:33 Better.Things.S03E07.SPANiSH.1080p.WEB.h264-4FiRE
2019-04-12 20:11:53 Better.Things.S03E07.SPANiSH.720p.WEB.h264-4FiRE
2019-04-12 20:12:01 Growing.Up.Gotti.S01E09.WEB.x264-GIMINI
2019-04-12 20:12:05 The.Real.GhostBusters.S06E03.iNTERNAL.MULTi.WEB.x264-D4KiD
2019-04-12 20:12:14 Better.Things.S03E07.SPANiSH.WEB.h264-4FiRE
2019-04-12 20:12:34 Killing.Eve.S02E01.SPANiSH.1080p.WEB.h264-4FiRE
2019-04-12 20:12:52 The.Real.GhostBusters.S06E04.iNTERNAL.MULTi.WEB.x264-D4KiD
2019-04-12 20:12:54 Killing.Eve.S02E01.SPANiSH.720p.WEB.h264-4FiRE
2019-04-12 20:13:02 Growing.Up.Gotti.S01E10.WEB.x264-GIMINI
2019-04-12 20:13:15 Killing.Eve.S02E01.SPANiSH.WEB.h264-4FiRE
2019-04-12 20:13:36 Lo.Que.Hacemos.En.Las.Sombras.S01E02.SPANiSH.1080p.WEB.h264-4FiRE
2019-04-12 20:13:38 The.Real.GhostBusters.S06E05.iNTERNAL.MULTi.WEB.x264-D4KiD
2019-04-12 20:13:56 Lo.Que.Hacemos.En.Las.Sombras.S01E02.SPANiSH.720p.WEB.h264-4FiRE
2019-04-12 20:14:04 Growing.Up.Gotti.S01E11.WEB.x264-GIMINI
2019-04-12 20:14:18 Lo.Que.Hacemos.En.Las.Sombras.S01E02.SPANiSH.WEB.h264-4FiRE
2019-04-12 20:14:25 The.Real.GhostBusters.S06E06.iNTERNAL.MULTi.WEB.x264-D4KiD
2019-04-12 20:14:38 Lo.Que.Hacemos.En.Las.Sombras.S01E03.SPANiSH.1080p.WEB.h264-4FiRE
2019-04-12 20:14:58 Lo.Que.Hacemos.En.Las.Sombras.S01E03.SPANiSH.720p.WEB.h264-4FiRE
2019-04-12 20:15:12 The.Real.GhostBusters.S06E07.iNTERNAL.MULTi.WEB.x264-D4KiD
2019-04-12 20:15:18 Lo.Que.Hacemos.En.Las.Sombras.S01E03.SPANiSH.WEB.h264-4FiRE
2019-04-12 20:15:39 Pequenyas.Mentirosas.Perfeccionistas.S01E03.SPANiSH.1080p.WEB.h264-4FiRE
2019-04-12 20:15:58 The.Real.GhostBusters.S06E08.FiNAL.iNTERNAL.MULTi.WEB.x264-D4KiD
2019-04-12 20:15:59 Pequenyas.Mentirosas.Perfeccionistas.S01E03.SPANiSH.720p.WEB.h264-4FiRE
2019-04-12 20:16:20 Pequenyas.Mentirosas.Perfeccionistas.S01E03.SPANiSH.WEB.h264-4FiRE
2019-04-12 20:16:41 Pequenyas.Mentirosas.Perfeccionistas.S01E04.SPANiSH.1080p.WEB.h264-4FiRE
2019-04-12 20:16:47 Captain_Beefheart-Hot_Head_(Live)-WEB-2019-KLIN
2019-04-12 20:17:02 Pequenyas.Mentirosas.Perfeccionistas.S01E04.SPANiSH.720p.WEB.h264-4FiRE
2019-04-12 20:17:22 Pequenyas.Mentirosas.Perfeccionistas.S01E04.SPANiSH.WEB.h264-4FiRE
2019-04-12 20:17:42 Roswell.New.Mexico.S01E11.SPANiSH.1080p.WEB.h264-4FiRE
2019-04-12 20:17:54 VA-Deep_House_Spring_Essentials_2019-(EDMC256)-WEB-2019-BF
2019-04-12 20:17:58 Bare_Up-Out_of_Nowhere-(RDR035)-EP-WEB-2019-ENSLAVE
2019-04-12 20:18:04 Roswell.New.Mexico.S01E11.SPANiSH.720p.WEB.h264-4FiRE
2019-04-12 20:18:09 Dissident-Side_Streets-(DISLTD064)-EP-WEB-2019-ENSLAVE
2019-04-12 20:18:20 Macca-Rise_N_Grind-WEB-2019-ENSLAVE
2019-04-12 20:18:22 VA-House_Music_Squad_20-(PTCOMP974A)-WEB-2019-BF
2019-04-12 20:18:26 Roswell.New.Mexico.S01E11.SPANiSH.WEB.h264-4FiRE
2019-04-12 20:18:31 Muffler-Half_Light__Puzzle-(PRGRAM079)-WEB-2019-ENSLAVE
2019-04-12 20:18:38 Blaze.2018.COMPLETE.BLURAY-BD4U
2019-04-12 20:18:42 Random_Movement-Random_Movement_Remixed-WEB-2019-ENSLAVE
2019-04-12 20:18:52 Sam_Binga-If_The_Cap_Fits-(CRIT128)-EP-WEB-2019-ENSLAVE
2019-04-12 20:18:54 VA-In_Crowd_House_Club_2019-(ONAIR0163)-WEB-2019-BF
2019-04-12 20:19:04 VA-Intrigue_16_The_Anniversary_Collection_EP_3-(INTRIGUE16EP3)-WEB-2019-ENSLAVE
2019-04-12 20:19:13 Zero_T_feat_GLXY-Bermuda__Give_Me_Some-(31RS039)-WEB-2019-ENSLAVE
2019-04-12 20:19:24 Meat_Puppets-Dusty_Notes-2019-FNT
2019-04-12 20:19:26 mSdoS-Rough_Drops_1-(LRD01)-WEB-2017-ENSLAVE
2019-04-12 20:19:36 mSdoS-Rough_Drops_2-(LRD02)-WEB-2019-ENSLAVE
2019-04-12 20:20:13 Dorian_and_Skore-Retro_Driver__Cyberpunk-(MFR104)-WEB-2019-ENSLAVE
2019-04-12 20:21:25 Marvels.Cloak.and.Dagger.S02E03.GERMAN.DL.720p.WEB.H264-FENDT
2019-04-12 20:21:25 VA-RITES_001-(RTL003)-WEB-2019-ENTANGLE
2019-04-12 20:21:44 My.Lottery.Dream.Home.S07E02.Wild.Wish.Lists.1080p.WEB.x264-CAFFEiNE
2019-04-12 20:21:59 Erasure-Singles_EBX7-WEB-2019-ENRiCH
2019-04-12 20:22:04 Greys.Anatomy.S15E09.FRENCH.1080p.HDTV.H264-SH0W
2019-04-12 20:22:08 Greys.Anatomy.S15E10.FRENCH.1080p.HDTV.H264-SH0W
2019-04-12 20:22:10 Marvels.Cloak.and.Dagger.S02E03.GERMAN.DL.1080p.WEB.H264-FENDT
2019-04-12 20:22:24 Section.De.Recherches.S13E09.FRENCH.1080p.HDTV.H264-SH0W
2019-04-12 20:22:30 Section.De.Recherches.S13E10.FRENCH.1080p.HDTV.H264-SH0W
2019-04-12 20:22:42 Envoye.Special.2019.04.11.DOC.FRENCH.HDTV.x264-SH0W
2019-04-12 20:22:48 Envoye.Special.2019.04.11.DOC.FRENCH.720p.HDTV.x264-SH0W
2019-04-12 20:22:54 Envoye.Special.2019.04.11.DOC.FRENCH.1080p.HDTV.H264-SH0W
2019-04-12 20:23:07 Reka.Ljubezni.S04E28.SI.HDTV.x264-RADiOACTiVE
2019-04-12 20:23:13 Reka.Ljubezni.S04E28.SI.720p.HDTV.x264-RADiOACTiVE
2019-04-12 20:24:44 Mildlife-How_Long_Does_It_Take-(HVN515DIG)-WEB-2019-ENTANGLE
2019-04-12 20:24:56 My.Lottery.Dream.Home.S07E02.Wild.Wish.Lists.720p.WEB.x264-CAFFEiNE
2019-04-12 20:25:19 Sex.Lies.and.Videotape.1989.COMPLETE.BLURAY-GLiMMER
2019-04-12 20:25:33 Chea-I_Feeling_You-(MYR005)-SINGLE-WEB-2019-KLIN
2019-04-12 20:25:52 Complement.D.Enquete.Les.Nouveaux.Profiteurs.De.L.Immobilier.DOC.FRENCH.HDTV.x264-SH0W
2019-04-12 20:25:58 Complement.D.Enquete.Les.Nouveaux.Profiteurs.De.L.Immobilier.DOC.FRENCH.720p.HDTV.x264-SH0W
2019-04-12 20:26:05 Complement.D.Enquete.Les.Nouveaux.Profiteurs.De.L.Immobilier.DOC.FRENCH.1080p.HDTV.H264-SH0W
2019-04-12 20:26:49 Scan.Le.Monde.Selon.Trump.2019.DOC.FRENCH.HDTV.x264-SH0W
2019-04-12 20:26:56 Scan.Le.Monde.Selon.Trump.2019.DOC.FRENCH.720p.HDTV.x264-SH0W
2019-04-12 20:27:02 Scan.Le.Monde.Selon.Trump.2019.DOC.FRENCH.1080p.HDTV.H264-SH0W
2019-04-12 20:28:06 Den.Som.Draeber.S02E08.DANISH.720p.WEBRip.x264-BALLIN
2019-04-12 20:28:51 My.Lottery.Dream.Home.S07E02.Wild.Wish.Lists.WEB.x264-CAFFEiNE
2019-04-12 20:29:22 Marvels.Cloak.and.Dagger.S02E01.FRENCH.WEBRip.x264-AMB3R
2019-04-12 20:29:31 Eeze-Levitate-(FOOO011)-SINGLE-WEB-2019-KLIN
2019-04-12 20:29:33 Marvels.Cloak.and.Dagger.S02E02.FRENCH.WEBRip.x264-AMB3R
2019-04-12 20:29:39 Marvels.Cloak.and.Dagger.S02E03.FRENCH.WEBRip.x264-AMB3R
2019-04-12 20:30:18 Tragedy_Khadafi-The_Builders-2018-GCP
2019-04-12 20:32:05 Tujamo_-_Drop_That_Low_(When_I_Dip)_(Timmy_Trumpet_Remix)-(SP1653)-SINGLE-WEB-2019-ZzZz
2019-04-12 20:32:13 Stargate.SG-1.S07E03.SPANiSH.HR.WS.PDTV.x264-4FiRE
2019-04-12 20:32:14 Alexander_Robotnick-Undicidisco_(Remixes)-(HYR7190)-WEB-2019-ENTANGLE
2019-04-12 20:32:25 Andre_Crom-Surge-(OFF192)-SINGLE-WEB-2019-ENTANGLE
2019-04-12 20:32:36 Fideles-Impressum_One-(IMPRESSUM001)-WEB-2019-ENTANGLE
2019-04-12 20:32:47 Flash-Monster_(Remixes)-(HUSSYCD6518)-WEB-2019-ENTANGLE
2019-04-12 20:32:58 Marten_Horger_and_SkiiTour-Redlight_(Remixes)-(PUNKS156)-WEB-2019-ENTANGLE
2019-04-12 20:33:09 Qwestlife_(feat._Teni_Tinks)-Hit_It_Off_(Extended_Mixes)-WEB-2019-ENTANGLE
2019-04-12 20:33:19 Soul_Reductions-Got_2_Be_Loved_(Extended_Mix)-SINGLE-WEB-2019-ENTANGLE
2019-04-12 20:33:31 VA-The_Platinum_Collection_of_Disco_Hustle_Vol.4-(DHR400)-WEB-2019-ENTANGLE
2019-04-12 20:34:40 The.Silence.2019.iNTERNAL.MULTi.1080p.WEB.x264-CARAPiLS
2019-04-12 20:40:05 Madison_Mars_-_Night_Call_(With_Letters_From_Pluto)-(190295440527)-SINGLE-WEB-2019-ZzZz
2019-04-12 20:41:05 Star.Trek.Discovery.S02E13.iNTERNAL.MULTi.1080p.HDR.WEB.H265-CARAPiLS
2019-04-12 20:41:54 Special.S01E01.iNTERNAL.MULTi.1080p.WEB.x264-CARAPiLS
2019-04-12 20:42:44 Brohug_-_DatDatDat-(MF340)-SINGLE-WEB-2019-ZzZz
2019-04-12 20:42:57 Special.S01E02.iNTERNAL.MULTi.1080p.WEB.x264-CARAPiLS
2019-04-12 20:43:31 Star.Trek.Discovery.S02E13.GERMAN.DL.720p.WEBRip.X264-FENDT
2019-04-12 20:43:59 Special.S01E03.iNTERNAL.MULTi.1080p.WEB.x264-CARAPiLS
2019-04-12 20:45:01 Special.S01E04.iNTERNAL.MULTi.1080p.WEB.x264-CARAPiLS
2019-04-12 20:46:04 Special.S01E05.iNTERNAL.MULTi.1080p.WEB.x264-CARAPiLS
2019-04-12 20:47:06 Special.S01E06.iNTERNAL.MULTi.1080p.WEB.x264-CARAPiLS
2019-04-12 20:47:22 Crvvcks_-_NLU-(190295440350)-SINGLE-WEB-2019-ZzZz
2019-04-12 20:47:54 Bull.2016.S03E11.SPANiSH.1080p.HDTV.x264-FCC
2019-04-12 20:48:08 Bull.2016.S03E11.SPANiSH.720p.HDTV.x264-FCC
2019-04-12 20:48:09 Special.S01E07.iNTERNAL.MULTi.1080p.WEB.x264-CARAPiLS
2019-04-12 20:48:23 Bull.2016.S03E11.SPANiSH.HDTV.x264-FCC
2019-04-12 20:48:35 Bull.2016.S03E12.SPANiSH.1080p.HDTV.x264-FCC
2019-04-12 20:48:47 Bull.2016.S03E12.SPANiSH.720p.HDTV.x264-FCC
2019-04-12 20:49:02 Bull.2016.S03E12.SPANiSH.HDTV.x264-FCC
2019-04-12 20:49:11 Special.S01E08.FiNAL.iNTERNAL.MULTi.1080p.WEB.x264-CARAPiLS
2019-04-12 20:49:13 FBI.S01E18.SPANiSH.1080p.HDTV.x264-FCC
2019-04-12 20:49:25 FBI.S01E18.SPANiSH.720p.HDTV.x264-FCC
2019-04-12 20:49:42 FBI.S01E18.SPANiSH.HDTV.x264-FCC
2019-04-12 20:49:50 Burn-O--2021-EP_CDR-2018-WUS
2019-04-12 20:49:53 Whiskey.Cavalier.S01E07.SPANiSH.1080p.HDTV.x264-FCC
2019-04-12 20:50:04 Robert_Nelson--Nul_Nest_Roe_En_Son_Royaume-CD-FR-2019-WUS
2019-04-12 20:50:08 Blaze.2018.LiMiTED.BDRip.x264-VETO
2019-04-12 20:50:11 Whiskey.Cavalier.S01E07.SPANiSH.720p.HDTV.x264-FCC
2019-04-12 20:50:25 Whiskey.Cavalier.S01E07.SPANiSH.HDTV.x264-FCC
2019-04-12 20:50:52 Huge.In.France.S01E01.GERMAN.DL.720p.WEBRip.X264-FENDT
2019-04-12 20:53:28 Love.Simon.2018.German.DL.1080p.BluRay.AVC-SAViOURHD
2019-04-12 20:57:27 Huge.In.France.S01E02.GERMAN.DL.720p.WEBRip.X264-FENDT
2019-04-12 21:03:21 WTA.Samsung.Open.2019.Quarter.Final.Stefanie.Voegele.Vs.Fiona.Ferro.720p.WEB.h264-PYRAMiD
2019-04-12 21:04:05 The.Gadget.Show.S31E03.720p.HDTV.x264-QPEL
2019-04-12 21:04:09 Huge.In.France.S01E03.GERMAN.DL.720p.WEBRip.X264-FENDT
2019-04-12 21:05:24 Hovership.Havoc-PLAZA
2019-04-12 21:07:22 Zoner.Photo.Studio.X.v19.1904.2.140.Czech-rG
2019-04-12 21:07:56 Zoner.Photo.Studio.X.v19.1904.2.140.German-rG
2019-04-12 21:08:22 Zoner.Photo.Studio.X.v19.1904.2.140-rG
2019-04-12 21:08:25 WTA.Samsung.Open.2019.Quarter.Final.Veronika.Kudermetova.Vs.Polona.Hercog.720p.WEB.h264-PYRAMiD
2019-04-12 21:08:47 Zoner.Photo.Studio.X.v19.1904.2.140.Slovak-rG
2019-04-12 21:10:51 Huge.In.France.S01E04.GERMAN.DL.720p.WEBRip.X264-FENDT
2019-04-12 21:11:05 Ruthie_Foster-Live_At_Antones-CD-2011-6DM
2019-04-12 21:13:03 30.Minute.Meals.S28E12.Portobello.Cheese-Steak.Fries.720p.WEBRip.x264-CAFFEiNE
2019-04-12 21:14:26 30.Minute.Meals.S28E12.Portobello.Cheese-Steak.Fries.WEBRip.x264-CAFFEiNE
2019-04-12 21:14:31 Stacie_Collins-The_Lucky_Spot-CD-2007-6DM
2019-04-12 21:17:12 Huge.In.France.S01E05.GERMAN.DL.720p.WEBRip.X264-FENDT
2019-04-12 21:17:33 Ruthie_Foster-Live_At_Antones-CD-FLAC-2011-6DM
2019-04-12 21:17:49 Helsekontrollen.S06E08.NORWEGiAN.720p.HDTV.x264-NORPiLT
2019-04-12 21:19:00 Den.Som.Draeber.S02E08.DANISH.1080p.WEBRip.x264-BALLIN
2019-04-12 21:20:23 MasterChef.Slovenija.S05E05.SI.HDTV.x264-RADiOACTiVE
2019-04-12 21:20:25 MasterChef.Slovenija.S05E05.SI.720p.HDTV.x264-RADiOACTiVE
2019-04-12 21:22:19 Stacie_Collins-The_Lucky_Spot-CD-FLAC-2007-6DM
2019-04-12 21:23:18 Moto2.2019.The.Americas.Practice.One.WEB.x264-VERUM
2019-04-12 21:23:21 The.Young.and.the.Restless.S46E153.1080p.WEB.x264-LiGATE
2019-04-12 21:23:37 Huge.In.France.S01E06.GERMAN.DL.720p.WEBRip.X264-FENDT
2019-04-12 21:24:42 Moto2.2019.The.Americas.Practice.One.720p.WEB.x264-VERUM
2019-04-12 21:24:54 Star.Trek.Discovery.S02E13.FRENCH.720p.WEBRip.x264-AMB3R
2019-04-12 21:25:06 The.Young.and.the.Restless.S46E152.1080p.WEB.x264-LiGATE
2019-04-12 21:26:18 Moto2.2019.The.Americas.Practice.One.1080p.WEB.x264-VERUM
2019-04-12 21:27:54 In.aller.Freundschaft.Die.Jungen.Aerzte.S05E08.GERMAN.1080p.WEB.H264-FENDT
2019-04-12 21:28:08 The.Young.and.the.Restless.S46E152.720p.WEB.x264-LiGATE
2019-04-12 21:28:32 In.aller.Freundschaft.Die.Jungen.Aerzte.S05E08.GERMAN.720p.WEB.H264-FENDT
2019-04-12 21:29:41 X.Factor.S12E15.DANiSH.720p.HDTV.x264-DiViSiON
2019-04-12 21:29:57 Double.Anal.Extraordinaire.XXX.DVDRip.x264-HORNDOGS
2019-04-12 21:30:04 Huge.In.France.S01E07.GERMAN.DL.720p.WEBRip.X264-FENDT
2019-04-12 21:31:21 TV2.Hjelper.Deg.S39E15.NORWEGiAN.720p.HDTV.x264-NORPiLT
2019-04-12 21:32:44 Supergirl.S04E02.Enttarnt.GERMAN.HDTVRip.x264-MDGP
2019-04-12 21:33:55 Supergirl.S04E02.Enttarnt.GERMAN.DL.720p.HDTV.x264-MDGP
2019-04-12 21:34:40 Satiriks.Paa.Ekte.S01E12.NORWEGiAN.720p.WEB.X264-HENRETTELSE
2019-04-12 21:35:08 Ambulansen.S01E24.NORWEGiAN.720p.HDTV.x264-NORPiLT
2019-04-12 21:35:44 The.Young.and.the.Restless.S46E153.720p.WEB.x264-LiGATE
2019-04-12 21:36:02 Supergirl.S04E02.Enttarnt.GERMAN.DL.1080p.HDTV.x264-MDGP
2019-04-12 21:36:51 The.Young.and.the.Restless.S46E152.WEB.x264-LiGATE
2019-04-12 21:37:03 Lindmo.S14E14.NORWEGiAN.720p.WEB.X264-HENRETTELSE
2019-04-12 21:37:10 Huge.In.France.S01E08.GERMAN.DL.720p.WEBRip.X264-FENDT
2019-04-12 21:37:47 The.Young.and.the.Restless.S46E153.WEB.x264-LiGATE
2019-04-12 21:37:55 DuckTales.S02E03.Die.Geschichte.des.kleinen.Duke.GERMAN.DUBBED.DL.1080p.WebHD.x264-TVP
2019-04-12 21:39:21 Home.Is.Where.the.Art.Is.S01E02.720p.WEBRip.x264-LiGATE
2019-04-12 21:39:57 DuckTales.S02E03.Die.Geschichte.des.kleinen.Duke.GERMAN.DUBBED.DL.720p.WebHD.x264-TVP
2019-04-12 21:40:23 Home.Is.Where.the.Art.Is.S01E02.WEB.h264-LiGATE
2019-04-12 21:41:53 The.Voice.S05E32.NORWEGiAN.720p.WEB.H264-HENRETTELSE
2019-04-12 21:41:58 DuckTales.S02E03.Die.Geschichte.des.kleinen.Duke.GERMAN.DUBBED.WS.WebRip.x264-TVP
2019-04-12 21:42:35 Home.Is.Where.the.Art.Is.S01E03.WEB.h264-LiGATE
2019-04-12 21:43:03 Ein.besonderes.Leben.S01E01.GERMAN.DL.720p.WEBRip.X264-FENDT
2019-04-12 21:43:15 Miguel.S01E04.FRENCH.HDTV.x264-AMB3R
2019-04-12 21:44:00 DuckTales.S02E04.Die.Stadt.der.netten.Menschen.GERMAN.DUBBED.DL.1080p.WebHD.x264-TVP
2019-04-12 21:44:50 Freak_Signal-Recalibrate-SINGLE-WEB-2019-FALCON
2019-04-12 21:45:03 Youre.The.Worst.S05E13.FiNAL.MULTi.1080p.HDTV.H264-HYBRiS
2019-04-12 21:45:12 Human_Intelligence-Fantasia-SINGLE-WEB-2019-FALCON
2019-04-12 21:45:34 Lost_Shaman-Sacred_Belief-WEB-2019-FALCON
2019-04-12 21:45:55 Stereotactic-A_Moment_Of_Happyness-SINGLE-WEB-2019-FALCON
2019-04-12 21:46:03 DuckTales.S02E04.Die.Stadt.der.netten.Menschen.GERMAN.DUBBED.DL.720p.WebHD.x264-TVP
2019-04-12 21:46:19 X-Dream_Vs._S.U.N._Project-Subterrania-WEB-2019-FALCON
2019-04-12 21:46:20 B_Steez_feat_SicknessMP-Close_of_Day_(Mind-Sets)_(feat_SicknessMP)-WEB-2018-ENRAGED
2019-04-12 21:46:30 Canibus-Full_Spectrum_Dominance_Repolarization-WEB-2019-ENRAGED
2019-04-12 21:46:36 Ein.besonderes.Leben.S01E02.GERMAN.DL.720p.WEBRip.X264-FENDT
2019-04-12 21:46:42 Diabolic-Collusion-WEB-2019-ENRAGED
2019-04-12 21:46:53 EPMD-Live_Business-WEB-2019-ENRAGED
2019-04-12 21:47:04 Greydon_Square-Compton_Scattering-WEB-2016-ENRAGED
2019-04-12 21:47:14 Greydon_Square-Omniverse__Type_3__Aum_niverse-WEB-2015-ENRAGED
2019-04-12 21:47:25 Greydon_Square-The_Compton_Effect-WEB-2007-ENRAGED
2019-04-12 21:47:36 Greydon_Square-The_Cpt_Theorem-WEB-2008-ENRAGED
2019-04-12 21:47:45 Greydon_Square-The_Kardashev_Scale-WEB-2009-ENRAGED
2019-04-12 21:47:58 Greydon_Square-Type_II__The_Mandelbrot_Set-WEB-2012-ENRAGED
2019-04-12 21:48:02 DuckTales.S02E04.Die.Stadt.der.netten.Menschen.GERMAN.DUBBED.WS.WebRip.x264-TVP
2019-04-12 21:48:09 SicknessMP-Namaste-WEB-2019-ENRAGED
2019-04-12 21:48:20 Sleepdealer-100s-WEB-2016-ENRAGED
2019-04-12 21:48:31 Sleepdealer-Dreamland-WEB-2016-ENRAGED
2019-04-12 21:48:41 Sleepdealer-Dutch_Masters-WEB-2012-ENRAGED
2019-04-12 21:48:52 Sleepdealer-Hermit_Gudo-WEB-2016-ENRAGED
2019-04-12 21:49:03 Sleepdealer-Puff_Meditate-WEB-2012-ENRAGED
2019-04-12 21:49:14 Sleepdealer-Yerba-WEB-2016-ENRAGED
2019-04-12 21:49:25 Sleepdealer-homesick-WEB-2017-ENRAGED
2019-04-12 21:49:36 Sleepdealer-i_Ching-WEB-2017-ENRAGED
2019-04-12 21:49:47 Sleepdealer-oasa-WEB-2017-ENRAGED
2019-04-12 21:49:50 Ein.besonderes.Leben.S01E03.GERMAN.DL.720p.WEBRip.X264-FENDT
2019-04-12 21:49:57 VA-Eating_with_Friends-WEB-2019-ENRAGED
2019-04-12 21:50:04 DuckTales.S02E05.Storkules.in.Entenhausen.GERMAN.DUBBED.DL.1080p.WebHD.x264-TVP
2019-04-12 21:50:08 VA-Stay_in_Your_Lane_Vol_1-WEB-2019-ENRAGED
2019-04-12 21:50:45 183rd-ENERGY-WEB-2019-ENRAGED
2019-04-12 21:50:56 183rd-No_Gimmicks_Needed-WEB-2019-ENRAGED
2019-04-12 21:50:58 Eats_Everything_-_Edible_bEats_111-SAT-04-10-2019-TALiON
2019-04-12 21:51:56 Oliver_Heldens_-_Heldeep_Radio_254-SAT-04-12-2019-TALiON
2019-04-12 21:52:05 DuckTales.S02E05.Storkules.in.Entenhausen.GERMAN.DUBBED.DL.720p.WebHD.x264-TVP
2019-04-12 21:52:48 Ein.besonderes.Leben.S01E04.GERMAN.DL.720p.WEBRip.X264-FENDT
2019-04-12 21:52:58 Sander_van_Doorn_-_Identity_490-SAT-04-12-2019-TALiON
2019-04-12 21:53:23 Das.Haus.der.Vergessenen.1991.German.DL.1080p.BluRay.AVC-AVCiHD
2019-04-12 21:53:26 A.Discovery.Of.Witches.S01E07.MULTi.1080p.HDTV.H264-HYBRiS
2019-04-12 21:53:58 Erick_Morillo_-_Subliminal_Sessions_107-SAT-04-12-2019-TALiON
2019-04-12 21:54:06 DuckTales.S02E05.Storkules.in.Entenhausen.GERMAN.DUBBED.WS.WebRip.x264-TVP
2019-04-12 21:54:13 A.Discovery.Of.Witches.S01E08.FiNAL.MULTi.1080p.HDTV.H264-HYBRiS
2019-04-12 21:54:46 88GLAM-88GLAM25-WEB-2019-ENRAGED
2019-04-12 21:54:56 Kevin_Abstract-ARIZONA_baby-WEB-2019-ENRAGED
2019-04-12 21:54:57 Martin_Garrix_-_The_Martin_Garrix_Radio_Show_240-SAT-04-12-2019-TALiON
2019-04-12 21:55:00 The.Magicians.US.S04E11.MULTi.1080p.HDTV.H264-HYBRiS
2019-04-12 21:55:07 Marshmello_SOB_X_RBE-Roll_The_Dice-WEB-2019-ENRAGED
2019-04-12 21:55:15 Unrest.Indigo-PLAZA
2019-04-12 21:55:19 Supa_Bwe-Just_Say_Thank_You-WEB-2019-ENRAGED
2019-04-12 21:55:29 Ambulansen.S01E24.REPACK.NORWEGiAN.720p.HDTV.x264-NORPiLT
2019-04-12 21:55:30 Young_Buck-Compulsive-WEB-2019-ENRAGED
2019-04-12 21:55:40 Ein.besonderes.Leben.S01E05.GERMAN.DL.720p.WEBRip.X264-FENDT
2019-04-12 21:55:58 Adam_Beyer_-_Drumcode_454__Live_at_Space_(Miami)-SAT-04-12-2019-TALiON
2019-04-12 21:56:58 Nicole_Moudaber_-_In_The_MOOD_259-SAT-04-12-2019-TALiON
2019-04-12 21:57:58 Above_and_Beyond_-_Group_Therapy_326__Incl_Enamour_Guestmix-SAT-04-12-2019-TALiON
2019-04-12 21:58:42 Ein.besonderes.Leben.S01E06.GERMAN.DL.720p.WEBRip.X264-FENDT
2019-04-12 22:00:22 Tiny_Moving_Parts-For_The_Sake_Of_Brevity_-_Fish_Bowl-WEB-2019-ENTiTLED
2019-04-12 22:01:04 Danny_Howard-BBC_Radio1s_Dance_Party__Incl_Rebuke_Mini_Mix-CABLE-12-04-2019-1KING
2019-04-12 22:01:25 Lost_Frequencies_-_Lost_Radio_Show-CABLE-04-12-2019-TALiON
2019-04-12 22:01:54 Ein.besonderes.Leben.S01E07.GERMAN.DL.720p.WEBRip.X264-FENDT
2019-04-12 22:04:14 Bull.2016.S03E09.Verzweifelte.Zeiten.GERMAN.HDTVRip.x264-MDGP
2019-04-12 22:04:55 Mysteries.of.the.Abandoned.S04E02.Secret.of.Supervillain.Island.720p.WEBRip.x264-CAFFEiNE
2019-04-12 22:05:21 KSI_and_Randolph-New_Age-WEB-2019-ENRAGED
2019-04-12 22:05:23 Ein.besonderes.Leben.S01E08.GERMAN.DL.720p.WEBRip.X264-FENDT
2019-04-12 22:05:32 Kiddo_Marv-Kingz_In_Denial_Dont_Overcome_II-WEB-2019-ENRAGED
2019-04-12 22:05:43 Kiddo_Marv-Kingz_in_Denial_Dont_Overcome-WEB-2018-ENRAGED
2019-04-12 22:05:54 Kottonmouth_Kings-Most_Wanted_Highs-WEB-2019-ENRAGED
2019-04-12 22:05:57 Bull.2016.S03E09.Verzweifelte.Zeiten.GERMAN.DL.720p.HDTV.x264-MDGP
2019-04-12 22:06:04 Dyrepasserne.S08E07.NORWEGiAN.720p.HDTV.x264-NORPiLT
2019-04-12 22:06:05 Riff_Raff-PiNK_PYTHON-WEB-2019-ENRAGED
2019-04-12 22:06:16 Rory_Fresco-True_Story-WEB-2019-ENRAGED
2019-04-12 22:06:43 Mysteries.of.the.Abandoned.S04E02.Secret.of.Supervillain.Island.WEBRip.x264-CAFFEiNE
2019-04-12 22:09:24 Young.And.Corrupt.4.XXX.DVDRip.x264-HORNDOGS
2019-04-12 22:09:36 DevilShaft.TheTower-DARKSiDERS
2019-04-12 22:10:03 BlackedRaw.19.04.12.Kenzie.Reeves.XXX.2160p.MP4-KTR
2019-04-12 22:12:58 Helsesista.S01E07.NORWEGiAN.720p.HDTV.x264-NORPiLT
2019-04-12 22:14:40 Miguel.S01E05.FRENCH.HDTV.x264-AMB3R
2019-04-12 22:16:19 The.Gadget.Show.S31E03.1080p.HDTV.x264-QPEL
2019-04-12 22:16:58 Haunted.Hospitals.S01E08.Campus.Haunting.720p.WEB.x264-DHD
2019-04-12 22:17:24 Haunted.Hospitals.S01E08.Campus.Haunting.1080p.WEB.x264-DHD
2019-04-12 22:17:30 Home.Is.Where.the.Art.Is.S01E03.720p.WEBRip.x264-LiGATE
2019-04-12 22:19:04 Brawlout_Update_v2.1.0_NSW-SUXXORS
2019-04-12 22:19:19 Senkveld.Med.Helene.Og.Stian.S02E10.NORWEGiAN.720p.WEB.H264-HENRETTELSE
2019-04-12 22:21:44 Tim_Aston_and_Yellow_Is_The_New_White_-_Order_1-SINGLE-WEB-2019-ZzZz
2019-04-12 22:21:51 Bull.2016.S03E09.Verzweifelte.Zeiten.GERMAN.DL.1080p.HDTV.x264-MDGP
2019-04-12 22:22:13 Treasure_Stack_Update_v1.0.2_NSW-SUXXORS
2019-04-12 22:22:33 Love.After.Lockup.S02E14.Prison.Blues.to.Wedding.Bells.720p.HDTV.x264-CRiMSON
2019-04-12 22:22:49 Bazzi-Paradise-DDC-1080p-x264-2019-SRPx
2019-04-12 22:23:04 Love.After.Lockup.S02E14.Prison.Blues.to.Wedding.Bells.HDTV.x264-CRiMSON
2019-04-12 22:23:56 38_Spesh-The_38_Strategies_Of_Raw-2019-GCP
2019-04-12 22:24:54 VA-Gangster_Doodles_Gangster_Music_Vol._1-2019-GCP
2019-04-12 22:25:23 World_Neverland_Elnea_Kingdom_Update_v1.4.1_NSW-SUXXORS
2019-04-12 22:27:40 MasterChef.Slovenija.S05E06.SI.HDTV.x264-RADiOACTiVE
2019-04-12 22:27:41 MasterChef.Slovenija.S05E06.SI.720p.HDTV.x264-RADiOACTiVE
2019-04-12 22:30:58 NRL.2019.Round.5.Broncos.vs.Tigers.HDTV.x264-PLUTONiUM
2019-04-12 22:31:54 Home.Is.Where.the.Art.Is.S01E04.720p.WEBRip.x264-LiGATE
2019-04-12 22:32:58 Ghost.Bait.2019.S01E04.Michael.and.Barbie.720p.WEBRip.x264-CAFFEiNE
2019-04-12 22:33:18 Have.I.Got.News.For.You.S57E02.720p.HDTV.x264-QPEL
2019-04-12 22:33:38 NRL.2019.Round.5.Broncos.vs.Tigers.720p.HDTV.x264-PLUTONiUM
2019-04-12 22:34:14 Ghost.Bait.2019.S01E04.Michael.and.Barbie.WEBRip.x264-CAFFEiNE
2019-04-12 22:36:24 Annimeanz-Dboy_2_Step-SINGLE-WEB-2019-ENRAGED
2019-04-12 22:36:35 Beast_Coast-Coast__Clear-SINGLE-WEB-2019-ENRAGED
2019-04-12 22:36:46 Eto-Elvis-WEB-2015-ENRAGED
2019-04-12 22:36:57 Eto-Firearm_E-WEB-2010-ENRAGED
2019-04-12 22:37:05 Home.Is.Where.the.Art.Is.S01E04.WEB.h264-LiGATE
2019-04-12 22:37:08 Eto-New_Yorks_New_Money-WEB-2007-ENRAGED
2019-04-12 22:37:18 Eto-Pyrex_Dialect-WEB-2009-ENRAGED
2019-04-12 22:37:29 Eto_and_Superior-Long_Story_Short-WEB-2019-ENRAGED
2019-04-12 22:37:40 Haiti_Babii-Without_You_(feat_Philthy_Rich)-SINGLE-WEB-2019-ENRAGED
2019-04-12 22:37:47 NRL.2019.Round.5.Broncos.vs.Tigers.1080p.HDTV.x264-PLUTONiUM
2019-04-12 22:37:51 IAMSU-Every_Girl_Type-SINGLE-WEB-2019-ENRAGED
2019-04-12 22:38:02 JP_Cali_Smoov-Baddies-SINGLE-WEB-2019-ENRAGED
2019-04-12 22:38:13 KXNG_Crooked-Live_4_It-SINGLE-WEB-2019-ENRAGED
2019-04-12 22:38:23 Larry_June-The_Port_of_San_Francisco-WEB-2019-ENRAGED
2019-04-12 22:38:34 LilCadipge-Cocaine-SINGLE-WEB-2018-ENRAGED
2019-04-12 22:38:45 LilCadipge-Get_That_Check_Right_(feat_DonnyLoc_Daidmb_and_Johnny_Rose)-SINGLE-WEB-2018-ENRAGED
2019-04-12 22:38:47 X.Factor.S12E15.Afgoerelsen.DANiSH.720p.HDTV.x264-DiViSiON
2019-04-12 22:38:57 LilCadipge-The_Marathon_Must_Continue-SINGLE-WEB-2019-ENRAGED
2019-04-12 22:39:07 Marcosus-Smoke_Right_Now-SINGLE-WEB-2019-ENRAGED
2019-04-12 22:39:18 Marvaluzz_Thug-Notorious_OKC-WEB-2017-ENRAGED
2019-04-12 22:39:28 Marvaluzz_Thug-Notorious_OKC_Vol_II-WEB-2019-ENRAGED
2019-04-12 22:39:41 Marvaluzz_Thug_Of_2RS-Allahs_On_Me-WEB-2010-ENRAGED
2019-04-12 22:39:50 Marvaluzz_Thug_and_90Bone_2-Ruthless_Reps-WEB-2018-ENRAGED
2019-04-12 22:40:01 Mulah_Davinci-Let_It_Roll-SINGLE-WEB-2019-ENRAGED
2019-04-12 22:40:12 Noni_Blanco-Problemz-SINGLE-WEB-2019-ENRAGED
2019-04-12 22:40:23 Rim-KeeP_It_Ville-WEB-2019-ENRAGED
2019-04-12 22:40:34 Rob_stone-Shots_at_the_Bar-SINGLE-WEB-2019-ENRAGED
2019-04-12 22:40:45 Sherwood_Marty-Sherwood_Baby-WEB-2018-ENRAGED
2019-04-12 22:40:56 Sleazy_Buttons-One_Nite-SINGLE-WEB-2014-ENRAGED
2019-04-12 22:41:07 Sleazy_Buttons-Play-SINGLE-WEB-2018-ENRAGED
2019-04-12 22:41:17 Sleazy_Buttons-Trick_or_Treat-SINGLE-WEB-2018-ENRAGED
2019-04-12 22:41:28 Tangeray_Major-Savage_(feat_YFN_Lucci)-SINGLE-WEB-2019-ENRAGED
2019-04-12 22:41:39 Therealskitso-Shock_Treatment-WEB-2018-ENRAGED
2019-04-12 22:41:50 Will_Evans-Dead_Homies-SINGLE-WEB-2019-ENRAGED
2019-04-12 22:42:00 The.Simpsons.S29E14.MULTi.1080p.HDTV.x264-HYBRiS
2019-04-12 22:42:01 Will_Evans-UNI-WEB-2018-ENRAGED
2019-04-12 22:42:47 The.Simpsons.S29E15.MULTi.1080p.HDTV.x264-HYBRiS
2019-04-12 22:43:34 The.Simpsons.S29E16.MULTi.1080p.HDTV.x264-HYBRiS
2019-04-12 22:44:20 The.Simpsons.S29E17.MULTi.1080p.HDTV.x264-HYBRiS
2019-04-12 22:44:37 Jamai.Raja.Eine.Chance.fuer.die.Liebe.s01e15.German.WS.DVDRip.x264-CDP
2019-04-12 22:45:06 The.Simpsons.S29E18.MULTi.1080p.HDTV.x264-HYBRiS
2019-04-12 22:45:43 Jamai.Raja.Eine.Chance.fuer.die.Liebe.s01e16.German.WS.DVDRip.x264-CDP
2019-04-12 22:45:53 The.Simpsons.S29E19.MULTi.1080p.HDTV.x264-HYBRiS
2019-04-12 22:45:55 Greys.Anatomy.S15E11.FRENCH.WEB.H264-AMB3R
2019-04-12 22:46:48 Jamai.Raja.Eine.Chance.fuer.die.Liebe.s01e17.German.WS.DVDRip.x264-CDP
2019-04-12 22:47:12 The.Repair.Shop.S04E08.720p.WEBRip.x264-LiGATE
2019-04-12 22:47:54 Jamai.Raja.Eine.Chance.fuer.die.Liebe.s01e18.German.WS.DVDRip.x264-CDP
2019-04-12 22:48:58 8.Tage.S01E08.GERMAN.1080p.HDTV.x264-ACED
2019-04-12 22:49:00 Jamai.Raja.Eine.Chance.fuer.die.Liebe.s01e19.German.WS.DVDRip.x264-CDP
2019-04-12 22:49:30 8.Tage.S01E08.GERMAN.720p.HDTV.x264-ACED
2019-04-12 22:50:02 8.Tage.S01E08.GERMAN.HDTV.x264-ACED
2019-04-12 22:50:06 Jamai.Raja.Eine.Chance.fuer.die.Liebe.s01e20.German.WS.DVDRip.x264-CDP
2019-04-12 22:52:09 Miguel.S01E06.FiNAL.FRENCH.HDTV.x264-AMB3R
2019-04-12 22:53:48 The.Repair.Shop.S04E08.WEB.h264-LiGATE
2019-04-12 22:55:21 The.Voice.S05E31E32.NORWEGiAN.720p.HDTV.x264-NORPiLT
2019-04-12 22:59:05 Realliverari-Perfect_Imperfections-WEB-2019-ENRAGED
2019-04-12 22:59:16 Realliverari-Reconstructed-WEB-2019-ENRAGED
2019-04-12 23:02:05 ShooterGang_Kony-194-WEB-2019-ENRAGED
2019-04-12 23:02:16 Young_Mezzy-Things_Could_Be_Worse-WEB-2019-ENRAGED
2019-04-12 23:02:27 ymtk-What_You_Wish_For-WEB-2019-ENRAGED
2019-04-12 23:02:40 Tragedy_Khadafi-The_Builders-CD-FLAC-2018-THEVOiD
2019-04-12 23:06:44 Anna.und.die.Apokalypse.2017.German.DL.1080p.BluRay.AVC-AVCiHD
2019-04-12 23:13:09 Delerium_ft._Leigh_Nash_-_Innocente_(Sam_Mitcham_Extended_Remix)-(REWORKED040)-SINGLE-WEB-2019-MMS
2019-04-12 23:13:18 Greg_Downey_-_Sense_(Sentinel_7_Remix)-(SKLD021)-SINGLE-WEB-2019-MMS
2019-04-12 23:13:27 JES_-_Imagination_(Will_Atkinson_Extended_Remix)-(MM12920)-SINGLE-WEB-2019-MMS
2019-04-12 23:13:35 Liam_Wilson_and_Corin_Bayley_-_Heartbeats_(Extended)-(ITWT7390)-SINGLE-WEB-2019-MMS
2019-04-12 23:13:45 M.I.K.E._Push_Pres._Cosmo_Kid_-_Somewhere_Out_There_(Extended)-(IND018)-SINGLE-WEB-2019-MMS
2019-04-12 23:13:51 Rio_Lorenzo_And_Michele_C_-_Like_Lovers_Do_(Extended)-(AVA259)-SINGLE-WEB-2019-MMS
2019-04-12 23:13:58 Shugz_-_AI_(Extended)-(RELOADED041)-SINGLE-WEB-2019-MMS
2019-04-12 23:14:07 Starpicker_-_Elated_(Extended)-(GOM013)-SINGLE-WEB-2019-MMS
2019-04-12 23:14:15 Key4050_-_Giamfranco-(KR103)-SINGLE-WEB-2019-MMS
2019-04-12 23:14:23 Manuel_Le_Saux_and_Unbeat_-_EVO_(Extended)-(GOM014)-SINGLE-WEB-2019-MMS
2019-04-12 23:14:30 Mhammed_El_Alami_and_Exolight_-_After_Time_(Extended)-(AVAW111)-SINGLE-WEB-2019-MMS
2019-04-12 23:14:38 Attila_Syah_-_11th_Floor_(Extended)-(AVA263)-SINGLE-WEB-2019-MMS
2019-04-12 23:14:47 Dawnseekers_-_Gothic_Dream_(Rene_Ablaze_Extended_Remix)-(REWORKED042)-SINGLE-WEB-2019-MMS
2019-04-12 23:14:54 Honan_-_Stormbreaker_(Extended)-(GROTESQUE122)-SINGLE-WEB-2019-MMS
2019-04-12 23:15:03 Indecent_Noise_-_Polybius_(Extended)-(MA103)-SINGLE-WEB-2019-MMS
2019-04-12 23:15:32 I.Still.See.You.2018.FRENCH.720p.BluRay.x264-LOST
2019-04-12 23:16:26 X-Art.19.04.12.Cornelia.Hot.Breakfast.Sex.XXX.1080p.MP4-KTR
2019-04-12 23:18:37 False.Flag.S02E03.MULTi.1080p.HDTV.H264-HYBRiS
2019-04-12 23:18:37 I.Still.See.You.2018.MULTi.1080p.BluRay.x264-LOST
2019-04-12 23:18:38 X-Art.19.04.12.Cornelia.Hot.Breakfast.Sex.XXX.2160p.MP4-KTR
2019-04-12 23:18:49 The.Spy.Gone.North.2018.FRENCH.720p.BluRay.x264-LOST
2019-04-12 23:19:05 eSport.eSuperliga.2019.04.10.Round.14.FCM.vs.SIF.DANiSH.1080p.WEB.x264-DANES
2019-04-12 23:19:14 Helsekontrollen.S06E06.DiRFiX.NORWEGiAN.720p.HDTV.x264-NORPiLT
2019-04-12 23:19:17 The.Spy.Gone.North.2018.MULTi.1080p.BluRay.x264-LOST
2019-04-12 23:19:46 Chicago.PD.S06E05.iTALiAN.720p.WEB.x264-HWD
2019-04-12 23:20:03 Chicago.PD.S06E05.iTALiAN.MULTi.1080p.WEB.x264-HWD
2019-04-12 23:21:02 eSport.eSuperliga.2019.04.10.Round.14.FCM.vs.SIF.DANiSH.720p.WEB.x264-DANES
2019-04-12 23:22:43 eSport.eSuperliga.2019.04.10.Round.14.FCK.vs.HOB.DANiSH.720p.WEB.x264-DANES
2019-04-12 23:25:25 Law.and.Order.Unita.Speciale.S20E07.iTALiAN.720p.WEB.x264-HWD
2019-04-12 23:25:35 Law.and.Order.Unita.Speciale.S20E07.iTALiAN.MULTi.1080p.WEB.x264-HWD
2019-04-12 23:26:55 What.We.Do.in.the.Shadows.S01E03.SUBFRENCH.HDTV.x264-AMB3R
2019-04-12 23:28:15 eSport.eSuperliga.2019.04.10.Round.14.FCK.vs.HOB.DANiSH.1080p.WEB.x264-DANES
2019-04-12 23:30:20 eSport.eSuperliga.2019.04.10.Round.14.RFC.vs.VEN.DANiSH.720p.WEB.x264-DANES
2019-04-12 23:31:40 VA-Ticketmaster_Tapes-Shooters_4-(Bootleg)-3CD-2019-CR
2019-04-12 23:33:55 eSport.eSuperliga.2019.04.10.Round.14.RFC.vs.VEN.DANiSH.1080p.WEB.x264-DANES
2019-04-12 23:34:52 Greys.Anatomy.S15E12.FRENCH.WEB.H264-AMB3R
2019-04-12 23:34:58 I.Still.See.You.2018.FRENCH.BDRip.x264-PRiDEHD
2019-04-12 23:35:10 Mom.S06E09.iTALiAN.720p.WEB.x264-HWD
2019-04-12 23:35:10 Mom.S06E10.iTALiAN.720p.WEB.x264-HWD
2019-04-12 23:35:21 Mom.S06E09.iTALiAN.MULTi.1080p.WEB.x264-HWD
2019-04-12 23:35:22 Mom.S06E10.iTALiAN.MULTi.1080p.WEB.x264-HWD
2019-04-12 23:35:24 The.Spy.Gone.North.2018.FRENCH.BDRip.x264-PRiDEHD
2019-04-12 23:35:41 eSport.eSuperliga.2019.04.10.Round.14.BIF.vs.AAB.DANiSH.720p.WEB.x264-DANES
2019-04-12 23:36:18 Un.Ciudadano.Ejemplar.2009.SPANiSH.1080p.BluRay.x264-4FiRE
2019-04-12 23:36:39 Un.Ciudadano.Ejemplar.2009.SPANiSH.720p.BluRay.x264-4FiRE
2019-04-12 23:36:46 Meat_Puppets-Dusty_Notes-CD-FLAC-2019-FAiNT
2019-04-12 23:37:02 Un.Ciudadano.Ejemplar.2009.SPANiSH.BDRip.x264-4FiRE
2019-04-12 23:38:18 The.Sinner.S02E07.iTALiAN.720p.WEB.x264-HWD
2019-04-12 23:38:29 eSport.eSuperliga.2019.04.10.Round.14.BIF.vs.AAB.DANiSH.1080p.WEB.x264-DANES
2019-04-12 23:40:11 eSport.eSuperliga.2019.04.10.Round.14.SJE.vs.OB.DANiSH.720p.WEB.x264-DANES
2019-04-12 23:40:42 The.Sinner.S02E07.iTALiAN.MULTi.1080p.WEB.x264-HWD
2019-04-12 23:44:17 VA-A.T.M._Mixtapes-Trapper_Treats_3-(Bootleg)-3CD-2019-CR
2019-04-12 23:45:33 eSport.eSuperliga.2019.04.10.Round.14.SJE.vs.OB.DANiSH.1080p.WEB.x264-DANES
2019-04-12 23:45:57 Code.7.A.Story.Driven.Hacking.Adventure.Episodes.0.to.3-PLAZA
2019-04-12 23:46:10 Lenzman-Bobby-PROPER-METACD013B-WEB-2019-PTC
2019-04-12 23:47:09 eSport.eSuperliga.2019.04.10.Round.15.FCK.vs.AAB.DANiSH.720p.WEB.x264-DANES
2019-04-12 23:49:33 eSport.eSuperliga.2019.04.10.Round.15.FCK.vs.AAB.DANiSH.1080p.WEB.x264-DANES
2019-04-12 23:52:06 eSport.eSuperliga.2019.04.10.Round.15.LBK.vs.HOB.DANiSH.1080p.WEB.x264-DANES
2019-04-12 23:56:22 Komsije.S01E01.iNTERNAL.SERBiAN.WEB.x264-RADiOACTiVE
2019-04-12 23:56:23 Komsije.S01E02.iNTERNAL.SERBiAN.WEB.x264-RADiOACTiVE
2019-04-12 23:56:24 Komsije.S01E03.iNTERNAL.SERBiAN.WEB.x264-RADiOACTiVE
2019-04-12 23:56:25 Komsije.S01E04.iNTERNAL.SERBiAN.WEB.x264-RADiOACTiVE
2019-04-12 23:56:25 Komsije.S01E05.iNTERNAL.SERBiAN.WEB.x264-RADiOACTiVE
2019-04-12 23:56:26 Komsije.S01E06.iNTERNAL.SERBiAN.WEB.x264-RADiOACTiVE
2019-04-12 23:56:28 Komsije.S01E07.iNTERNAL.SERBiAN.WEB.x264-RADiOACTiVE
2019-04-12 23:56:30 Komsije.S01E08.iNTERNAL.SERBiAN.WEB.x264-RADiOACTiVE
2019-04-12 23:56:32 Komsije.S01E09.iNTERNAL.SERBiAN.WEB.x264-RADiOACTiVE
2019-04-12 23:56:35 Komsije.S01E10.iNTERNAL.SERBiAN.WEB.x264-RADiOACTiVE
2019-04-12 23:56:36 Komsije.S01E11.iNTERNAL.SERBiAN.WEB.x264-RADiOACTiVE
2019-04-12 23:56:38 Komsije.S01E12.iNTERNAL.SERBiAN.WEB.x264-RADiOACTiVE
2019-04-12 23:57:56 Nicky_Romero_-_Protocol_Radio_348-SAT-04-12-2019-TALiON
2019-04-12 23:58:28 Senkveld.Med.Helene.Og.Stian.S02E10.NORWEGiAN.720p.HDTV.x264-NORPiLT